<?xml version="1.0" encoding="UTF-8" standalone="no" ?>
<gpx xmlns="http://www.topografix.com/GPX/1/1" xmlns:xsi="http://www.w3.org/2001/XMLSchema-instance" xsi:schemaLocation="http://www.topografix.com/GPX/1/1 http://www.topografix.com/GPX/1/1/gpx.xsd" version="1.1" creator="VisuGPX - https://www.visugpx.com">
  <metadata>
    <name>Bayons Vergeres Garnaysse Pinée Esparron</name>
    <desc><![CDATA[Longue montée depuis Bayons, 10 km pour un peu moins de 800m de D+, par la nouvelle large piste forestière tres gravillonnée (trop ) au début .Superbes panoramas se dévoilant progressivement . Descente depuis les Vergeres par piste agréable , en bas , au gué on prend à gauche direction Lac ., puis à env 2km prendre à droite  la piste de la Pinée qui descend à Esparron mairie d'où retour à Bayons par route et piste à droite avant le pont du Forest après la cascade .Tres bie adapté au VTT/AE
Amateurs de casse bécane et Velo acrobatique passez votre chemin]]></desc>
  </metadata>
  <trk>
    <name><![CDATA[N°A7 Bayons Vergeres Garbnaysse Pinée Esparron]]></name>
    <trkseg>
      <trkpt lat="44.33783" lon="6.17009">
        <ele>1160.54</ele>
        <time>2020-08-26T07:13:29Z</time>
      </trkpt>
      <trkpt lat="44.33783" lon="6.17009">
        <ele>1160.51</ele>
        <time>2020-08-26T07:13:30Z</time>
      </trkpt>
      <trkpt lat="44.33743" lon="6.16829">
        <ele>1156.98</ele>
        <time>2020-08-26T07:17:59Z</time>
      </trkpt>
      <trkpt lat="44.33797" lon="6.16836">
        <ele>1157.17</ele>
        <time>2020-08-26T07:18:05Z</time>
      </trkpt>
      <trkpt lat="44.33796" lon="6.16831">
        <ele>1157.19</ele>
        <time>2020-08-26T07:18:08Z</time>
      </trkpt>
      <trkpt lat="44.33794" lon="6.16825">
        <ele>1157.15</ele>
        <time>2020-08-26T07:18:10Z</time>
      </trkpt>
      <trkpt lat="44.33793" lon="6.16822">
        <ele>1157.14</ele>
        <time>2020-08-26T07:18:11Z</time>
      </trkpt>
      <trkpt lat="44.3377" lon="6.16771">
        <ele>1156.09</ele>
        <time>2020-08-26T07:18:27Z</time>
      </trkpt>
      <trkpt lat="44.33754" lon="6.16734">
        <ele>1155.42</ele>
        <time>2020-08-26T07:18:38Z</time>
      </trkpt>
      <trkpt lat="44.33735" lon="6.16695">
        <ele>1154.77</ele>
        <time>2020-08-26T07:18:49Z</time>
      </trkpt>
      <trkpt lat="44.33718" lon="6.16651">
        <ele>1153.25</ele>
        <time>2020-08-26T07:19:01Z</time>
      </trkpt>
      <trkpt lat="44.33706" lon="6.16612">
        <ele>1152.63</ele>
        <time>2020-08-26T07:19:11Z</time>
      </trkpt>
      <trkpt lat="44.33702" lon="6.16603">
        <ele>1152.44</ele>
        <time>2020-08-26T07:19:17Z</time>
      </trkpt>
      <trkpt lat="44.33699" lon="6.16594">
        <ele>1152.39</ele>
        <time>2020-08-26T07:19:38Z</time>
      </trkpt>
      <trkpt lat="44.33699" lon="6.16594">
        <ele>1152.22</ele>
        <time>2020-08-26T07:19:41Z</time>
      </trkpt>
      <trkpt lat="44.33693" lon="6.16577">
        <ele>1152.17</ele>
        <time>2020-08-26T07:19:46Z</time>
      </trkpt>
      <trkpt lat="44.33663" lon="6.16514">
        <ele>1150.95</ele>
        <time>2020-08-26T07:20:02Z</time>
      </trkpt>
      <trkpt lat="44.33641" lon="6.16468">
        <ele>1149.82</ele>
        <time>2020-08-26T07:20:15Z</time>
      </trkpt>
      <trkpt lat="44.33633" lon="6.16421">
        <ele>1149.03</ele>
        <time>2020-08-26T07:20:29Z</time>
      </trkpt>
      <trkpt lat="44.33633" lon="6.16414">
        <ele>1148.87</ele>
        <time>2020-08-26T07:20:31Z</time>
      </trkpt>
      <trkpt lat="44.33634" lon="6.16411">
        <ele>1148.83</ele>
        <time>2020-08-26T07:20:32Z</time>
      </trkpt>
      <trkpt lat="44.33636" lon="6.16409">
        <ele>1148.79</ele>
        <time>2020-08-26T07:20:33Z</time>
      </trkpt>
      <trkpt lat="44.33637" lon="6.16406">
        <ele>1148.77</ele>
        <time>2020-08-26T07:20:34Z</time>
      </trkpt>
      <trkpt lat="44.33638" lon="6.16402">
        <ele>1148.75</ele>
        <time>2020-08-26T07:20:35Z</time>
      </trkpt>
      <trkpt lat="44.3364" lon="6.16399">
        <ele>1148.73</ele>
        <time>2020-08-26T07:20:36Z</time>
      </trkpt>
      <trkpt lat="44.33647" lon="6.16351">
        <ele>1148.49</ele>
        <time>2020-08-26T07:20:50Z</time>
      </trkpt>
      <trkpt lat="44.33646" lon="6.16345">
        <ele>1148.81</ele>
        <time>2020-08-26T07:20:53Z</time>
      </trkpt>
      <trkpt lat="44.33645" lon="6.16343">
        <ele>1149.63</ele>
        <time>2020-08-26T07:20:58Z</time>
      </trkpt>
      <trkpt lat="44.33639" lon="6.1633">
        <ele>1149.87</ele>
        <time>2020-08-26T07:24:44Z</time>
      </trkpt>
      <trkpt lat="44.33638" lon="6.16326">
        <ele>1149.87</ele>
        <time>2020-08-26T07:24:45Z</time>
      </trkpt>
      <trkpt lat="44.33619" lon="6.16274">
        <ele>1150.08</ele>
        <time>2020-08-26T07:25:00Z</time>
      </trkpt>
      <trkpt lat="44.3361" lon="6.16265">
        <ele>1150.1</ele>
        <time>2020-08-26T07:25:09Z</time>
      </trkpt>
      <trkpt lat="44.33607" lon="6.16264">
        <ele>1149.62</ele>
        <time>2020-08-26T07:25:15Z</time>
      </trkpt>
      <trkpt lat="44.33593" lon="6.16236">
        <ele>1149.01</ele>
        <time>2020-08-26T07:25:44Z</time>
      </trkpt>
      <trkpt lat="44.33592" lon="6.16232">
        <ele>1149</ele>
        <time>2020-08-26T07:25:45Z</time>
      </trkpt>
      <trkpt lat="44.3359" lon="6.16228">
        <ele>1148.97</ele>
        <time>2020-08-26T07:25:46Z</time>
      </trkpt>
      <trkpt lat="44.33589" lon="6.16224">
        <ele>1148.96</ele>
        <time>2020-08-26T07:25:47Z</time>
      </trkpt>
      <trkpt lat="44.33591" lon="6.16174">
        <ele>1148.42</ele>
        <time>2020-08-26T07:25:59Z</time>
      </trkpt>
      <trkpt lat="44.33616" lon="6.16169">
        <ele>1149.83</ele>
        <time>2020-08-26T07:26:11Z</time>
      </trkpt>
      <trkpt lat="44.33642" lon="6.16176">
        <ele>1152.93</ele>
        <time>2020-08-26T07:26:25Z</time>
      </trkpt>
      <trkpt lat="44.33668" lon="6.16181">
        <ele>1156.02</ele>
        <time>2020-08-26T07:26:41Z</time>
      </trkpt>
      <trkpt lat="44.33696" lon="6.16183">
        <ele>1159.04</ele>
        <time>2020-08-26T07:26:59Z</time>
      </trkpt>
      <trkpt lat="44.33707" lon="6.16177">
        <ele>1160.35</ele>
        <time>2020-08-26T07:27:08Z</time>
      </trkpt>
      <trkpt lat="44.33706" lon="6.16174">
        <ele>1160.46</ele>
        <time>2020-08-26T07:27:09Z</time>
      </trkpt>
      <trkpt lat="44.33705" lon="6.16172">
        <ele>1160.57</ele>
        <time>2020-08-26T07:27:10Z</time>
      </trkpt>
      <trkpt lat="44.33704" lon="6.1617">
        <ele>1160.71</ele>
        <time>2020-08-26T07:27:11Z</time>
      </trkpt>
      <trkpt lat="44.33703" lon="6.16168">
        <ele>1160.86</ele>
        <time>2020-08-26T07:27:12Z</time>
      </trkpt>
      <trkpt lat="44.33702" lon="6.16165">
        <ele>1160.94</ele>
        <time>2020-08-26T07:27:13Z</time>
      </trkpt>
      <trkpt lat="44.33683" lon="6.16121">
        <ele>1160.55</ele>
        <time>2020-08-26T07:27:23Z</time>
      </trkpt>
      <trkpt lat="44.33675" lon="6.161">
        <ele>1158.6</ele>
        <time>2020-08-26T07:27:27Z</time>
      </trkpt>
      <trkpt lat="44.33673" lon="6.16095">
        <ele>1158.14</ele>
        <time>2020-08-26T07:27:28Z</time>
      </trkpt>
      <trkpt lat="44.33668" lon="6.1608">
        <ele>1156.83</ele>
        <time>2020-08-26T07:27:31Z</time>
      </trkpt>
      <trkpt lat="44.33654" lon="6.16036">
        <ele>1153.46</ele>
        <time>2020-08-26T07:27:39Z</time>
      </trkpt>
      <trkpt lat="44.33645" lon="6.1599">
        <ele>1149.98</ele>
        <time>2020-08-26T07:27:46Z</time>
      </trkpt>
      <trkpt lat="44.33638" lon="6.15928">
        <ele>1146.61</ele>
        <time>2020-08-26T07:27:54Z</time>
      </trkpt>
      <trkpt lat="44.33627" lon="6.15865">
        <ele>1144.22</ele>
        <time>2020-08-26T07:28:02Z</time>
      </trkpt>
      <trkpt lat="44.33626" lon="6.15857">
        <ele>1143.62</ele>
        <time>2020-08-26T07:28:03Z</time>
      </trkpt>
      <trkpt lat="44.33622" lon="6.15811">
        <ele>1142.17</ele>
        <time>2020-08-26T07:28:09Z</time>
      </trkpt>
      <trkpt lat="44.33621" lon="6.15806">
        <ele>1142.11</ele>
        <time>2020-08-26T07:28:10Z</time>
      </trkpt>
      <trkpt lat="44.33619" lon="6.15801">
        <ele>1142.07</ele>
        <time>2020-08-26T07:28:11Z</time>
      </trkpt>
      <trkpt lat="44.33616" lon="6.15797">
        <ele>1142.05</ele>
        <time>2020-08-26T07:28:12Z</time>
      </trkpt>
      <trkpt lat="44.33613" lon="6.15793">
        <ele>1142.04</ele>
        <time>2020-08-26T07:28:13Z</time>
      </trkpt>
      <trkpt lat="44.3361" lon="6.15788">
        <ele>1142.04</ele>
        <time>2020-08-26T07:28:14Z</time>
      </trkpt>
      <trkpt lat="44.33606" lon="6.15783">
        <ele>1142.03</ele>
        <time>2020-08-26T07:28:15Z</time>
      </trkpt>
      <trkpt lat="44.33602" lon="6.15779">
        <ele>1142.02</ele>
        <time>2020-08-26T07:28:16Z</time>
      </trkpt>
      <trkpt lat="44.33598" lon="6.15773">
        <ele>1141.98</ele>
        <time>2020-08-26T07:28:17Z</time>
      </trkpt>
      <trkpt lat="44.3359" lon="6.15763">
        <ele>1141.92</ele>
        <time>2020-08-26T07:28:19Z</time>
      </trkpt>
      <trkpt lat="44.33586" lon="6.15757">
        <ele>1141.9</ele>
        <time>2020-08-26T07:28:20Z</time>
      </trkpt>
      <trkpt lat="44.3357" lon="6.15732">
        <ele>1141.74</ele>
        <time>2020-08-26T07:28:24Z</time>
      </trkpt>
      <trkpt lat="44.33566" lon="6.15725">
        <ele>1141.57</ele>
        <time>2020-08-26T07:28:25Z</time>
      </trkpt>
      <trkpt lat="44.33547" lon="6.15684">
        <ele>1139.82</ele>
        <time>2020-08-26T07:28:30Z</time>
      </trkpt>
      <trkpt lat="44.33543" lon="6.15678">
        <ele>1139.6</ele>
        <time>2020-08-26T07:28:31Z</time>
      </trkpt>
      <trkpt lat="44.3354" lon="6.15672">
        <ele>1139.38</ele>
        <time>2020-08-26T07:28:32Z</time>
      </trkpt>
      <trkpt lat="44.33537" lon="6.15666">
        <ele>1138.95</ele>
        <time>2020-08-26T07:28:33Z</time>
      </trkpt>
      <trkpt lat="44.33534" lon="6.15659">
        <ele>1138</ele>
        <time>2020-08-26T07:28:34Z</time>
      </trkpt>
      <trkpt lat="44.33527" lon="6.15637">
        <ele>1135</ele>
        <time>2020-08-26T07:28:38Z</time>
      </trkpt>
      <trkpt lat="44.33524" lon="6.15632">
        <ele>1134.55</ele>
        <time>2020-08-26T07:28:39Z</time>
      </trkpt>
      <trkpt lat="44.33521" lon="6.15628">
        <ele>1134.3</ele>
        <time>2020-08-26T07:28:40Z</time>
      </trkpt>
      <trkpt lat="44.3351" lon="6.15619">
        <ele>1133.99</ele>
        <time>2020-08-26T07:28:43Z</time>
      </trkpt>
      <trkpt lat="44.33507" lon="6.15615">
        <ele>1133.93</ele>
        <time>2020-08-26T07:28:44Z</time>
      </trkpt>
      <trkpt lat="44.33504" lon="6.1561">
        <ele>1133.87</ele>
        <time>2020-08-26T07:28:45Z</time>
      </trkpt>
      <trkpt lat="44.33501" lon="6.15606">
        <ele>1133.82</ele>
        <time>2020-08-26T07:28:46Z</time>
      </trkpt>
      <trkpt lat="44.33498" lon="6.15601">
        <ele>1133.68</ele>
        <time>2020-08-26T07:28:47Z</time>
      </trkpt>
      <trkpt lat="44.3349" lon="6.15591">
        <ele>1132.88</ele>
        <time>2020-08-26T07:28:56Z</time>
      </trkpt>
      <trkpt lat="44.33462" lon="6.15564">
        <ele>1131.27</ele>
        <time>2020-08-26T07:30:24Z</time>
      </trkpt>
      <trkpt lat="44.33451" lon="6.15528">
        <ele>1131.3</ele>
        <time>2020-08-26T07:30:37Z</time>
      </trkpt>
      <trkpt lat="44.3345" lon="6.15493">
        <ele>1131.29</ele>
        <time>2020-08-26T07:30:49Z</time>
      </trkpt>
      <trkpt lat="44.33446" lon="6.15473">
        <ele>1132.19</ele>
        <time>2020-08-26T07:31:00Z</time>
      </trkpt>
      <trkpt lat="44.33446" lon="6.15459">
        <ele>1133.36</ele>
        <time>2020-08-26T07:31:21Z</time>
      </trkpt>
      <trkpt lat="44.33444" lon="6.15439">
        <ele>1134.43</ele>
        <time>2020-08-26T07:31:42Z</time>
      </trkpt>
      <trkpt lat="44.33438" lon="6.15434">
        <ele>1134.79</ele>
        <time>2020-08-26T07:32:04Z</time>
      </trkpt>
      <trkpt lat="44.33411" lon="6.15409">
        <ele>1135.75</ele>
        <time>2020-08-26T07:32:19Z</time>
      </trkpt>
      <trkpt lat="44.33384" lon="6.15388">
        <ele>1137.75</ele>
        <time>2020-08-26T07:32:34Z</time>
      </trkpt>
      <trkpt lat="44.33358" lon="6.15385">
        <ele>1139.83</ele>
        <time>2020-08-26T07:32:47Z</time>
      </trkpt>
      <trkpt lat="44.3333" lon="6.15369">
        <ele>1141.95</ele>
        <time>2020-08-26T07:33:03Z</time>
      </trkpt>
      <trkpt lat="44.33326" lon="6.15337">
        <ele>1143.26</ele>
        <time>2020-08-26T07:33:15Z</time>
      </trkpt>
      <trkpt lat="44.33326" lon="6.15335">
        <ele>1143.3</ele>
        <time>2020-08-26T07:33:16Z</time>
      </trkpt>
      <trkpt lat="44.33328" lon="6.15301">
        <ele>1146.03</ele>
        <time>2020-08-26T07:33:30Z</time>
      </trkpt>
      <trkpt lat="44.33328" lon="6.15299">
        <ele>1146.18</ele>
        <time>2020-08-26T07:33:31Z</time>
      </trkpt>
      <trkpt lat="44.33328" lon="6.15297">
        <ele>1146.28</ele>
        <time>2020-08-26T07:33:32Z</time>
      </trkpt>
      <trkpt lat="44.33317" lon="6.15272">
        <ele>1148.3</ele>
        <time>2020-08-26T07:33:45Z</time>
      </trkpt>
      <trkpt lat="44.33294" lon="6.15294">
        <ele>1150.67</ele>
        <time>2020-08-26T07:34:01Z</time>
      </trkpt>
      <trkpt lat="44.33263" lon="6.15316">
        <ele>1153.77</ele>
        <time>2020-08-26T07:34:21Z</time>
      </trkpt>
      <trkpt lat="44.33232" lon="6.15315">
        <ele>1155.35</ele>
        <time>2020-08-26T07:34:41Z</time>
      </trkpt>
      <trkpt lat="44.33232" lon="6.15314">
        <ele>1155.55</ele>
        <time>2020-08-26T07:34:44Z</time>
      </trkpt>
      <trkpt lat="44.33222" lon="6.15307">
        <ele>1155.4</ele>
        <time>2020-08-26T07:37:49Z</time>
      </trkpt>
      <trkpt lat="44.3322" lon="6.15307">
        <ele>1155.39</ele>
        <time>2020-08-26T07:37:50Z</time>
      </trkpt>
      <trkpt lat="44.33218" lon="6.15306">
        <ele>1155.38</ele>
        <time>2020-08-26T07:37:51Z</time>
      </trkpt>
      <trkpt lat="44.33216" lon="6.15306">
        <ele>1155.38</ele>
        <time>2020-08-26T07:37:52Z</time>
      </trkpt>
      <trkpt lat="44.33214" lon="6.15305">
        <ele>1155.39</ele>
        <time>2020-08-26T07:37:53Z</time>
      </trkpt>
      <trkpt lat="44.33212" lon="6.15304">
        <ele>1155.41</ele>
        <time>2020-08-26T07:37:54Z</time>
      </trkpt>
      <trkpt lat="44.3321" lon="6.15303">
        <ele>1155.51</ele>
        <time>2020-08-26T07:37:55Z</time>
      </trkpt>
      <trkpt lat="44.33209" lon="6.15302">
        <ele>1155.55</ele>
        <time>2020-08-26T07:37:56Z</time>
      </trkpt>
      <trkpt lat="44.33207" lon="6.15301">
        <ele>1155.58</ele>
        <time>2020-08-26T07:37:57Z</time>
      </trkpt>
      <trkpt lat="44.33205" lon="6.153">
        <ele>1155.6</ele>
        <time>2020-08-26T07:37:58Z</time>
      </trkpt>
      <trkpt lat="44.33203" lon="6.15298">
        <ele>1155.64</ele>
        <time>2020-08-26T07:37:59Z</time>
      </trkpt>
      <trkpt lat="44.33202" lon="6.15297">
        <ele>1155.69</ele>
        <time>2020-08-26T07:38:00Z</time>
      </trkpt>
      <trkpt lat="44.33166" lon="6.15283">
        <ele>1158.45</ele>
        <time>2020-08-26T07:38:21Z</time>
      </trkpt>
      <trkpt lat="44.33131" lon="6.15285">
        <ele>1161.52</ele>
        <time>2020-08-26T07:38:40Z</time>
      </trkpt>
      <trkpt lat="44.33121" lon="6.15258">
        <ele>1164.24</ele>
        <time>2020-08-26T07:38:53Z</time>
      </trkpt>
      <trkpt lat="44.33111" lon="6.15223">
        <ele>1167.12</ele>
        <time>2020-08-26T07:39:08Z</time>
      </trkpt>
      <trkpt lat="44.33091" lon="6.15198">
        <ele>1170.17</ele>
        <time>2020-08-26T07:39:23Z</time>
      </trkpt>
      <trkpt lat="44.33063" lon="6.15193">
        <ele>1173.24</ele>
        <time>2020-08-26T07:39:38Z</time>
      </trkpt>
      <trkpt lat="44.3303" lon="6.15188">
        <ele>1176.3</ele>
        <time>2020-08-26T07:39:56Z</time>
      </trkpt>
      <trkpt lat="44.33007" lon="6.15163">
        <ele>1179.35</ele>
        <time>2020-08-26T07:40:12Z</time>
      </trkpt>
      <trkpt lat="44.33005" lon="6.15122">
        <ele>1182.36</ele>
        <time>2020-08-26T07:40:28Z</time>
      </trkpt>
      <trkpt lat="44.33004" lon="6.1508">
        <ele>1185.38</ele>
        <time>2020-08-26T07:40:45Z</time>
      </trkpt>
      <trkpt lat="44.32987" lon="6.1505">
        <ele>1188.68</ele>
        <time>2020-08-26T07:41:00Z</time>
      </trkpt>
      <trkpt lat="44.3297" lon="6.15039">
        <ele>1190.41</ele>
        <time>2020-08-26T07:41:11Z</time>
      </trkpt>
      <trkpt lat="44.32969" lon="6.15041">
        <ele>1190.57</ele>
        <time>2020-08-26T07:41:12Z</time>
      </trkpt>
      <trkpt lat="44.32968" lon="6.15043">
        <ele>1190.66</ele>
        <time>2020-08-26T07:41:13Z</time>
      </trkpt>
      <trkpt lat="44.32967" lon="6.15045">
        <ele>1190.72</ele>
        <time>2020-08-26T07:41:14Z</time>
      </trkpt>
      <trkpt lat="44.32966" lon="6.15048">
        <ele>1190.77</ele>
        <time>2020-08-26T07:41:15Z</time>
      </trkpt>
      <trkpt lat="44.32966" lon="6.1505">
        <ele>1190.87</ele>
        <time>2020-08-26T07:41:16Z</time>
      </trkpt>
      <trkpt lat="44.32966" lon="6.15053">
        <ele>1190.96</ele>
        <time>2020-08-26T07:41:17Z</time>
      </trkpt>
      <trkpt lat="44.32966" lon="6.15055">
        <ele>1191.06</ele>
        <time>2020-08-26T07:41:18Z</time>
      </trkpt>
      <trkpt lat="44.32967" lon="6.15057">
        <ele>1191.15</ele>
        <time>2020-08-26T07:41:19Z</time>
      </trkpt>
      <trkpt lat="44.32968" lon="6.15059">
        <ele>1191.23</ele>
        <time>2020-08-26T07:41:20Z</time>
      </trkpt>
      <trkpt lat="44.3297" lon="6.15061">
        <ele>1191.27</ele>
        <time>2020-08-26T07:41:21Z</time>
      </trkpt>
      <trkpt lat="44.32971" lon="6.15062">
        <ele>1191.39</ele>
        <time>2020-08-26T07:41:22Z</time>
      </trkpt>
      <trkpt lat="44.32991" lon="6.15089">
        <ele>1193.1</ele>
        <time>2020-08-26T07:41:37Z</time>
      </trkpt>
      <trkpt lat="44.32987" lon="6.15142">
        <ele>1195.95</ele>
        <time>2020-08-26T07:41:57Z</time>
      </trkpt>
      <trkpt lat="44.32987" lon="6.15194">
        <ele>1198.83</ele>
        <time>2020-08-26T07:42:17Z</time>
      </trkpt>
      <trkpt lat="44.33004" lon="6.15228">
        <ele>1201.11</ele>
        <time>2020-08-26T07:42:33Z</time>
      </trkpt>
      <trkpt lat="44.33012" lon="6.15278">
        <ele>1204.34</ele>
        <time>2020-08-26T07:42:53Z</time>
      </trkpt>
      <trkpt lat="44.33011" lon="6.1532">
        <ele>1207.2</ele>
        <time>2020-08-26T07:43:09Z</time>
      </trkpt>
      <trkpt lat="44.33002" lon="6.15344">
        <ele>1210.34</ele>
        <time>2020-08-26T07:43:21Z</time>
      </trkpt>
      <trkpt lat="44.32983" lon="6.15358">
        <ele>1213.57</ele>
        <time>2020-08-26T07:43:34Z</time>
      </trkpt>
      <trkpt lat="44.32976" lon="6.15385">
        <ele>1216.65</ele>
        <time>2020-08-26T07:43:46Z</time>
      </trkpt>
      <trkpt lat="44.32973" lon="6.1542">
        <ele>1219.74</ele>
        <time>2020-08-26T07:44:00Z</time>
      </trkpt>
      <trkpt lat="44.32977" lon="6.15456">
        <ele>1222.73</ele>
        <time>2020-08-26T07:44:15Z</time>
      </trkpt>
      <trkpt lat="44.32979" lon="6.15486">
        <ele>1225.85</ele>
        <time>2020-08-26T07:44:27Z</time>
      </trkpt>
      <trkpt lat="44.32984" lon="6.15529">
        <ele>1229.05</ele>
        <time>2020-08-26T07:44:45Z</time>
      </trkpt>
      <trkpt lat="44.32992" lon="6.15572">
        <ele>1232.21</ele>
        <time>2020-08-26T07:45:03Z</time>
      </trkpt>
      <trkpt lat="44.32992" lon="6.15607">
        <ele>1235.38</ele>
        <time>2020-08-26T07:45:17Z</time>
      </trkpt>
      <trkpt lat="44.32989" lon="6.15644">
        <ele>1238.67</ele>
        <time>2020-08-26T07:45:33Z</time>
      </trkpt>
      <trkpt lat="44.32983" lon="6.15677">
        <ele>1241.89</ele>
        <time>2020-08-26T07:45:47Z</time>
      </trkpt>
      <trkpt lat="44.32971" lon="6.15707">
        <ele>1244.17</ele>
        <time>2020-08-26T07:46:01Z</time>
      </trkpt>
      <trkpt lat="44.32971" lon="6.15709">
        <ele>1244.44</ele>
        <time>2020-08-26T07:46:02Z</time>
      </trkpt>
      <trkpt lat="44.32971" lon="6.15712">
        <ele>1244.99</ele>
        <time>2020-08-26T07:46:03Z</time>
      </trkpt>
      <trkpt lat="44.32978" lon="6.15743">
        <ele>1246.61</ele>
        <time>2020-08-26T07:46:17Z</time>
      </trkpt>
      <trkpt lat="44.32983" lon="6.15767">
        <ele>1248.05</ele>
        <time>2020-08-26T07:46:28Z</time>
      </trkpt>
      <trkpt lat="44.32982" lon="6.15769">
        <ele>1248.35</ele>
        <time>2020-08-26T07:46:29Z</time>
      </trkpt>
      <trkpt lat="44.32981" lon="6.15771">
        <ele>1248.35</ele>
        <time>2020-08-26T07:46:30Z</time>
      </trkpt>
      <trkpt lat="44.3298" lon="6.15774">
        <ele>1248.53</ele>
        <time>2020-08-26T07:46:31Z</time>
      </trkpt>
      <trkpt lat="44.32979" lon="6.15777">
        <ele>1248.6</ele>
        <time>2020-08-26T07:46:32Z</time>
      </trkpt>
      <trkpt lat="44.3296" lon="6.15802">
        <ele>1251.83</ele>
        <time>2020-08-26T07:46:47Z</time>
      </trkpt>
      <trkpt lat="44.32945" lon="6.15831">
        <ele>1254.94</ele>
        <time>2020-08-26T07:47:01Z</time>
      </trkpt>
      <trkpt lat="44.32937" lon="6.15879">
        <ele>1258.37</ele>
        <time>2020-08-26T07:47:20Z</time>
      </trkpt>
      <trkpt lat="44.32926" lon="6.15921">
        <ele>1261.38</ele>
        <time>2020-08-26T07:47:38Z</time>
      </trkpt>
      <trkpt lat="44.32896" lon="6.15955">
        <ele>1264.28</ele>
        <time>2020-08-26T07:47:59Z</time>
      </trkpt>
      <trkpt lat="44.32899" lon="6.15987">
        <ele>1265.68</ele>
        <time>2020-08-26T07:48:13Z</time>
      </trkpt>
      <trkpt lat="44.32915" lon="6.16023">
        <ele>1268.81</ele>
        <time>2020-08-26T07:48:29Z</time>
      </trkpt>
      <trkpt lat="44.3291" lon="6.16061">
        <ele>1272.02</ele>
        <time>2020-08-26T07:48:44Z</time>
      </trkpt>
      <trkpt lat="44.32903" lon="6.16097">
        <ele>1275.25</ele>
        <time>2020-08-26T07:48:59Z</time>
      </trkpt>
      <trkpt lat="44.32901" lon="6.16132">
        <ele>1278.33</ele>
        <time>2020-08-26T07:49:14Z</time>
      </trkpt>
      <trkpt lat="44.32886" lon="6.16135">
        <ele>1279.73</ele>
        <time>2020-08-26T07:49:26Z</time>
      </trkpt>
      <trkpt lat="44.32879" lon="6.16084">
        <ele>1281.1</ele>
        <time>2020-08-26T07:49:46Z</time>
      </trkpt>
      <trkpt lat="44.3287" lon="6.16047">
        <ele>1284.15</ele>
        <time>2020-08-26T07:50:02Z</time>
      </trkpt>
      <trkpt lat="44.32852" lon="6.16022">
        <ele>1287.21</ele>
        <time>2020-08-26T07:50:17Z</time>
      </trkpt>
      <trkpt lat="44.32833" lon="6.16006">
        <ele>1290.23</ele>
        <time>2020-08-26T07:50:30Z</time>
      </trkpt>
      <trkpt lat="44.32821" lon="6.15973">
        <ele>1293.15</ele>
        <time>2020-08-26T07:50:46Z</time>
      </trkpt>
      <trkpt lat="44.32829" lon="6.15942">
        <ele>1295.51</ele>
        <time>2020-08-26T07:51:00Z</time>
      </trkpt>
      <trkpt lat="44.32833" lon="6.15893">
        <ele>1298.61</ele>
        <time>2020-08-26T07:51:20Z</time>
      </trkpt>
      <trkpt lat="44.32833" lon="6.1585">
        <ele>1301.87</ele>
        <time>2020-08-26T07:51:38Z</time>
      </trkpt>
      <trkpt lat="44.32835" lon="6.15813">
        <ele>1305.02</ele>
        <time>2020-08-26T07:51:53Z</time>
      </trkpt>
      <trkpt lat="44.32836" lon="6.1577">
        <ele>1308.13</ele>
        <time>2020-08-26T07:52:11Z</time>
      </trkpt>
      <trkpt lat="44.32836" lon="6.15729">
        <ele>1311.2</ele>
        <time>2020-08-26T07:52:28Z</time>
      </trkpt>
      <trkpt lat="44.32837" lon="6.15682">
        <ele>1314.25</ele>
        <time>2020-08-26T07:52:47Z</time>
      </trkpt>
      <trkpt lat="44.32831" lon="6.15635">
        <ele>1316.67</ele>
        <time>2020-08-26T07:53:06Z</time>
      </trkpt>
      <trkpt lat="44.32822" lon="6.15648">
        <ele>1317.36</ele>
        <time>2020-08-26T07:53:16Z</time>
      </trkpt>
      <trkpt lat="44.32824" lon="6.1569">
        <ele>1320.19</ele>
        <time>2020-08-26T07:53:32Z</time>
      </trkpt>
      <trkpt lat="44.32815" lon="6.15741">
        <ele>1323.05</ele>
        <time>2020-08-26T07:53:53Z</time>
      </trkpt>
      <trkpt lat="44.32795" lon="6.15791">
        <ele>1326.02</ele>
        <time>2020-08-26T07:54:16Z</time>
      </trkpt>
      <trkpt lat="44.3277" lon="6.15823">
        <ele>1329.12</ele>
        <time>2020-08-26T07:54:35Z</time>
      </trkpt>
      <trkpt lat="44.32751" lon="6.15852">
        <ele>1331.57</ele>
        <time>2020-08-26T07:54:51Z</time>
      </trkpt>
      <trkpt lat="44.32735" lon="6.15883">
        <ele>1334.76</ele>
        <time>2020-08-26T07:55:07Z</time>
      </trkpt>
      <trkpt lat="44.32723" lon="6.1592">
        <ele>1337.86</ele>
        <time>2020-08-26T07:55:24Z</time>
      </trkpt>
      <trkpt lat="44.3271" lon="6.15957">
        <ele>1341.06</ele>
        <time>2020-08-26T07:55:41Z</time>
      </trkpt>
      <trkpt lat="44.32693" lon="6.15986">
        <ele>1343.68</ele>
        <time>2020-08-26T07:55:56Z</time>
      </trkpt>
      <trkpt lat="44.32676" lon="6.1602">
        <ele>1346.9</ele>
        <time>2020-08-26T07:56:13Z</time>
      </trkpt>
      <trkpt lat="44.32666" lon="6.16053">
        <ele>1349.93</ele>
        <time>2020-08-26T07:56:28Z</time>
      </trkpt>
      <trkpt lat="44.3266" lon="6.16091">
        <ele>1352.96</ele>
        <time>2020-08-26T07:56:44Z</time>
      </trkpt>
      <trkpt lat="44.32659" lon="6.16133">
        <ele>1355.72</ele>
        <time>2020-08-26T07:57:01Z</time>
      </trkpt>
      <trkpt lat="44.32658" lon="6.16139">
        <ele>1356.46</ele>
        <time>2020-08-26T07:57:04Z</time>
      </trkpt>
      <trkpt lat="44.32658" lon="6.16142">
        <ele>1356.61</ele>
        <time>2020-08-26T07:57:05Z</time>
      </trkpt>
      <trkpt lat="44.32658" lon="6.16144">
        <ele>1356.78</ele>
        <time>2020-08-26T07:57:06Z</time>
      </trkpt>
      <trkpt lat="44.32658" lon="6.16191">
        <ele>1359.79</ele>
        <time>2020-08-26T07:57:25Z</time>
      </trkpt>
      <trkpt lat="44.32661" lon="6.16235">
        <ele>1362.43</ele>
        <time>2020-08-26T07:57:43Z</time>
      </trkpt>
      <trkpt lat="44.32644" lon="6.16241">
        <ele>1363.29</ele>
        <time>2020-08-26T07:57:55Z</time>
      </trkpt>
      <trkpt lat="44.32641" lon="6.16202">
        <ele>1364.75</ele>
        <time>2020-08-26T07:58:10Z</time>
      </trkpt>
      <trkpt lat="44.3263" lon="6.16146">
        <ele>1366.98</ele>
        <time>2020-08-26T07:58:33Z</time>
      </trkpt>
      <trkpt lat="44.32619" lon="6.16104">
        <ele>1370.13</ele>
        <time>2020-08-26T07:58:51Z</time>
      </trkpt>
      <trkpt lat="44.32608" lon="6.16068">
        <ele>1373.31</ele>
        <time>2020-08-26T07:59:06Z</time>
      </trkpt>
      <trkpt lat="44.32602" lon="6.16038">
        <ele>1376.43</ele>
        <time>2020-08-26T07:59:19Z</time>
      </trkpt>
      <trkpt lat="44.3259" lon="6.15997">
        <ele>1379.49</ele>
        <time>2020-08-26T07:59:37Z</time>
      </trkpt>
      <trkpt lat="44.32573" lon="6.15958">
        <ele>1382.64</ele>
        <time>2020-08-26T07:59:55Z</time>
      </trkpt>
      <trkpt lat="44.32553" lon="6.15938">
        <ele>1385.8</ele>
        <time>2020-08-26T08:00:10Z</time>
      </trkpt>
      <trkpt lat="44.32531" lon="6.15912">
        <ele>1388.99</ele>
        <time>2020-08-26T08:00:27Z</time>
      </trkpt>
      <trkpt lat="44.32518" lon="6.15866">
        <ele>1391.87</ele>
        <time>2020-08-26T08:00:48Z</time>
      </trkpt>
      <trkpt lat="44.32506" lon="6.15837">
        <ele>1394.6</ele>
        <time>2020-08-26T08:01:02Z</time>
      </trkpt>
      <trkpt lat="44.32494" lon="6.15802">
        <ele>1397.6</ele>
        <time>2020-08-26T08:01:19Z</time>
      </trkpt>
      <trkpt lat="44.32494" lon="6.15779">
        <ele>1399.05</ele>
        <time>2020-08-26T08:01:29Z</time>
      </trkpt>
      <trkpt lat="44.32494" lon="6.15764">
        <ele>1400.54</ele>
        <time>2020-08-26T08:01:36Z</time>
      </trkpt>
      <trkpt lat="44.32495" lon="6.15762">
        <ele>1400.72</ele>
        <time>2020-08-26T08:01:37Z</time>
      </trkpt>
      <trkpt lat="44.32494" lon="6.15759">
        <ele>1400.94</ele>
        <time>2020-08-26T08:01:38Z</time>
      </trkpt>
      <trkpt lat="44.32494" lon="6.15757">
        <ele>1401.27</ele>
        <time>2020-08-26T08:01:39Z</time>
      </trkpt>
      <trkpt lat="44.32495" lon="6.15755">
        <ele>1401.51</ele>
        <time>2020-08-26T08:01:40Z</time>
      </trkpt>
      <trkpt lat="44.32495" lon="6.15753">
        <ele>1401.66</ele>
        <time>2020-08-26T08:01:41Z</time>
      </trkpt>
      <trkpt lat="44.32495" lon="6.1575">
        <ele>1401.74</ele>
        <time>2020-08-26T08:01:42Z</time>
      </trkpt>
      <trkpt lat="44.32495" lon="6.15748">
        <ele>1402.01</ele>
        <time>2020-08-26T08:01:43Z</time>
      </trkpt>
      <trkpt lat="44.32495" lon="6.15746">
        <ele>1402.25</ele>
        <time>2020-08-26T08:01:44Z</time>
      </trkpt>
      <trkpt lat="44.32494" lon="6.15743">
        <ele>1402.42</ele>
        <time>2020-08-26T08:01:45Z</time>
      </trkpt>
      <trkpt lat="44.32493" lon="6.15741">
        <ele>1402.54</ele>
        <time>2020-08-26T08:01:46Z</time>
      </trkpt>
      <trkpt lat="44.32493" lon="6.15738">
        <ele>1402.68</ele>
        <time>2020-08-26T08:01:47Z</time>
      </trkpt>
      <trkpt lat="44.32494" lon="6.15736">
        <ele>1402.78</ele>
        <time>2020-08-26T08:01:48Z</time>
      </trkpt>
      <trkpt lat="44.32494" lon="6.15733">
        <ele>1402.88</ele>
        <time>2020-08-26T08:01:49Z</time>
      </trkpt>
      <trkpt lat="44.32494" lon="6.15731">
        <ele>1402.97</ele>
        <time>2020-08-26T08:01:50Z</time>
      </trkpt>
      <trkpt lat="44.32495" lon="6.15728">
        <ele>1403.06</ele>
        <time>2020-08-26T08:01:51Z</time>
      </trkpt>
      <trkpt lat="44.32505" lon="6.15687">
        <ele>1405.31</ele>
        <time>2020-08-26T08:02:08Z</time>
      </trkpt>
      <trkpt lat="44.3251" lon="6.1566">
        <ele>1407.86</ele>
        <time>2020-08-26T08:02:21Z</time>
      </trkpt>
      <trkpt lat="44.32512" lon="6.1564">
        <ele>1409.02</ele>
        <time>2020-08-26T08:02:28Z</time>
      </trkpt>
      <trkpt lat="44.32512" lon="6.15637">
        <ele>1409.43</ele>
        <time>2020-08-26T08:02:29Z</time>
      </trkpt>
      <trkpt lat="44.32512" lon="6.15635">
        <ele>1409.65</ele>
        <time>2020-08-26T08:02:30Z</time>
      </trkpt>
      <trkpt lat="44.32512" lon="6.15632">
        <ele>1409.83</ele>
        <time>2020-08-26T08:02:31Z</time>
      </trkpt>
      <trkpt lat="44.32512" lon="6.1563">
        <ele>1409.92</ele>
        <time>2020-08-26T08:02:32Z</time>
      </trkpt>
      <trkpt lat="44.32513" lon="6.15626">
        <ele>1410.36</ele>
        <time>2020-08-26T08:02:34Z</time>
      </trkpt>
      <trkpt lat="44.32513" lon="6.15624">
        <ele>1410.53</ele>
        <time>2020-08-26T08:02:35Z</time>
      </trkpt>
      <trkpt lat="44.32514" lon="6.15622">
        <ele>1410.71</ele>
        <time>2020-08-26T08:02:36Z</time>
      </trkpt>
      <trkpt lat="44.32514" lon="6.15575">
        <ele>1413.61</ele>
        <time>2020-08-26T08:02:55Z</time>
      </trkpt>
      <trkpt lat="44.32499" lon="6.15536">
        <ele>1416.38</ele>
        <time>2020-08-26T08:03:14Z</time>
      </trkpt>
      <trkpt lat="44.32477" lon="6.15525">
        <ele>1419.4</ele>
        <time>2020-08-26T08:03:29Z</time>
      </trkpt>
      <trkpt lat="44.32457" lon="6.15514">
        <ele>1421.17</ele>
        <time>2020-08-26T08:03:42Z</time>
      </trkpt>
      <trkpt lat="44.32444" lon="6.15493">
        <ele>1423.88</ele>
        <time>2020-08-26T08:03:54Z</time>
      </trkpt>
      <trkpt lat="44.32443" lon="6.15492">
        <ele>1424.09</ele>
        <time>2020-08-26T08:03:55Z</time>
      </trkpt>
      <trkpt lat="44.32442" lon="6.1549">
        <ele>1424.4</ele>
        <time>2020-08-26T08:03:56Z</time>
      </trkpt>
      <trkpt lat="44.3244" lon="6.15489">
        <ele>1424.67</ele>
        <time>2020-08-26T08:03:57Z</time>
      </trkpt>
      <trkpt lat="44.32438" lon="6.15488">
        <ele>1424.83</ele>
        <time>2020-08-26T08:03:58Z</time>
      </trkpt>
      <trkpt lat="44.32437" lon="6.15486">
        <ele>1424.92</ele>
        <time>2020-08-26T08:03:59Z</time>
      </trkpt>
      <trkpt lat="44.32435" lon="6.15484">
        <ele>1425.06</ele>
        <time>2020-08-26T08:04:00Z</time>
      </trkpt>
      <trkpt lat="44.32434" lon="6.15482">
        <ele>1425.29</ele>
        <time>2020-08-26T08:04:01Z</time>
      </trkpt>
      <trkpt lat="44.32433" lon="6.15481">
        <ele>1425.47</ele>
        <time>2020-08-26T08:04:02Z</time>
      </trkpt>
      <trkpt lat="44.32432" lon="6.15479">
        <ele>1425.65</ele>
        <time>2020-08-26T08:04:03Z</time>
      </trkpt>
      <trkpt lat="44.32414" lon="6.1546">
        <ele>1427.78</ele>
        <time>2020-08-26T08:04:16Z</time>
      </trkpt>
      <trkpt lat="44.32411" lon="6.15453">
        <ele>1428.45</ele>
        <time>2020-08-26T08:04:20Z</time>
      </trkpt>
      <trkpt lat="44.3241" lon="6.15451">
        <ele>1428.58</ele>
        <time>2020-08-26T08:04:21Z</time>
      </trkpt>
      <trkpt lat="44.32409" lon="6.1545">
        <ele>1428.8</ele>
        <time>2020-08-26T08:04:22Z</time>
      </trkpt>
      <trkpt lat="44.32396" lon="6.15422">
        <ele>1431.36</ele>
        <time>2020-08-26T08:04:37Z</time>
      </trkpt>
      <trkpt lat="44.32389" lon="6.15386">
        <ele>1433.95</ele>
        <time>2020-08-26T08:04:52Z</time>
      </trkpt>
      <trkpt lat="44.32386" lon="6.15375">
        <ele>1435</ele>
        <time>2020-08-26T08:04:57Z</time>
      </trkpt>
      <trkpt lat="44.32386" lon="6.15373">
        <ele>1435.15</ele>
        <time>2020-08-26T08:04:58Z</time>
      </trkpt>
      <trkpt lat="44.32386" lon="6.15371">
        <ele>1435.29</ele>
        <time>2020-08-26T08:04:59Z</time>
      </trkpt>
      <trkpt lat="44.32385" lon="6.15368">
        <ele>1435.47</ele>
        <time>2020-08-26T08:05:00Z</time>
      </trkpt>
      <trkpt lat="44.32385" lon="6.15366">
        <ele>1435.62</ele>
        <time>2020-08-26T08:05:01Z</time>
      </trkpt>
      <trkpt lat="44.32385" lon="6.15364">
        <ele>1435.9</ele>
        <time>2020-08-26T08:05:02Z</time>
      </trkpt>
      <trkpt lat="44.32385" lon="6.15361">
        <ele>1436.18</ele>
        <time>2020-08-26T08:05:03Z</time>
      </trkpt>
      <trkpt lat="44.32386" lon="6.15359">
        <ele>1436.42</ele>
        <time>2020-08-26T08:05:04Z</time>
      </trkpt>
      <trkpt lat="44.32386" lon="6.15357">
        <ele>1436.55</ele>
        <time>2020-08-26T08:05:05Z</time>
      </trkpt>
      <trkpt lat="44.32386" lon="6.15355">
        <ele>1436.65</ele>
        <time>2020-08-26T08:05:06Z</time>
      </trkpt>
      <trkpt lat="44.32386" lon="6.15353">
        <ele>1436.83</ele>
        <time>2020-08-26T08:05:07Z</time>
      </trkpt>
      <trkpt lat="44.32385" lon="6.15351">
        <ele>1436.98</ele>
        <time>2020-08-26T08:05:08Z</time>
      </trkpt>
      <trkpt lat="44.32385" lon="6.15349">
        <ele>1437.13</ele>
        <time>2020-08-26T08:05:09Z</time>
      </trkpt>
      <trkpt lat="44.32384" lon="6.15347">
        <ele>1437.21</ele>
        <time>2020-08-26T08:05:10Z</time>
      </trkpt>
      <trkpt lat="44.32384" lon="6.15344">
        <ele>1437.31</ele>
        <time>2020-08-26T08:05:11Z</time>
      </trkpt>
      <trkpt lat="44.32383" lon="6.15341">
        <ele>1437.43</ele>
        <time>2020-08-26T08:05:12Z</time>
      </trkpt>
      <trkpt lat="44.32383" lon="6.15337">
        <ele>1437.51</ele>
        <time>2020-08-26T08:05:13Z</time>
      </trkpt>
      <trkpt lat="44.32383" lon="6.15334">
        <ele>1437.56</ele>
        <time>2020-08-26T08:05:14Z</time>
      </trkpt>
      <trkpt lat="44.32383" lon="6.15331">
        <ele>1437.59</ele>
        <time>2020-08-26T08:05:15Z</time>
      </trkpt>
      <trkpt lat="44.32376" lon="6.15297">
        <ele>1440.35</ele>
        <time>2020-08-26T08:05:31Z</time>
      </trkpt>
      <trkpt lat="44.32373" lon="6.15259">
        <ele>1443.3</ele>
        <time>2020-08-26T08:05:46Z</time>
      </trkpt>
      <trkpt lat="44.32372" lon="6.15219">
        <ele>1446.35</ele>
        <time>2020-08-26T08:06:03Z</time>
      </trkpt>
      <trkpt lat="44.32372" lon="6.15179">
        <ele>1449.45</ele>
        <time>2020-08-26T08:06:19Z</time>
      </trkpt>
      <trkpt lat="44.32373" lon="6.1514">
        <ele>1452.07</ele>
        <time>2020-08-26T08:06:35Z</time>
      </trkpt>
      <trkpt lat="44.3237" lon="6.15095">
        <ele>1455.02</ele>
        <time>2020-08-26T08:06:54Z</time>
      </trkpt>
      <trkpt lat="44.32367" lon="6.15051">
        <ele>1458.15</ele>
        <time>2020-08-26T08:07:12Z</time>
      </trkpt>
      <trkpt lat="44.32363" lon="6.15008">
        <ele>1461.31</ele>
        <time>2020-08-26T08:07:30Z</time>
      </trkpt>
      <trkpt lat="44.32358" lon="6.15002">
        <ele>1462.23</ele>
        <time>2020-08-26T08:07:37Z</time>
      </trkpt>
      <trkpt lat="44.32355" lon="6.15008">
        <ele>1462.32</ele>
        <time>2020-08-26T08:15:02Z</time>
      </trkpt>
      <trkpt lat="44.32354" lon="6.15011">
        <ele>1462.32</ele>
        <time>2020-08-26T08:15:03Z</time>
      </trkpt>
      <trkpt lat="44.32354" lon="6.15013">
        <ele>1462.32</ele>
        <time>2020-08-26T08:15:04Z</time>
      </trkpt>
      <trkpt lat="44.32353" lon="6.15016">
        <ele>1462.32</ele>
        <time>2020-08-26T08:15:05Z</time>
      </trkpt>
      <trkpt lat="44.32355" lon="6.15062">
        <ele>1462.26</ele>
        <time>2020-08-26T08:15:22Z</time>
      </trkpt>
      <trkpt lat="44.32353" lon="6.15106">
        <ele>1463.13</ele>
        <time>2020-08-26T08:15:39Z</time>
      </trkpt>
      <trkpt lat="44.32347" lon="6.15152">
        <ele>1466.23</ele>
        <time>2020-08-26T08:15:57Z</time>
      </trkpt>
      <trkpt lat="44.32338" lon="6.15189">
        <ele>1469.25</ele>
        <time>2020-08-26T08:16:13Z</time>
      </trkpt>
      <trkpt lat="44.32328" lon="6.15222">
        <ele>1472.28</ele>
        <time>2020-08-26T08:16:28Z</time>
      </trkpt>
      <trkpt lat="44.32319" lon="6.15259">
        <ele>1475.55</ele>
        <time>2020-08-26T08:16:44Z</time>
      </trkpt>
      <trkpt lat="44.32312" lon="6.15296">
        <ele>1478.66</ele>
        <time>2020-08-26T08:17:00Z</time>
      </trkpt>
      <trkpt lat="44.32301" lon="6.15336">
        <ele>1481.95</ele>
        <time>2020-08-26T08:17:17Z</time>
      </trkpt>
      <trkpt lat="44.32308" lon="6.15378">
        <ele>1484.41</ele>
        <time>2020-08-26T08:17:35Z</time>
      </trkpt>
      <trkpt lat="44.32309" lon="6.15414">
        <ele>1487.54</ele>
        <time>2020-08-26T08:17:50Z</time>
      </trkpt>
      <trkpt lat="44.32303" lon="6.15448">
        <ele>1491.03</ele>
        <time>2020-08-26T08:18:05Z</time>
      </trkpt>
      <trkpt lat="44.323" lon="6.15482">
        <ele>1494.1</ele>
        <time>2020-08-26T08:18:20Z</time>
      </trkpt>
      <trkpt lat="44.32303" lon="6.15519">
        <ele>1497.22</ele>
        <time>2020-08-26T08:18:35Z</time>
      </trkpt>
      <trkpt lat="44.32298" lon="6.1557">
        <ele>1500.31</ele>
        <time>2020-08-26T08:18:56Z</time>
      </trkpt>
      <trkpt lat="44.32291" lon="6.15611">
        <ele>1503.47</ele>
        <time>2020-08-26T08:19:13Z</time>
      </trkpt>
      <trkpt lat="44.3228" lon="6.15647">
        <ele>1506.53</ele>
        <time>2020-08-26T08:19:29Z</time>
      </trkpt>
      <trkpt lat="44.32274" lon="6.1568">
        <ele>1509.83</ele>
        <time>2020-08-26T08:19:44Z</time>
      </trkpt>
      <trkpt lat="44.32279" lon="6.15716">
        <ele>1512.89</ele>
        <time>2020-08-26T08:19:59Z</time>
      </trkpt>
      <trkpt lat="44.32278" lon="6.15759">
        <ele>1515.55</ele>
        <time>2020-08-26T08:20:17Z</time>
      </trkpt>
      <trkpt lat="44.3228" lon="6.15805">
        <ele>1518.6</ele>
        <time>2020-08-26T08:20:36Z</time>
      </trkpt>
      <trkpt lat="44.32283" lon="6.15855">
        <ele>1521.29</ele>
        <time>2020-08-26T08:20:57Z</time>
      </trkpt>
      <trkpt lat="44.32285" lon="6.15895">
        <ele>1524.38</ele>
        <time>2020-08-26T08:21:14Z</time>
      </trkpt>
      <trkpt lat="44.32286" lon="6.15935">
        <ele>1527.61</ele>
        <time>2020-08-26T08:21:30Z</time>
      </trkpt>
      <trkpt lat="44.32291" lon="6.15969">
        <ele>1530.73</ele>
        <time>2020-08-26T08:21:45Z</time>
      </trkpt>
      <trkpt lat="44.32294" lon="6.15997">
        <ele>1533.81</ele>
        <time>2020-08-26T08:21:59Z</time>
      </trkpt>
      <trkpt lat="44.32289" lon="6.16031">
        <ele>1536.92</ele>
        <time>2020-08-26T08:22:15Z</time>
      </trkpt>
      <trkpt lat="44.32271" lon="6.16047">
        <ele>1539.98</ele>
        <time>2020-08-26T08:22:27Z</time>
      </trkpt>
      <trkpt lat="44.32242" lon="6.16064">
        <ele>1543.13</ele>
        <time>2020-08-26T08:22:46Z</time>
      </trkpt>
      <trkpt lat="44.32229" lon="6.16082">
        <ele>1546.34</ele>
        <time>2020-08-26T08:22:57Z</time>
      </trkpt>
      <trkpt lat="44.32206" lon="6.16092">
        <ele>1549.51</ele>
        <time>2020-08-26T08:23:13Z</time>
      </trkpt>
      <trkpt lat="44.32185" lon="6.16101">
        <ele>1552.76</ele>
        <time>2020-08-26T08:23:26Z</time>
      </trkpt>
      <trkpt lat="44.32162" lon="6.16113">
        <ele>1555.87</ele>
        <time>2020-08-26T08:23:42Z</time>
      </trkpt>
      <trkpt lat="44.32144" lon="6.16136">
        <ele>1558.87</ele>
        <time>2020-08-26T08:23:57Z</time>
      </trkpt>
      <trkpt lat="44.32134" lon="6.16169">
        <ele>1561.92</ele>
        <time>2020-08-26T08:24:13Z</time>
      </trkpt>
      <trkpt lat="44.32123" lon="6.16195">
        <ele>1565.01</ele>
        <time>2020-08-26T08:24:27Z</time>
      </trkpt>
      <trkpt lat="44.32105" lon="6.16217">
        <ele>1568.24</ele>
        <time>2020-08-26T08:24:42Z</time>
      </trkpt>
      <trkpt lat="44.32083" lon="6.1624">
        <ele>1571.42</ele>
        <time>2020-08-26T08:24:59Z</time>
      </trkpt>
      <trkpt lat="44.32065" lon="6.16256">
        <ele>1574.45</ele>
        <time>2020-08-26T08:25:12Z</time>
      </trkpt>
      <trkpt lat="44.3204" lon="6.16256">
        <ele>1577.66</ele>
        <time>2020-08-26T08:25:27Z</time>
      </trkpt>
      <trkpt lat="44.32016" lon="6.16254">
        <ele>1580.86</ele>
        <time>2020-08-26T08:25:42Z</time>
      </trkpt>
      <trkpt lat="44.3199" lon="6.16256">
        <ele>1583.91</ele>
        <time>2020-08-26T08:25:58Z</time>
      </trkpt>
      <trkpt lat="44.31972" lon="6.1627">
        <ele>1586.99</ele>
        <time>2020-08-26T08:26:11Z</time>
      </trkpt>
      <trkpt lat="44.31956" lon="6.16286">
        <ele>1590.14</ele>
        <time>2020-08-26T08:26:24Z</time>
      </trkpt>
      <trkpt lat="44.31942" lon="6.16312">
        <ele>1592.59</ele>
        <time>2020-08-26T08:26:39Z</time>
      </trkpt>
      <trkpt lat="44.31928" lon="6.16332">
        <ele>1595.64</ele>
        <time>2020-08-26T08:26:52Z</time>
      </trkpt>
      <trkpt lat="44.31916" lon="6.16364">
        <ele>1598.77</ele>
        <time>2020-08-26T08:27:08Z</time>
      </trkpt>
      <trkpt lat="44.319" lon="6.16376">
        <ele>1601.29</ele>
        <time>2020-08-26T08:27:25Z</time>
      </trkpt>
      <trkpt lat="44.31907" lon="6.1635">
        <ele>1604.34</ele>
        <time>2020-08-26T08:27:38Z</time>
      </trkpt>
      <trkpt lat="44.31909" lon="6.16323">
        <ele>1605.72</ele>
        <time>2020-08-26T08:27:49Z</time>
      </trkpt>
      <trkpt lat="44.3191" lon="6.16312">
        <ele>1606.53</ele>
        <time>2020-08-26T08:27:54Z</time>
      </trkpt>
      <trkpt lat="44.3191" lon="6.16277">
        <ele>1609.09</ele>
        <time>2020-08-26T08:28:10Z</time>
      </trkpt>
      <trkpt lat="44.31913" lon="6.16241">
        <ele>1612.25</ele>
        <time>2020-08-26T08:28:26Z</time>
      </trkpt>
      <trkpt lat="44.31918" lon="6.16203">
        <ele>1615.75</ele>
        <time>2020-08-26T08:28:44Z</time>
      </trkpt>
      <trkpt lat="44.31922" lon="6.16169">
        <ele>1618.82</ele>
        <time>2020-08-26T08:29:00Z</time>
      </trkpt>
      <trkpt lat="44.31926" lon="6.16142">
        <ele>1621.85</ele>
        <time>2020-08-26T08:29:13Z</time>
      </trkpt>
      <trkpt lat="44.31931" lon="6.16111">
        <ele>1624.91</ele>
        <time>2020-08-26T08:29:27Z</time>
      </trkpt>
      <trkpt lat="44.31933" lon="6.16082">
        <ele>1627.95</ele>
        <time>2020-08-26T08:29:40Z</time>
      </trkpt>
      <trkpt lat="44.31944" lon="6.16045">
        <ele>1631.03</ele>
        <time>2020-08-26T08:29:58Z</time>
      </trkpt>
      <trkpt lat="44.31958" lon="6.16009">
        <ele>1633.77</ele>
        <time>2020-08-26T08:30:16Z</time>
      </trkpt>
      <trkpt lat="44.3196" lon="6.15973">
        <ele>1636.3</ele>
        <time>2020-08-26T08:30:34Z</time>
      </trkpt>
      <trkpt lat="44.31955" lon="6.15978">
        <ele>1636.98</ele>
        <time>2020-08-26T08:30:38Z</time>
      </trkpt>
      <trkpt lat="44.31929" lon="6.16">
        <ele>1640.32</ele>
        <time>2020-08-26T08:30:57Z</time>
      </trkpt>
      <trkpt lat="44.3191" lon="6.16">
        <ele>1643.36</ele>
        <time>2020-08-26T08:31:08Z</time>
      </trkpt>
      <trkpt lat="44.31881" lon="6.16004">
        <ele>1646.45</ele>
        <time>2020-08-26T08:31:24Z</time>
      </trkpt>
      <trkpt lat="44.31866" lon="6.1602">
        <ele>1649.61</ele>
        <time>2020-08-26T08:31:35Z</time>
      </trkpt>
      <trkpt lat="44.31865" lon="6.16021">
        <ele>1649.87</ele>
        <time>2020-08-26T08:31:36Z</time>
      </trkpt>
      <trkpt lat="44.31849" lon="6.16047">
        <ele>1652.97</ele>
        <time>2020-08-26T08:31:50Z</time>
      </trkpt>
      <trkpt lat="44.31836" lon="6.16071">
        <ele>1656.07</ele>
        <time>2020-08-26T08:32:03Z</time>
      </trkpt>
      <trkpt lat="44.3182" lon="6.16108">
        <ele>1659.24</ele>
        <time>2020-08-26T08:32:21Z</time>
      </trkpt>
      <trkpt lat="44.31814" lon="6.16129">
        <ele>1662.26</ele>
        <time>2020-08-26T08:32:31Z</time>
      </trkpt>
      <trkpt lat="44.31802" lon="6.16162">
        <ele>1665.35</ele>
        <time>2020-08-26T08:32:46Z</time>
      </trkpt>
      <trkpt lat="44.31784" lon="6.16197">
        <ele>1668.45</ele>
        <time>2020-08-26T08:33:05Z</time>
      </trkpt>
      <trkpt lat="44.31768" lon="6.16223">
        <ele>1671.47</ele>
        <time>2020-08-26T08:33:20Z</time>
      </trkpt>
      <trkpt lat="44.31758" lon="6.16262">
        <ele>1674.57</ele>
        <time>2020-08-26T08:33:38Z</time>
      </trkpt>
      <trkpt lat="44.31755" lon="6.16296">
        <ele>1677.66</ele>
        <time>2020-08-26T08:33:53Z</time>
      </trkpt>
      <trkpt lat="44.31746" lon="6.16325">
        <ele>1680.67</ele>
        <time>2020-08-26T08:34:07Z</time>
      </trkpt>
      <trkpt lat="44.31727" lon="6.16333">
        <ele>1683.68</ele>
        <time>2020-08-26T08:34:19Z</time>
      </trkpt>
      <trkpt lat="44.31712" lon="6.16358">
        <ele>1686.88</ele>
        <time>2020-08-26T08:34:33Z</time>
      </trkpt>
      <trkpt lat="44.31698" lon="6.16392">
        <ele>1690.16</ele>
        <time>2020-08-26T08:34:50Z</time>
      </trkpt>
      <trkpt lat="44.31689" lon="6.16419">
        <ele>1693.41</ele>
        <time>2020-08-26T08:35:03Z</time>
      </trkpt>
      <trkpt lat="44.31688" lon="6.16428">
        <ele>1694.15</ele>
        <time>2020-08-26T08:35:07Z</time>
      </trkpt>
      <trkpt lat="44.31673" lon="6.16443">
        <ele>1697.1</ele>
        <time>2020-08-26T08:35:22Z</time>
      </trkpt>
      <trkpt lat="44.31666" lon="6.16416">
        <ele>1698.72</ele>
        <time>2020-08-26T08:35:34Z</time>
      </trkpt>
      <trkpt lat="44.31662" lon="6.16397">
        <ele>1701.19</ele>
        <time>2020-08-26T08:35:43Z</time>
      </trkpt>
      <trkpt lat="44.31657" lon="6.16364">
        <ele>1704.77</ele>
        <time>2020-08-26T08:35:58Z</time>
      </trkpt>
      <trkpt lat="44.31657" lon="6.16328">
        <ele>1707.87</ele>
        <time>2020-08-26T08:36:14Z</time>
      </trkpt>
      <trkpt lat="44.31663" lon="6.1629">
        <ele>1710.55</ele>
        <time>2020-08-26T08:36:30Z</time>
      </trkpt>
      <trkpt lat="44.31675" lon="6.16258">
        <ele>1711.79</ele>
        <time>2020-08-26T08:36:45Z</time>
      </trkpt>
      <trkpt lat="44.31689" lon="6.16217">
        <ele>1714.26</ele>
        <time>2020-08-26T08:37:05Z</time>
      </trkpt>
      <trkpt lat="44.31693" lon="6.16179">
        <ele>1717.29</ele>
        <time>2020-08-26T08:37:21Z</time>
      </trkpt>
      <trkpt lat="44.31687" lon="6.16142">
        <ele>1720.37</ele>
        <time>2020-08-26T08:37:38Z</time>
      </trkpt>
      <trkpt lat="44.31692" lon="6.16106">
        <ele>1723.22</ele>
        <time>2020-08-26T08:37:54Z</time>
      </trkpt>
      <trkpt lat="44.31707" lon="6.16078">
        <ele>1726.23</ele>
        <time>2020-08-26T08:38:09Z</time>
      </trkpt>
      <trkpt lat="44.31725" lon="6.16051">
        <ele>1729.46</ele>
        <time>2020-08-26T08:38:25Z</time>
      </trkpt>
      <trkpt lat="44.31739" lon="6.16022">
        <ele>1731.79</ele>
        <time>2020-08-26T08:38:43Z</time>
      </trkpt>
      <trkpt lat="44.31724" lon="6.16023">
        <ele>1732</ele>
        <time>2020-08-26T08:47:05Z</time>
      </trkpt>
      <trkpt lat="44.31718" lon="6.16037">
        <ele>1732.01</ele>
        <time>2020-08-26T08:47:11Z</time>
      </trkpt>
      <trkpt lat="44.3169" lon="6.16074">
        <ele>1735.07</ele>
        <time>2020-08-26T08:47:32Z</time>
      </trkpt>
      <trkpt lat="44.3167" lon="6.16095">
        <ele>1738.38</ele>
        <time>2020-08-26T08:47:47Z</time>
      </trkpt>
      <trkpt lat="44.3165" lon="6.16122">
        <ele>1741.43</ele>
        <time>2020-08-26T08:48:03Z</time>
      </trkpt>
      <trkpt lat="44.31633" lon="6.16146">
        <ele>1744.69</ele>
        <time>2020-08-26T08:48:16Z</time>
      </trkpt>
      <trkpt lat="44.31617" lon="6.16174">
        <ele>1747.74</ele>
        <time>2020-08-26T08:48:31Z</time>
      </trkpt>
      <trkpt lat="44.31606" lon="6.16204">
        <ele>1750.95</ele>
        <time>2020-08-26T08:48:45Z</time>
      </trkpt>
      <trkpt lat="44.31595" lon="6.16228">
        <ele>1754.29</ele>
        <time>2020-08-26T08:48:57Z</time>
      </trkpt>
      <trkpt lat="44.31576" lon="6.16264">
        <ele>1757.37</ele>
        <time>2020-08-26T08:49:15Z</time>
      </trkpt>
      <trkpt lat="44.31569" lon="6.163">
        <ele>1760.55</ele>
        <time>2020-08-26T08:49:30Z</time>
      </trkpt>
      <trkpt lat="44.31566" lon="6.16333">
        <ele>1763.7</ele>
        <time>2020-08-26T08:49:44Z</time>
      </trkpt>
      <trkpt lat="44.31563" lon="6.16358">
        <ele>1766.75</ele>
        <time>2020-08-26T08:49:54Z</time>
      </trkpt>
      <trkpt lat="44.31548" lon="6.16393">
        <ele>1769.74</ele>
        <time>2020-08-26T08:50:11Z</time>
      </trkpt>
      <trkpt lat="44.3153" lon="6.16429">
        <ele>1772.15</ele>
        <time>2020-08-26T08:50:29Z</time>
      </trkpt>
      <trkpt lat="44.3152" lon="6.16451">
        <ele>1775.39</ele>
        <time>2020-08-26T08:50:40Z</time>
      </trkpt>
      <trkpt lat="44.31515" lon="6.16476">
        <ele>1777.98</ele>
        <time>2020-08-26T08:50:51Z</time>
      </trkpt>
      <trkpt lat="44.31512" lon="6.16513">
        <ele>1780.65</ele>
        <time>2020-08-26T08:51:06Z</time>
      </trkpt>
      <trkpt lat="44.31501" lon="6.16547">
        <ele>1783.67</ele>
        <time>2020-08-26T08:51:21Z</time>
      </trkpt>
      <trkpt lat="44.31492" lon="6.16573">
        <ele>1786.99</ele>
        <time>2020-08-26T08:51:33Z</time>
      </trkpt>
      <trkpt lat="44.31477" lon="6.16631">
        <ele>1788.82</ele>
        <time>2020-08-26T08:51:55Z</time>
      </trkpt>
      <trkpt lat="44.31471" lon="6.1669">
        <ele>1791.91</ele>
        <time>2020-08-26T08:52:16Z</time>
      </trkpt>
      <trkpt lat="44.31484" lon="6.16744">
        <ele>1793.59</ele>
        <time>2020-08-26T08:52:35Z</time>
      </trkpt>
      <trkpt lat="44.31497" lon="6.16783">
        <ele>1794.31</ele>
        <time>2020-08-26T08:52:50Z</time>
      </trkpt>
      <trkpt lat="44.31499" lon="6.16815">
        <ele>1795.03</ele>
        <time>2020-08-26T08:53:01Z</time>
      </trkpt>
      <trkpt lat="44.31499" lon="6.16818">
        <ele>1795.16</ele>
        <time>2020-08-26T08:53:02Z</time>
      </trkpt>
      <trkpt lat="44.31498" lon="6.16821">
        <ele>1795.29</ele>
        <time>2020-08-26T08:53:03Z</time>
      </trkpt>
      <trkpt lat="44.3149" lon="6.16847">
        <ele>1796.1</ele>
        <time>2020-08-26T08:53:13Z</time>
      </trkpt>
      <trkpt lat="44.31489" lon="6.16849">
        <ele>1796.21</ele>
        <time>2020-08-26T08:53:14Z</time>
      </trkpt>
      <trkpt lat="44.31487" lon="6.16852">
        <ele>1796.27</ele>
        <time>2020-08-26T08:53:15Z</time>
      </trkpt>
      <trkpt lat="44.31459" lon="6.16886">
        <ele>1797.72</ele>
        <time>2020-08-26T08:53:32Z</time>
      </trkpt>
      <trkpt lat="44.31432" lon="6.16928">
        <ele>1798.75</ele>
        <time>2020-08-26T08:53:52Z</time>
      </trkpt>
      <trkpt lat="44.31416" lon="6.16983">
        <ele>1799.83</ele>
        <time>2020-08-26T08:54:13Z</time>
      </trkpt>
      <trkpt lat="44.31395" lon="6.17028">
        <ele>1800.63</ele>
        <time>2020-08-26T08:54:33Z</time>
      </trkpt>
      <trkpt lat="44.31385" lon="6.17043">
        <ele>1800.78</ele>
        <time>2020-08-26T08:54:45Z</time>
      </trkpt>
      <trkpt lat="44.31383" lon="6.17052">
        <ele>1800.92</ele>
        <time>2020-08-26T08:55:27Z</time>
      </trkpt>
      <trkpt lat="44.31383" lon="6.17093">
        <ele>1800.59</ele>
        <time>2020-08-26T08:55:44Z</time>
      </trkpt>
      <trkpt lat="44.31376" lon="6.17133">
        <ele>1802.1</ele>
        <time>2020-08-26T08:56:02Z</time>
      </trkpt>
      <trkpt lat="44.31376" lon="6.17134">
        <ele>1802.43</ele>
        <time>2020-08-26T08:56:05Z</time>
      </trkpt>
      <trkpt lat="44.31367" lon="6.1715">
        <ele>1803.24</ele>
        <time>2020-08-26T08:58:50Z</time>
      </trkpt>
      <trkpt lat="44.31342" lon="6.172">
        <ele>1803.52</ele>
        <time>2020-08-26T08:59:10Z</time>
      </trkpt>
      <trkpt lat="44.31322" lon="6.17249">
        <ele>1803.99</ele>
        <time>2020-08-26T08:59:28Z</time>
      </trkpt>
      <trkpt lat="44.31297" lon="6.17287">
        <ele>1804.4</ele>
        <time>2020-08-26T08:59:46Z</time>
      </trkpt>
      <trkpt lat="44.31277" lon="6.17267">
        <ele>1805.14</ele>
        <time>2020-08-26T08:59:59Z</time>
      </trkpt>
      <trkpt lat="44.31267" lon="6.17218">
        <ele>1807.43</ele>
        <time>2020-08-26T09:00:16Z</time>
      </trkpt>
      <trkpt lat="44.3125" lon="6.1717">
        <ele>1809.38</ele>
        <time>2020-08-26T09:00:34Z</time>
      </trkpt>
      <trkpt lat="44.31229" lon="6.17126">
        <ele>1810.98</ele>
        <time>2020-08-26T09:00:53Z</time>
      </trkpt>
      <trkpt lat="44.31224" lon="6.17132">
        <ele>1811.19</ele>
        <time>2020-08-26T09:00:57Z</time>
      </trkpt>
      <trkpt lat="44.31224" lon="6.17134">
        <ele>1811.21</ele>
        <time>2020-08-26T09:00:58Z</time>
      </trkpt>
      <trkpt lat="44.31224" lon="6.17137">
        <ele>1811.24</ele>
        <time>2020-08-26T09:00:59Z</time>
      </trkpt>
      <trkpt lat="44.31225" lon="6.1714">
        <ele>1811.28</ele>
        <time>2020-08-26T09:01:00Z</time>
      </trkpt>
      <trkpt lat="44.31226" lon="6.17142">
        <ele>1811.36</ele>
        <time>2020-08-26T09:01:01Z</time>
      </trkpt>
      <trkpt lat="44.3124" lon="6.17182">
        <ele>1813.64</ele>
        <time>2020-08-26T09:01:17Z</time>
      </trkpt>
      <trkpt lat="44.31239" lon="6.17238">
        <ele>1816.79</ele>
        <time>2020-08-26T09:01:36Z</time>
      </trkpt>
      <trkpt lat="44.31237" lon="6.17279">
        <ele>1819.97</ele>
        <time>2020-08-26T09:01:50Z</time>
      </trkpt>
      <trkpt lat="44.31228" lon="6.1731">
        <ele>1823.15</ele>
        <time>2020-08-26T09:02:02Z</time>
      </trkpt>
      <trkpt lat="44.3121" lon="6.17342">
        <ele>1826.17</ele>
        <time>2020-08-26T09:02:18Z</time>
      </trkpt>
      <trkpt lat="44.31195" lon="6.17363">
        <ele>1827.63</ele>
        <time>2020-08-26T09:02:29Z</time>
      </trkpt>
      <trkpt lat="44.31187" lon="6.17378">
        <ele>1828.64</ele>
        <time>2020-08-26T09:02:36Z</time>
      </trkpt>
      <trkpt lat="44.31186" lon="6.17379">
        <ele>1828.82</ele>
        <time>2020-08-26T09:02:37Z</time>
      </trkpt>
      <trkpt lat="44.31185" lon="6.17381">
        <ele>1828.97</ele>
        <time>2020-08-26T09:02:38Z</time>
      </trkpt>
      <trkpt lat="44.31184" lon="6.17383">
        <ele>1829.15</ele>
        <time>2020-08-26T09:02:39Z</time>
      </trkpt>
      <trkpt lat="44.31183" lon="6.17386">
        <ele>1829.28</ele>
        <time>2020-08-26T09:02:40Z</time>
      </trkpt>
      <trkpt lat="44.31182" lon="6.17388">
        <ele>1829.35</ele>
        <time>2020-08-26T09:02:41Z</time>
      </trkpt>
      <trkpt lat="44.31169" lon="6.17417">
        <ele>1832.53</ele>
        <time>2020-08-26T09:02:55Z</time>
      </trkpt>
      <trkpt lat="44.31171" lon="6.17442">
        <ele>1835.41</ele>
        <time>2020-08-26T09:03:07Z</time>
      </trkpt>
      <trkpt lat="44.31173" lon="6.17442">
        <ele>1835.6</ele>
        <time>2020-08-26T09:03:08Z</time>
      </trkpt>
      <trkpt lat="44.31201" lon="6.17448">
        <ele>1838.67</ele>
        <time>2020-08-26T09:03:23Z</time>
      </trkpt>
      <trkpt lat="44.31228" lon="6.17454">
        <ele>1841.75</ele>
        <time>2020-08-26T09:03:38Z</time>
      </trkpt>
      <trkpt lat="44.31246" lon="6.17484">
        <ele>1844.78</ele>
        <time>2020-08-26T09:03:55Z</time>
      </trkpt>
      <trkpt lat="44.31252" lon="6.17514">
        <ele>1847.88</ele>
        <time>2020-08-26T09:04:07Z</time>
      </trkpt>
      <trkpt lat="44.31259" lon="6.17547">
        <ele>1851.15</ele>
        <time>2020-08-26T09:04:21Z</time>
      </trkpt>
      <trkpt lat="44.31262" lon="6.1759">
        <ele>1854.21</ele>
        <time>2020-08-26T09:04:38Z</time>
      </trkpt>
      <trkpt lat="44.31267" lon="6.17631">
        <ele>1856.93</ele>
        <time>2020-08-26T09:04:54Z</time>
      </trkpt>
      <trkpt lat="44.31275" lon="6.1767">
        <ele>1860.08</ele>
        <time>2020-08-26T09:05:10Z</time>
      </trkpt>
      <trkpt lat="44.31279" lon="6.17708">
        <ele>1863.08</ele>
        <time>2020-08-26T09:05:25Z</time>
      </trkpt>
      <trkpt lat="44.31285" lon="6.17738">
        <ele>1866.21</ele>
        <time>2020-08-26T09:05:38Z</time>
      </trkpt>
      <trkpt lat="44.31308" lon="6.17735">
        <ele>1869.32</ele>
        <time>2020-08-26T09:05:51Z</time>
      </trkpt>
      <trkpt lat="44.31344" lon="6.17725">
        <ele>1872.46</ele>
        <time>2020-08-26T09:06:11Z</time>
      </trkpt>
      <trkpt lat="44.31368" lon="6.17717">
        <ele>1875.16</ele>
        <time>2020-08-26T09:06:28Z</time>
      </trkpt>
      <trkpt lat="44.31368" lon="6.17717">
        <ele>1875.31</ele>
        <time>2020-08-26T09:06:29Z</time>
      </trkpt>
      <trkpt lat="44.31391" lon="6.17732">
        <ele>1879.33</ele>
        <time>2020-08-26T09:12:19Z</time>
      </trkpt>
      <trkpt lat="44.31389" lon="6.17732">
        <ele>1879.3</ele>
        <time>2020-08-26T09:12:20Z</time>
      </trkpt>
      <trkpt lat="44.31387" lon="6.17732">
        <ele>1879.24</ele>
        <time>2020-08-26T09:12:21Z</time>
      </trkpt>
      <trkpt lat="44.31384" lon="6.17732">
        <ele>1879.19</ele>
        <time>2020-08-26T09:12:22Z</time>
      </trkpt>
      <trkpt lat="44.31382" lon="6.17732">
        <ele>1879.15</ele>
        <time>2020-08-26T09:12:23Z</time>
      </trkpt>
      <trkpt lat="44.31379" lon="6.17732">
        <ele>1879.12</ele>
        <time>2020-08-26T09:12:24Z</time>
      </trkpt>
      <trkpt lat="44.31376" lon="6.17732">
        <ele>1879.11</ele>
        <time>2020-08-26T09:12:25Z</time>
      </trkpt>
      <trkpt lat="44.31338" lon="6.17741">
        <ele>1877.8</ele>
        <time>2020-08-26T09:12:40Z</time>
      </trkpt>
      <trkpt lat="44.31296" lon="6.17765">
        <ele>1877.57</ele>
        <time>2020-08-26T09:12:57Z</time>
      </trkpt>
      <trkpt lat="44.31269" lon="6.17762">
        <ele>1877.6</ele>
        <time>2020-08-26T09:13:09Z</time>
      </trkpt>
      <trkpt lat="44.31249" lon="6.17706">
        <ele>1877.71</ele>
        <time>2020-08-26T09:13:26Z</time>
      </trkpt>
      <trkpt lat="44.31229" lon="6.1766">
        <ele>1878.43</ele>
        <time>2020-08-26T09:13:44Z</time>
      </trkpt>
      <trkpt lat="44.31195" lon="6.17642">
        <ele>1880.47</ele>
        <time>2020-08-26T09:14:03Z</time>
      </trkpt>
      <trkpt lat="44.31168" lon="6.17659">
        <ele>1881.9</ele>
        <time>2020-08-26T09:14:18Z</time>
      </trkpt>
      <trkpt lat="44.31146" lon="6.17678">
        <ele>1883.26</ele>
        <time>2020-08-26T09:14:31Z</time>
      </trkpt>
      <trkpt lat="44.31119" lon="6.17712">
        <ele>1885.28</ele>
        <time>2020-08-26T09:14:51Z</time>
      </trkpt>
      <trkpt lat="44.31105" lon="6.17758">
        <ele>1887.02</ele>
        <time>2020-08-26T09:15:10Z</time>
      </trkpt>
      <trkpt lat="44.31079" lon="6.17797">
        <ele>1888.93</ele>
        <time>2020-08-26T09:15:30Z</time>
      </trkpt>
      <trkpt lat="44.31042" lon="6.17822">
        <ele>1889.9</ele>
        <time>2020-08-26T09:15:51Z</time>
      </trkpt>
      <trkpt lat="44.31015" lon="6.17837">
        <ele>1890.25</ele>
        <time>2020-08-26T09:16:05Z</time>
      </trkpt>
      <trkpt lat="44.30991" lon="6.17854">
        <ele>1889.81</ele>
        <time>2020-08-26T09:16:21Z</time>
      </trkpt>
      <trkpt lat="44.30991" lon="6.17854">
        <ele>1889.76</ele>
        <time>2020-08-26T09:16:22Z</time>
      </trkpt>
      <trkpt lat="44.30987" lon="6.17856">
        <ele>1889.37</ele>
        <time>2020-08-26T09:17:30Z</time>
      </trkpt>
      <trkpt lat="44.3095" lon="6.17874">
        <ele>1889.11</ele>
        <time>2020-08-26T09:17:47Z</time>
      </trkpt>
      <trkpt lat="44.30937" lon="6.17886">
        <ele>1888.37</ele>
        <time>2020-08-26T09:17:59Z</time>
      </trkpt>
      <trkpt lat="44.30938" lon="6.17892">
        <ele>1887.9</ele>
        <time>2020-08-26T09:18:05Z</time>
      </trkpt>
      <trkpt lat="44.30954" lon="6.17927">
        <ele>1886.77</ele>
        <time>2020-08-26T09:18:17Z</time>
      </trkpt>
      <trkpt lat="44.30978" lon="6.17973">
        <ele>1883.72</ele>
        <time>2020-08-26T09:18:30Z</time>
      </trkpt>
      <trkpt lat="44.31004" lon="6.1802">
        <ele>1880.56</ele>
        <time>2020-08-26T09:18:43Z</time>
      </trkpt>
      <trkpt lat="44.31017" lon="6.18057">
        <ele>1877.54</ele>
        <time>2020-08-26T09:18:52Z</time>
      </trkpt>
      <trkpt lat="44.31028" lon="6.18098">
        <ele>1874.34</ele>
        <time>2020-08-26T09:19:00Z</time>
      </trkpt>
      <trkpt lat="44.31029" lon="6.18104">
        <ele>1873.85</ele>
        <time>2020-08-26T09:19:01Z</time>
      </trkpt>
      <trkpt lat="44.3104" lon="6.18143">
        <ele>1870.67</ele>
        <time>2020-08-26T09:19:09Z</time>
      </trkpt>
      <trkpt lat="44.31054" lon="6.18177">
        <ele>1867.54</ele>
        <time>2020-08-26T09:19:17Z</time>
      </trkpt>
      <trkpt lat="44.3107" lon="6.18205">
        <ele>1864.38</ele>
        <time>2020-08-26T09:19:25Z</time>
      </trkpt>
      <trkpt lat="44.31063" lon="6.18232">
        <ele>1861.18</ele>
        <time>2020-08-26T09:19:34Z</time>
      </trkpt>
      <trkpt lat="44.3104" lon="6.18247">
        <ele>1857.58</ele>
        <time>2020-08-26T09:19:44Z</time>
      </trkpt>
      <trkpt lat="44.31038" lon="6.18248">
        <ele>1857.32</ele>
        <time>2020-08-26T09:19:45Z</time>
      </trkpt>
      <trkpt lat="44.31008" lon="6.18265">
        <ele>1854.26</ele>
        <time>2020-08-26T09:19:58Z</time>
      </trkpt>
      <trkpt lat="44.30975" lon="6.18267">
        <ele>1851.28</ele>
        <time>2020-08-26T09:20:11Z</time>
      </trkpt>
      <trkpt lat="44.30934" lon="6.18266">
        <ele>1847.98</ele>
        <time>2020-08-26T09:20:24Z</time>
      </trkpt>
      <trkpt lat="44.30901" lon="6.18273">
        <ele>1844.56</ele>
        <time>2020-08-26T09:20:34Z</time>
      </trkpt>
      <trkpt lat="44.3087" lon="6.18284">
        <ele>1841.37</ele>
        <time>2020-08-26T09:20:43Z</time>
      </trkpt>
      <trkpt lat="44.3084" lon="6.18306">
        <ele>1838.01</ele>
        <time>2020-08-26T09:20:51Z</time>
      </trkpt>
      <trkpt lat="44.30823" lon="6.18327">
        <ele>1834.88</ele>
        <time>2020-08-26T09:20:58Z</time>
      </trkpt>
      <trkpt lat="44.30793" lon="6.18347">
        <ele>1831.84</ele>
        <time>2020-08-26T09:21:10Z</time>
      </trkpt>
      <trkpt lat="44.30771" lon="6.18376">
        <ele>1828.49</ele>
        <time>2020-08-26T09:21:19Z</time>
      </trkpt>
      <trkpt lat="44.30763" lon="6.18393">
        <ele>1826.53</ele>
        <time>2020-08-26T09:21:23Z</time>
      </trkpt>
      <trkpt lat="44.3074" lon="6.18417">
        <ele>1823.36</ele>
        <time>2020-08-26T09:21:32Z</time>
      </trkpt>
      <trkpt lat="44.30714" lon="6.18433">
        <ele>1820.02</ele>
        <time>2020-08-26T09:21:41Z</time>
      </trkpt>
      <trkpt lat="44.30693" lon="6.18458">
        <ele>1817.44</ele>
        <time>2020-08-26T09:21:48Z</time>
      </trkpt>
      <trkpt lat="44.30668" lon="6.18481">
        <ele>1814.43</ele>
        <time>2020-08-26T09:21:56Z</time>
      </trkpt>
      <trkpt lat="44.30646" lon="6.18498">
        <ele>1810.96</ele>
        <time>2020-08-26T09:22:04Z</time>
      </trkpt>
      <trkpt lat="44.30644" lon="6.185">
        <ele>1810.69</ele>
        <time>2020-08-26T09:22:05Z</time>
      </trkpt>
      <trkpt lat="44.30624" lon="6.18517">
        <ele>1807.68</ele>
        <time>2020-08-26T09:22:15Z</time>
      </trkpt>
      <trkpt lat="44.30595" lon="6.18539">
        <ele>1804.55</ele>
        <time>2020-08-26T09:22:27Z</time>
      </trkpt>
      <trkpt lat="44.30574" lon="6.18552">
        <ele>1801.33</ele>
        <time>2020-08-26T09:22:37Z</time>
      </trkpt>
      <trkpt lat="44.30561" lon="6.18594">
        <ele>1799</ele>
        <time>2020-08-26T09:22:48Z</time>
      </trkpt>
      <trkpt lat="44.30555" lon="6.18642">
        <ele>1795.63</ele>
        <time>2020-08-26T09:22:59Z</time>
      </trkpt>
      <trkpt lat="44.30554" lon="6.18689">
        <ele>1792.41</ele>
        <time>2020-08-26T09:23:09Z</time>
      </trkpt>
      <trkpt lat="44.3055" lon="6.18709">
        <ele>1789.04</ele>
        <time>2020-08-26T09:23:20Z</time>
      </trkpt>
      <trkpt lat="44.3055" lon="6.1871">
        <ele>1788.74</ele>
        <time>2020-08-26T09:23:21Z</time>
      </trkpt>
      <trkpt lat="44.3055" lon="6.18725">
        <ele>1787.9</ele>
        <time>2020-08-26T09:23:33Z</time>
      </trkpt>
      <trkpt lat="44.30561" lon="6.18773">
        <ele>1785.48</ele>
        <time>2020-08-26T09:23:47Z</time>
      </trkpt>
      <trkpt lat="44.30586" lon="6.1879">
        <ele>1782.14</ele>
        <time>2020-08-26T09:23:57Z</time>
      </trkpt>
      <trkpt lat="44.30613" lon="6.18769">
        <ele>1779.65</ele>
        <time>2020-08-26T09:24:07Z</time>
      </trkpt>
      <trkpt lat="44.3063" lon="6.18789">
        <ele>1777.59</ele>
        <time>2020-08-26T09:24:17Z</time>
      </trkpt>
      <trkpt lat="44.30629" lon="6.1883">
        <ele>1775.81</ele>
        <time>2020-08-26T09:24:28Z</time>
      </trkpt>
      <trkpt lat="44.30623" lon="6.18873">
        <ele>1772.67</ele>
        <time>2020-08-26T09:24:39Z</time>
      </trkpt>
      <trkpt lat="44.30612" lon="6.18905">
        <ele>1771.23</ele>
        <time>2020-08-26T09:24:49Z</time>
      </trkpt>
      <trkpt lat="44.3058" lon="6.18919">
        <ele>1768.1</ele>
        <time>2020-08-26T09:25:01Z</time>
      </trkpt>
      <trkpt lat="44.30558" lon="6.18956">
        <ele>1765.05</ele>
        <time>2020-08-26T09:25:12Z</time>
      </trkpt>
      <trkpt lat="44.30567" lon="6.18991">
        <ele>1763.96</ele>
        <time>2020-08-26T09:25:21Z</time>
      </trkpt>
      <trkpt lat="44.30569" lon="6.19018">
        <ele>1762.16</ele>
        <time>2020-08-26T09:25:28Z</time>
      </trkpt>
      <trkpt lat="44.30566" lon="6.1902">
        <ele>1762.09</ele>
        <time>2020-08-26T09:25:29Z</time>
      </trkpt>
      <trkpt lat="44.30563" lon="6.19023">
        <ele>1761.98</ele>
        <time>2020-08-26T09:25:30Z</time>
      </trkpt>
      <trkpt lat="44.30561" lon="6.19026">
        <ele>1761.79</ele>
        <time>2020-08-26T09:25:31Z</time>
      </trkpt>
      <trkpt lat="44.30558" lon="6.19028">
        <ele>1761.59</ele>
        <time>2020-08-26T09:25:32Z</time>
      </trkpt>
      <trkpt lat="44.30555" lon="6.19031">
        <ele>1761.23</ele>
        <time>2020-08-26T09:25:33Z</time>
      </trkpt>
      <trkpt lat="44.30534" lon="6.19076">
        <ele>1758.89</ele>
        <time>2020-08-26T09:25:45Z</time>
      </trkpt>
      <trkpt lat="44.3054" lon="6.19121">
        <ele>1756.03</ele>
        <time>2020-08-26T09:25:55Z</time>
      </trkpt>
      <trkpt lat="44.30539" lon="6.19124">
        <ele>1755.76</ele>
        <time>2020-08-26T09:25:56Z</time>
      </trkpt>
      <trkpt lat="44.30537" lon="6.19127">
        <ele>1755.62</ele>
        <time>2020-08-26T09:25:57Z</time>
      </trkpt>
      <trkpt lat="44.30534" lon="6.19129">
        <ele>1755.54</ele>
        <time>2020-08-26T09:25:58Z</time>
      </trkpt>
      <trkpt lat="44.30532" lon="6.1913">
        <ele>1755.49</ele>
        <time>2020-08-26T09:25:59Z</time>
      </trkpt>
      <trkpt lat="44.30529" lon="6.19131">
        <ele>1755.19</ele>
        <time>2020-08-26T09:26:00Z</time>
      </trkpt>
      <trkpt lat="44.30526" lon="6.19131">
        <ele>1754.82</ele>
        <time>2020-08-26T09:26:01Z</time>
      </trkpt>
      <trkpt lat="44.30523" lon="6.19131">
        <ele>1754.55</ele>
        <time>2020-08-26T09:26:02Z</time>
      </trkpt>
      <trkpt lat="44.3052" lon="6.19132">
        <ele>1754.24</ele>
        <time>2020-08-26T09:26:03Z</time>
      </trkpt>
      <trkpt lat="44.30517" lon="6.19135">
        <ele>1753.99</ele>
        <time>2020-08-26T09:26:04Z</time>
      </trkpt>
      <trkpt lat="44.30515" lon="6.19139">
        <ele>1753.7</ele>
        <time>2020-08-26T09:26:05Z</time>
      </trkpt>
      <trkpt lat="44.30513" lon="6.19143">
        <ele>1753.33</ele>
        <time>2020-08-26T09:26:06Z</time>
      </trkpt>
      <trkpt lat="44.30512" lon="6.19147">
        <ele>1753.1</ele>
        <time>2020-08-26T09:26:07Z</time>
      </trkpt>
      <trkpt lat="44.30512" lon="6.19151">
        <ele>1752.95</ele>
        <time>2020-08-26T09:26:08Z</time>
      </trkpt>
      <trkpt lat="44.30511" lon="6.19156">
        <ele>1752.84</ele>
        <time>2020-08-26T09:26:09Z</time>
      </trkpt>
      <trkpt lat="44.30498" lon="6.19186">
        <ele>1749.74</ele>
        <time>2020-08-26T09:26:18Z</time>
      </trkpt>
      <trkpt lat="44.30495" lon="6.19196">
        <ele>1747.98</ele>
        <time>2020-08-26T09:26:26Z</time>
      </trkpt>
      <trkpt lat="44.30495" lon="6.19205">
        <ele>1747.32</ele>
        <time>2020-08-26T09:27:15Z</time>
      </trkpt>
      <trkpt lat="44.3049" lon="6.19259">
        <ele>1746.64</ele>
        <time>2020-08-26T09:27:30Z</time>
      </trkpt>
      <trkpt lat="44.30486" lon="6.19284">
        <ele>1744.82</ele>
        <time>2020-08-26T09:27:39Z</time>
      </trkpt>
      <trkpt lat="44.30485" lon="6.19284">
        <ele>1744.67</ele>
        <time>2020-08-26T09:27:40Z</time>
      </trkpt>
      <trkpt lat="44.30483" lon="6.19284">
        <ele>1744.51</ele>
        <time>2020-08-26T09:27:41Z</time>
      </trkpt>
      <trkpt lat="44.30482" lon="6.19283">
        <ele>1744.3</ele>
        <time>2020-08-26T09:27:42Z</time>
      </trkpt>
      <trkpt lat="44.3048" lon="6.19282">
        <ele>1743.99</ele>
        <time>2020-08-26T09:27:46Z</time>
      </trkpt>
      <trkpt lat="44.30478" lon="6.19271">
        <ele>1743.05</ele>
        <time>2020-08-26T09:28:30Z</time>
      </trkpt>
      <trkpt lat="44.30475" lon="6.19216">
        <ele>1741.9</ele>
        <time>2020-08-26T09:28:42Z</time>
      </trkpt>
      <trkpt lat="44.30475" lon="6.19173">
        <ele>1738.7</ele>
        <time>2020-08-26T09:28:50Z</time>
      </trkpt>
      <trkpt lat="44.30483" lon="6.1911">
        <ele>1735.54</ele>
        <time>2020-08-26T09:29:03Z</time>
      </trkpt>
      <trkpt lat="44.30485" lon="6.19074">
        <ele>1733.47</ele>
        <time>2020-08-26T09:29:10Z</time>
      </trkpt>
      <trkpt lat="44.30485" lon="6.19063">
        <ele>1732.76</ele>
        <time>2020-08-26T09:29:12Z</time>
      </trkpt>
      <trkpt lat="44.30486" lon="6.19013">
        <ele>1729.67</ele>
        <time>2020-08-26T09:29:21Z</time>
      </trkpt>
      <trkpt lat="44.30483" lon="6.18947">
        <ele>1726.58</ele>
        <time>2020-08-26T09:29:34Z</time>
      </trkpt>
      <trkpt lat="44.30473" lon="6.18885">
        <ele>1723.38</ele>
        <time>2020-08-26T09:29:47Z</time>
      </trkpt>
      <trkpt lat="44.30459" lon="6.18823">
        <ele>1720.26</ele>
        <time>2020-08-26T09:30:01Z</time>
      </trkpt>
      <trkpt lat="44.3045" lon="6.18784">
        <ele>1717.01</ele>
        <time>2020-08-26T09:30:09Z</time>
      </trkpt>
      <trkpt lat="44.3045" lon="6.1878">
        <ele>1716.72</ele>
        <time>2020-08-26T09:30:10Z</time>
      </trkpt>
      <trkpt lat="44.30445" lon="6.18725">
        <ele>1713.62</ele>
        <time>2020-08-26T09:30:22Z</time>
      </trkpt>
      <trkpt lat="44.30441" lon="6.18707">
        <ele>1711.46</ele>
        <time>2020-08-26T09:30:26Z</time>
      </trkpt>
      <trkpt lat="44.30423" lon="6.18657">
        <ele>1708.37</ele>
        <time>2020-08-26T09:30:38Z</time>
      </trkpt>
      <trkpt lat="44.30418" lon="6.18644">
        <ele>1707.08</ele>
        <time>2020-08-26T09:30:41Z</time>
      </trkpt>
      <trkpt lat="44.30404" lon="6.18607">
        <ele>1704.03</ele>
        <time>2020-08-26T09:30:50Z</time>
      </trkpt>
      <trkpt lat="44.30391" lon="6.18569">
        <ele>1700.86</ele>
        <time>2020-08-26T09:31:02Z</time>
      </trkpt>
      <trkpt lat="44.3039" lon="6.18539">
        <ele>1699.11</ele>
        <time>2020-08-26T09:31:12Z</time>
      </trkpt>
      <trkpt lat="44.30388" lon="6.18538">
        <ele>1698.59</ele>
        <time>2020-08-26T09:31:13Z</time>
      </trkpt>
      <trkpt lat="44.30386" lon="6.18538">
        <ele>1698.4</ele>
        <time>2020-08-26T09:31:14Z</time>
      </trkpt>
      <trkpt lat="44.30385" lon="6.18539">
        <ele>1698.15</ele>
        <time>2020-08-26T09:31:15Z</time>
      </trkpt>
      <trkpt lat="44.30383" lon="6.18541">
        <ele>1697.84</ele>
        <time>2020-08-26T09:31:16Z</time>
      </trkpt>
      <trkpt lat="44.30382" lon="6.18543">
        <ele>1697.57</ele>
        <time>2020-08-26T09:31:17Z</time>
      </trkpt>
      <trkpt lat="44.30381" lon="6.18546">
        <ele>1697.19</ele>
        <time>2020-08-26T09:31:18Z</time>
      </trkpt>
      <trkpt lat="44.3038" lon="6.18549">
        <ele>1696.98</ele>
        <time>2020-08-26T09:31:19Z</time>
      </trkpt>
      <trkpt lat="44.3038" lon="6.18553">
        <ele>1696.87</ele>
        <time>2020-08-26T09:31:20Z</time>
      </trkpt>
      <trkpt lat="44.3038" lon="6.18556">
        <ele>1696.77</ele>
        <time>2020-08-26T09:31:21Z</time>
      </trkpt>
      <trkpt lat="44.30383" lon="6.18623">
        <ele>1694.46</ele>
        <time>2020-08-26T09:31:37Z</time>
      </trkpt>
      <trkpt lat="44.30387" lon="6.18652">
        <ele>1692.27</ele>
        <time>2020-08-26T09:31:46Z</time>
      </trkpt>
      <trkpt lat="44.30386" lon="6.18653">
        <ele>1691.95</ele>
        <time>2020-08-26T09:31:47Z</time>
      </trkpt>
      <trkpt lat="44.30384" lon="6.18655">
        <ele>1691.75</ele>
        <time>2020-08-26T09:31:48Z</time>
      </trkpt>
      <trkpt lat="44.30383" lon="6.18656">
        <ele>1691.56</ele>
        <time>2020-08-26T09:31:49Z</time>
      </trkpt>
      <trkpt lat="44.30381" lon="6.18657">
        <ele>1691.31</ele>
        <time>2020-08-26T09:31:50Z</time>
      </trkpt>
      <trkpt lat="44.30379" lon="6.18657">
        <ele>1691.18</ele>
        <time>2020-08-26T09:31:51Z</time>
      </trkpt>
      <trkpt lat="44.30377" lon="6.18655">
        <ele>1691.07</ele>
        <time>2020-08-26T09:31:52Z</time>
      </trkpt>
      <trkpt lat="44.30376" lon="6.18654">
        <ele>1690.92</ele>
        <time>2020-08-26T09:31:53Z</time>
      </trkpt>
      <trkpt lat="44.30374" lon="6.18652">
        <ele>1690.83</ele>
        <time>2020-08-26T09:31:54Z</time>
      </trkpt>
      <trkpt lat="44.30373" lon="6.18649">
        <ele>1690.76</ele>
        <time>2020-08-26T09:31:55Z</time>
      </trkpt>
      <trkpt lat="44.30372" lon="6.18645">
        <ele>1690.44</ele>
        <time>2020-08-26T09:31:56Z</time>
      </trkpt>
      <trkpt lat="44.30371" lon="6.18641">
        <ele>1690.21</ele>
        <time>2020-08-26T09:31:57Z</time>
      </trkpt>
      <trkpt lat="44.3037" lon="6.18637">
        <ele>1690.06</ele>
        <time>2020-08-26T09:31:58Z</time>
      </trkpt>
      <trkpt lat="44.30369" lon="6.18632">
        <ele>1689.95</ele>
        <time>2020-08-26T09:31:59Z</time>
      </trkpt>
      <trkpt lat="44.30368" lon="6.18627">
        <ele>1689.86</ele>
        <time>2020-08-26T09:32:00Z</time>
      </trkpt>
      <trkpt lat="44.3035" lon="6.18578">
        <ele>1686.47</ele>
        <time>2020-08-26T09:32:11Z</time>
      </trkpt>
      <trkpt lat="44.30348" lon="6.18531">
        <ele>1683.27</ele>
        <time>2020-08-26T09:32:21Z</time>
      </trkpt>
      <trkpt lat="44.3035" lon="6.18508">
        <ele>1681.33</ele>
        <time>2020-08-26T09:32:27Z</time>
      </trkpt>
      <trkpt lat="44.30357" lon="6.18462">
        <ele>1678.84</ele>
        <time>2020-08-26T09:32:39Z</time>
      </trkpt>
      <trkpt lat="44.30356" lon="6.18459">
        <ele>1678.57</ele>
        <time>2020-08-26T09:32:40Z</time>
      </trkpt>
      <trkpt lat="44.30354" lon="6.18456">
        <ele>1678.29</ele>
        <time>2020-08-26T09:32:41Z</time>
      </trkpt>
      <trkpt lat="44.30353" lon="6.18453">
        <ele>1678.06</ele>
        <time>2020-08-26T09:32:42Z</time>
      </trkpt>
      <trkpt lat="44.30351" lon="6.1845">
        <ele>1677.89</ele>
        <time>2020-08-26T09:32:43Z</time>
      </trkpt>
      <trkpt lat="44.30333" lon="6.18413">
        <ele>1674.77</ele>
        <time>2020-08-26T09:32:54Z</time>
      </trkpt>
      <trkpt lat="44.30319" lon="6.18373">
        <ele>1671.76</ele>
        <time>2020-08-26T09:33:06Z</time>
      </trkpt>
      <trkpt lat="44.30305" lon="6.18322">
        <ele>1668.61</ele>
        <time>2020-08-26T09:33:17Z</time>
      </trkpt>
      <trkpt lat="44.30281" lon="6.18282">
        <ele>1665.46</ele>
        <time>2020-08-26T09:33:31Z</time>
      </trkpt>
      <trkpt lat="44.30252" lon="6.18249">
        <ele>1662.45</ele>
        <time>2020-08-26T09:33:43Z</time>
      </trkpt>
      <trkpt lat="44.30227" lon="6.18226">
        <ele>1659.13</ele>
        <time>2020-08-26T09:33:53Z</time>
      </trkpt>
      <trkpt lat="44.30204" lon="6.18209">
        <ele>1656.01</ele>
        <time>2020-08-26T09:34:03Z</time>
      </trkpt>
      <trkpt lat="44.30174" lon="6.18168">
        <ele>1652.77</ele>
        <time>2020-08-26T09:34:17Z</time>
      </trkpt>
      <trkpt lat="44.3014" lon="6.18114">
        <ele>1649.71</ele>
        <time>2020-08-26T09:34:33Z</time>
      </trkpt>
      <trkpt lat="44.30117" lon="6.18098">
        <ele>1646.68</ele>
        <time>2020-08-26T09:34:43Z</time>
      </trkpt>
      <trkpt lat="44.30078" lon="6.18102">
        <ele>1643.52</ele>
        <time>2020-08-26T09:34:56Z</time>
      </trkpt>
      <trkpt lat="44.30038" lon="6.18074">
        <ele>1640.66</ele>
        <time>2020-08-26T09:35:09Z</time>
      </trkpt>
      <trkpt lat="44.30012" lon="6.18043">
        <ele>1637.54</ele>
        <time>2020-08-26T09:35:19Z</time>
      </trkpt>
      <trkpt lat="44.2998" lon="6.18021">
        <ele>1634.55</ele>
        <time>2020-08-26T09:35:32Z</time>
      </trkpt>
      <trkpt lat="44.29951" lon="6.18015">
        <ele>1631.46</ele>
        <time>2020-08-26T09:35:44Z</time>
      </trkpt>
      <trkpt lat="44.29907" lon="6.18004">
        <ele>1628.67</ele>
        <time>2020-08-26T09:35:58Z</time>
      </trkpt>
      <trkpt lat="44.29879" lon="6.17957">
        <ele>1625.57</ele>
        <time>2020-08-26T09:36:14Z</time>
      </trkpt>
      <trkpt lat="44.29867" lon="6.17939">
        <ele>1623.66</ele>
        <time>2020-08-26T09:36:27Z</time>
      </trkpt>
      <trkpt lat="44.29868" lon="6.17939">
        <ele>1623.43</ele>
        <time>2020-08-26T09:36:28Z</time>
      </trkpt>
      <trkpt lat="44.29847" lon="6.17938">
        <ele>1622.31</ele>
        <time>2020-08-26T09:43:47Z</time>
      </trkpt>
      <trkpt lat="44.29845" lon="6.17937">
        <ele>1622.34</ele>
        <time>2020-08-26T09:43:48Z</time>
      </trkpt>
      <trkpt lat="44.29842" lon="6.17937">
        <ele>1622.36</ele>
        <time>2020-08-26T09:43:49Z</time>
      </trkpt>
      <trkpt lat="44.2982" lon="6.17954">
        <ele>1623.3</ele>
        <time>2020-08-26T09:44:01Z</time>
      </trkpt>
      <trkpt lat="44.29803" lon="6.17988">
        <ele>1626.33</ele>
        <time>2020-08-26T09:44:15Z</time>
      </trkpt>
      <trkpt lat="44.29789" lon="6.18021">
        <ele>1629.39</ele>
        <time>2020-08-26T09:44:28Z</time>
      </trkpt>
      <trkpt lat="44.29765" lon="6.18067">
        <ele>1630.34</ele>
        <time>2020-08-26T09:44:43Z</time>
      </trkpt>
      <trkpt lat="44.29756" lon="6.18104">
        <ele>1629.08</ele>
        <time>2020-08-26T09:44:51Z</time>
      </trkpt>
      <trkpt lat="44.29753" lon="6.18108">
        <ele>1628.9</ele>
        <time>2020-08-26T09:44:52Z</time>
      </trkpt>
      <trkpt lat="44.2975" lon="6.18112">
        <ele>1628.63</ele>
        <time>2020-08-26T09:44:53Z</time>
      </trkpt>
      <trkpt lat="44.29747" lon="6.18115">
        <ele>1628.42</ele>
        <time>2020-08-26T09:44:54Z</time>
      </trkpt>
      <trkpt lat="44.29743" lon="6.18117">
        <ele>1628.28</ele>
        <time>2020-08-26T09:44:55Z</time>
      </trkpt>
      <trkpt lat="44.29738" lon="6.1812">
        <ele>1628.06</ele>
        <time>2020-08-26T09:44:56Z</time>
      </trkpt>
      <trkpt lat="44.29701" lon="6.18142">
        <ele>1625.23</ele>
        <time>2020-08-26T09:45:04Z</time>
      </trkpt>
      <trkpt lat="44.29692" lon="6.18143">
        <ele>1624.64</ele>
        <time>2020-08-26T09:45:06Z</time>
      </trkpt>
      <trkpt lat="44.29688" lon="6.18144">
        <ele>1624.47</ele>
        <time>2020-08-26T09:45:07Z</time>
      </trkpt>
      <trkpt lat="44.29684" lon="6.18143">
        <ele>1624.36</ele>
        <time>2020-08-26T09:45:08Z</time>
      </trkpt>
      <trkpt lat="44.29637" lon="6.1814">
        <ele>1623.86</ele>
        <time>2020-08-26T09:45:22Z</time>
      </trkpt>
      <trkpt lat="44.296" lon="6.18154">
        <ele>1624.86</ele>
        <time>2020-08-26T09:45:36Z</time>
      </trkpt>
      <trkpt lat="44.2957" lon="6.18173">
        <ele>1626.65</ele>
        <time>2020-08-26T09:45:49Z</time>
      </trkpt>
      <trkpt lat="44.29537" lon="6.18217">
        <ele>1628.1</ele>
        <time>2020-08-26T09:46:06Z</time>
      </trkpt>
      <trkpt lat="44.29515" lon="6.1824">
        <ele>1628.82</ele>
        <time>2020-08-26T09:46:18Z</time>
      </trkpt>
      <trkpt lat="44.29492" lon="6.18271">
        <ele>1629.4</ele>
        <time>2020-08-26T09:46:33Z</time>
      </trkpt>
      <trkpt lat="44.29467" lon="6.18301">
        <ele>1632.54</ele>
        <time>2020-08-26T09:46:49Z</time>
      </trkpt>
      <trkpt lat="44.29455" lon="6.18345">
        <ele>1635.68</ele>
        <time>2020-08-26T09:47:06Z</time>
      </trkpt>
      <trkpt lat="44.29435" lon="6.1838">
        <ele>1638.76</ele>
        <time>2020-08-26T09:47:22Z</time>
      </trkpt>
      <trkpt lat="44.29405" lon="6.18399">
        <ele>1641.39</ele>
        <time>2020-08-26T09:47:38Z</time>
      </trkpt>
      <trkpt lat="44.29386" lon="6.1844">
        <ele>1643.92</ele>
        <time>2020-08-26T09:47:55Z</time>
      </trkpt>
      <trkpt lat="44.29358" lon="6.18473">
        <ele>1645.57</ele>
        <time>2020-08-26T09:48:13Z</time>
      </trkpt>
      <trkpt lat="44.29342" lon="6.18508">
        <ele>1647.7</ele>
        <time>2020-08-26T09:48:29Z</time>
      </trkpt>
      <trkpt lat="44.2931" lon="6.18534">
        <ele>1650.48</ele>
        <time>2020-08-26T09:48:47Z</time>
      </trkpt>
      <trkpt lat="44.29288" lon="6.18565">
        <ele>1651.9</ele>
        <time>2020-08-26T09:49:03Z</time>
      </trkpt>
      <trkpt lat="44.29269" lon="6.1857">
        <ele>1654.03</ele>
        <time>2020-08-26T09:49:16Z</time>
      </trkpt>
      <trkpt lat="44.29269" lon="6.18567">
        <ele>1654.21</ele>
        <time>2020-08-26T09:49:17Z</time>
      </trkpt>
      <trkpt lat="44.29269" lon="6.18564">
        <ele>1654.35</ele>
        <time>2020-08-26T09:49:18Z</time>
      </trkpt>
      <trkpt lat="44.2927" lon="6.18561">
        <ele>1654.47</ele>
        <time>2020-08-26T09:49:19Z</time>
      </trkpt>
      <trkpt lat="44.29271" lon="6.18559">
        <ele>1654.55</ele>
        <time>2020-08-26T09:49:20Z</time>
      </trkpt>
      <trkpt lat="44.29272" lon="6.18557">
        <ele>1654.57</ele>
        <time>2020-08-26T09:49:21Z</time>
      </trkpt>
      <trkpt lat="44.29273" lon="6.18554">
        <ele>1654.58</ele>
        <time>2020-08-26T09:49:22Z</time>
      </trkpt>
      <trkpt lat="44.29275" lon="6.18552">
        <ele>1654.66</ele>
        <time>2020-08-26T09:49:23Z</time>
      </trkpt>
      <trkpt lat="44.29296" lon="6.18507">
        <ele>1656.41</ele>
        <time>2020-08-26T09:49:42Z</time>
      </trkpt>
      <trkpt lat="44.29311" lon="6.18466">
        <ele>1659.37</ele>
        <time>2020-08-26T09:49:59Z</time>
      </trkpt>
      <trkpt lat="44.29313" lon="6.18436">
        <ele>1661.29</ele>
        <time>2020-08-26T09:50:10Z</time>
      </trkpt>
      <trkpt lat="44.29312" lon="6.18434">
        <ele>1661.4</ele>
        <time>2020-08-26T09:50:11Z</time>
      </trkpt>
      <trkpt lat="44.29309" lon="6.18429">
        <ele>1661.88</ele>
        <time>2020-08-26T09:50:14Z</time>
      </trkpt>
      <trkpt lat="44.29307" lon="6.18428">
        <ele>1661.94</ele>
        <time>2020-08-26T09:50:15Z</time>
      </trkpt>
      <trkpt lat="44.29291" lon="6.18416">
        <ele>1663.74</ele>
        <time>2020-08-26T09:50:24Z</time>
      </trkpt>
      <trkpt lat="44.29289" lon="6.18415">
        <ele>1663.89</ele>
        <time>2020-08-26T09:50:25Z</time>
      </trkpt>
      <trkpt lat="44.29264" lon="6.18389">
        <ele>1666.23</ele>
        <time>2020-08-26T09:50:40Z</time>
      </trkpt>
      <trkpt lat="44.29253" lon="6.1837">
        <ele>1667.82</ele>
        <time>2020-08-26T09:50:50Z</time>
      </trkpt>
      <trkpt lat="44.29252" lon="6.18367">
        <ele>1667.93</ele>
        <time>2020-08-26T09:50:51Z</time>
      </trkpt>
      <trkpt lat="44.29253" lon="6.18356">
        <ele>1668.42</ele>
        <time>2020-08-26T09:50:55Z</time>
      </trkpt>
      <trkpt lat="44.29254" lon="6.18354">
        <ele>1668.59</ele>
        <time>2020-08-26T09:50:56Z</time>
      </trkpt>
      <trkpt lat="44.29255" lon="6.18352">
        <ele>1668.87</ele>
        <time>2020-08-26T09:50:57Z</time>
      </trkpt>
      <trkpt lat="44.29259" lon="6.18349">
        <ele>1669.37</ele>
        <time>2020-08-26T09:50:59Z</time>
      </trkpt>
      <trkpt lat="44.29261" lon="6.18349">
        <ele>1669.5</ele>
        <time>2020-08-26T09:51:00Z</time>
      </trkpt>
      <trkpt lat="44.29263" lon="6.18349">
        <ele>1669.6</ele>
        <time>2020-08-26T09:51:01Z</time>
      </trkpt>
      <trkpt lat="44.29265" lon="6.18349">
        <ele>1669.73</ele>
        <time>2020-08-26T09:51:02Z</time>
      </trkpt>
      <trkpt lat="44.29267" lon="6.18349">
        <ele>1669.95</ele>
        <time>2020-08-26T09:51:03Z</time>
      </trkpt>
      <trkpt lat="44.29284" lon="6.18319">
        <ele>1672.23</ele>
        <time>2020-08-26T09:51:18Z</time>
      </trkpt>
      <trkpt lat="44.29289" lon="6.18275">
        <ele>1674.86</ele>
        <time>2020-08-26T09:51:34Z</time>
      </trkpt>
      <trkpt lat="44.29301" lon="6.18222">
        <ele>1677.81</ele>
        <time>2020-08-26T09:51:54Z</time>
      </trkpt>
      <trkpt lat="44.29295" lon="6.18208">
        <ele>1680.08</ele>
        <time>2020-08-26T09:52:05Z</time>
      </trkpt>
      <trkpt lat="44.29298" lon="6.18198">
        <ele>1680.21</ele>
        <time>2020-08-26T09:53:38Z</time>
      </trkpt>
      <trkpt lat="44.293" lon="6.18195">
        <ele>1680.18</ele>
        <time>2020-08-26T09:53:39Z</time>
      </trkpt>
      <trkpt lat="44.29301" lon="6.18193">
        <ele>1680.17</ele>
        <time>2020-08-26T09:53:40Z</time>
      </trkpt>
      <trkpt lat="44.29302" lon="6.1819">
        <ele>1680.16</ele>
        <time>2020-08-26T09:53:41Z</time>
      </trkpt>
      <trkpt lat="44.29303" lon="6.18187">
        <ele>1680.16</ele>
        <time>2020-08-26T09:53:42Z</time>
      </trkpt>
      <trkpt lat="44.29304" lon="6.18185">
        <ele>1680.16</ele>
        <time>2020-08-26T09:53:43Z</time>
      </trkpt>
      <trkpt lat="44.2931" lon="6.18172">
        <ele>1680.36</ele>
        <time>2020-08-26T09:53:53Z</time>
      </trkpt>
      <trkpt lat="44.29321" lon="6.18118">
        <ele>1683.65</ele>
        <time>2020-08-26T09:55:53Z</time>
      </trkpt>
      <trkpt lat="44.29319" lon="6.18078">
        <ele>1683.47</ele>
        <time>2020-08-26T09:56:06Z</time>
      </trkpt>
      <trkpt lat="44.29308" lon="6.18039">
        <ele>1684.23</ele>
        <time>2020-08-26T09:56:20Z</time>
      </trkpt>
      <trkpt lat="44.2928" lon="6.18006">
        <ele>1685</ele>
        <time>2020-08-26T09:56:37Z</time>
      </trkpt>
      <trkpt lat="44.29258" lon="6.17985">
        <ele>1686.41</ele>
        <time>2020-08-26T09:56:50Z</time>
      </trkpt>
      <trkpt lat="44.29249" lon="6.17972">
        <ele>1687.02</ele>
        <time>2020-08-26T09:57:02Z</time>
      </trkpt>
      <trkpt lat="44.29268" lon="6.17968">
        <ele>1687.08</ele>
        <time>2020-08-26T09:57:50Z</time>
      </trkpt>
      <trkpt lat="44.2927" lon="6.1797">
        <ele>1687.08</ele>
        <time>2020-08-26T09:57:51Z</time>
      </trkpt>
      <trkpt lat="44.29297" lon="6.17979">
        <ele>1686.82</ele>
        <time>2020-08-26T09:58:03Z</time>
      </trkpt>
      <trkpt lat="44.29328" lon="6.1798">
        <ele>1686.85</ele>
        <time>2020-08-26T09:58:16Z</time>
      </trkpt>
      <trkpt lat="44.29363" lon="6.17991">
        <ele>1686.89</ele>
        <time>2020-08-26T09:58:28Z</time>
      </trkpt>
      <trkpt lat="44.29405" lon="6.18017">
        <ele>1685.83</ele>
        <time>2020-08-26T09:58:41Z</time>
      </trkpt>
      <trkpt lat="44.29439" lon="6.18016">
        <ele>1684.88</ele>
        <time>2020-08-26T09:58:50Z</time>
      </trkpt>
      <trkpt lat="44.29464" lon="6.17974">
        <ele>1684.56</ele>
        <time>2020-08-26T09:59:02Z</time>
      </trkpt>
      <trkpt lat="44.29491" lon="6.17939">
        <ele>1683.9</ele>
        <time>2020-08-26T09:59:14Z</time>
      </trkpt>
      <trkpt lat="44.29531" lon="6.17922">
        <ele>1682.98</ele>
        <time>2020-08-26T09:59:27Z</time>
      </trkpt>
      <trkpt lat="44.2957" lon="6.17912">
        <ele>1683.23</ele>
        <time>2020-08-26T09:59:44Z</time>
      </trkpt>
      <trkpt lat="44.29592" lon="6.17907">
        <ele>1685.64</ele>
        <time>2020-08-26T09:59:57Z</time>
      </trkpt>
      <trkpt lat="44.29619" lon="6.17867">
        <ele>1686.72</ele>
        <time>2020-08-26T10:00:16Z</time>
      </trkpt>
      <trkpt lat="44.29615" lon="6.17831">
        <ele>1687.11</ele>
        <time>2020-08-26T10:00:29Z</time>
      </trkpt>
      <trkpt lat="44.296" lon="6.17798">
        <ele>1688.18</ele>
        <time>2020-08-26T10:00:44Z</time>
      </trkpt>
      <trkpt lat="44.29592" lon="6.17763">
        <ele>1690.93</ele>
        <time>2020-08-26T10:00:59Z</time>
      </trkpt>
      <trkpt lat="44.29594" lon="6.17729">
        <ele>1691.98</ele>
        <time>2020-08-26T10:01:12Z</time>
      </trkpt>
      <trkpt lat="44.29594" lon="6.17725">
        <ele>1691.99</ele>
        <time>2020-08-26T10:01:13Z</time>
      </trkpt>
      <trkpt lat="44.29593" lon="6.17723">
        <ele>1692.08</ele>
        <time>2020-08-26T10:01:14Z</time>
      </trkpt>
      <trkpt lat="44.29593" lon="6.1772">
        <ele>1692.18</ele>
        <time>2020-08-26T10:01:15Z</time>
      </trkpt>
      <trkpt lat="44.29592" lon="6.17717">
        <ele>1692.18</ele>
        <time>2020-08-26T10:01:16Z</time>
      </trkpt>
      <trkpt lat="44.29591" lon="6.17714">
        <ele>1692.27</ele>
        <time>2020-08-26T10:01:17Z</time>
      </trkpt>
      <trkpt lat="44.29572" lon="6.17692">
        <ele>1693.47</ele>
        <time>2020-08-26T10:01:30Z</time>
      </trkpt>
      <trkpt lat="44.29551" lon="6.17666">
        <ele>1693.69</ele>
        <time>2020-08-26T10:01:42Z</time>
      </trkpt>
      <trkpt lat="44.29528" lon="6.17641">
        <ele>1692.18</ele>
        <time>2020-08-26T10:01:53Z</time>
      </trkpt>
      <trkpt lat="44.29508" lon="6.17598">
        <ele>1692.41</ele>
        <time>2020-08-26T10:02:07Z</time>
      </trkpt>
      <trkpt lat="44.29503" lon="6.17547">
        <ele>1690.87</ele>
        <time>2020-08-26T10:02:21Z</time>
      </trkpt>
      <trkpt lat="44.29503" lon="6.17531">
        <ele>1690.1</ele>
        <time>2020-08-26T10:02:24Z</time>
      </trkpt>
      <trkpt lat="44.29504" lon="6.17526">
        <ele>1689.91</ele>
        <time>2020-08-26T10:02:25Z</time>
      </trkpt>
      <trkpt lat="44.29506" lon="6.1752">
        <ele>1689.44</ele>
        <time>2020-08-26T10:02:26Z</time>
      </trkpt>
      <trkpt lat="44.29507" lon="6.17516">
        <ele>1689.17</ele>
        <time>2020-08-26T10:02:27Z</time>
      </trkpt>
      <trkpt lat="44.29508" lon="6.17511">
        <ele>1688.81</ele>
        <time>2020-08-26T10:02:28Z</time>
      </trkpt>
      <trkpt lat="44.29517" lon="6.17494">
        <ele>1686.91</ele>
        <time>2020-08-26T10:02:33Z</time>
      </trkpt>
      <trkpt lat="44.29532" lon="6.17461">
        <ele>1685.98</ele>
        <time>2020-08-26T10:02:41Z</time>
      </trkpt>
      <trkpt lat="44.29533" lon="6.17455">
        <ele>1685.81</ele>
        <time>2020-08-26T10:02:42Z</time>
      </trkpt>
      <trkpt lat="44.29538" lon="6.17395">
        <ele>1683.22</ele>
        <time>2020-08-26T10:02:53Z</time>
      </trkpt>
      <trkpt lat="44.29538" lon="6.17355">
        <ele>1682.88</ele>
        <time>2020-08-26T10:03:03Z</time>
      </trkpt>
      <trkpt lat="44.29538" lon="6.17298">
        <ele>1685.07</ele>
        <time>2020-08-26T10:03:21Z</time>
      </trkpt>
      <trkpt lat="44.29532" lon="6.17253">
        <ele>1686.41</ele>
        <time>2020-08-26T10:03:37Z</time>
      </trkpt>
      <trkpt lat="44.29537" lon="6.17236">
        <ele>1687.9</ele>
        <time>2020-08-26T10:03:44Z</time>
      </trkpt>
      <trkpt lat="44.29539" lon="6.17234">
        <ele>1688.05</ele>
        <time>2020-08-26T10:03:45Z</time>
      </trkpt>
      <trkpt lat="44.2954" lon="6.17232">
        <ele>1688.13</ele>
        <time>2020-08-26T10:03:46Z</time>
      </trkpt>
      <trkpt lat="44.29542" lon="6.17231">
        <ele>1688.22</ele>
        <time>2020-08-26T10:03:47Z</time>
      </trkpt>
      <trkpt lat="44.29543" lon="6.1723">
        <ele>1688.27</ele>
        <time>2020-08-26T10:03:48Z</time>
      </trkpt>
      <trkpt lat="44.29546" lon="6.17228">
        <ele>1688.3</ele>
        <time>2020-08-26T10:03:49Z</time>
      </trkpt>
      <trkpt lat="44.29548" lon="6.17227">
        <ele>1688.32</ele>
        <time>2020-08-26T10:03:50Z</time>
      </trkpt>
      <trkpt lat="44.29551" lon="6.17225">
        <ele>1688.33</ele>
        <time>2020-08-26T10:03:51Z</time>
      </trkpt>
      <trkpt lat="44.29555" lon="6.17225">
        <ele>1688.33</ele>
        <time>2020-08-26T10:03:52Z</time>
      </trkpt>
      <trkpt lat="44.29558" lon="6.17224">
        <ele>1688.33</ele>
        <time>2020-08-26T10:03:53Z</time>
      </trkpt>
      <trkpt lat="44.29562" lon="6.17223">
        <ele>1688.33</ele>
        <time>2020-08-26T10:03:54Z</time>
      </trkpt>
      <trkpt lat="44.29584" lon="6.17223">
        <ele>1688.18</ele>
        <time>2020-08-26T10:04:04Z</time>
      </trkpt>
      <trkpt lat="44.2961" lon="6.17245">
        <ele>1687.96</ele>
        <time>2020-08-26T10:04:13Z</time>
      </trkpt>
      <trkpt lat="44.29637" lon="6.17241">
        <ele>1686.26</ele>
        <time>2020-08-26T10:04:22Z</time>
      </trkpt>
      <trkpt lat="44.29643" lon="6.17235">
        <ele>1686.01</ele>
        <time>2020-08-26T10:04:25Z</time>
      </trkpt>
      <trkpt lat="44.29672" lon="6.17213">
        <ele>1685.5</ele>
        <time>2020-08-26T10:04:37Z</time>
      </trkpt>
      <trkpt lat="44.29687" lon="6.17176">
        <ele>1686.66</ele>
        <time>2020-08-26T10:04:51Z</time>
      </trkpt>
      <trkpt lat="44.29699" lon="6.17129">
        <ele>1685.24</ele>
        <time>2020-08-26T10:05:05Z</time>
      </trkpt>
      <trkpt lat="44.29721" lon="6.171">
        <ele>1682.46</ele>
        <time>2020-08-26T10:05:19Z</time>
      </trkpt>
      <trkpt lat="44.29744" lon="6.17083">
        <ele>1680</ele>
        <time>2020-08-26T10:05:30Z</time>
      </trkpt>
      <trkpt lat="44.29755" lon="6.17073">
        <ele>1678.63</ele>
        <time>2020-08-26T10:05:37Z</time>
      </trkpt>
      <trkpt lat="44.29756" lon="6.17071">
        <ele>1678.44</ele>
        <time>2020-08-26T10:05:38Z</time>
      </trkpt>
      <trkpt lat="44.29757" lon="6.17068">
        <ele>1678.34</ele>
        <time>2020-08-26T10:05:39Z</time>
      </trkpt>
      <trkpt lat="44.29759" lon="6.17065">
        <ele>1678.24</ele>
        <time>2020-08-26T10:05:40Z</time>
      </trkpt>
      <trkpt lat="44.2976" lon="6.17062">
        <ele>1678.14</ele>
        <time>2020-08-26T10:05:41Z</time>
      </trkpt>
      <trkpt lat="44.29772" lon="6.17021">
        <ele>1674.83</ele>
        <time>2020-08-26T10:05:53Z</time>
      </trkpt>
      <trkpt lat="44.29775" lon="6.16983">
        <ele>1671.8</ele>
        <time>2020-08-26T10:06:02Z</time>
      </trkpt>
      <trkpt lat="44.29791" lon="6.16954">
        <ele>1668.65</ele>
        <time>2020-08-26T10:06:11Z</time>
      </trkpt>
      <trkpt lat="44.29818" lon="6.16921">
        <ele>1665.76</ele>
        <time>2020-08-26T10:06:25Z</time>
      </trkpt>
      <trkpt lat="44.29847" lon="6.16886">
        <ele>1662.73</ele>
        <time>2020-08-26T10:06:39Z</time>
      </trkpt>
      <trkpt lat="44.29855" lon="6.16845">
        <ele>1662.2</ele>
        <time>2020-08-26T10:06:49Z</time>
      </trkpt>
      <trkpt lat="44.29855" lon="6.16842">
        <ele>1662.05</ele>
        <time>2020-08-26T10:06:50Z</time>
      </trkpt>
      <trkpt lat="44.29863" lon="6.16792">
        <ele>1661.31</ele>
        <time>2020-08-26T10:07:03Z</time>
      </trkpt>
      <trkpt lat="44.29868" lon="6.16759">
        <ele>1660.22</ele>
        <time>2020-08-26T10:07:11Z</time>
      </trkpt>
      <trkpt lat="44.29869" lon="6.16755">
        <ele>1660.01</ele>
        <time>2020-08-26T10:07:12Z</time>
      </trkpt>
      <trkpt lat="44.29869" lon="6.1675">
        <ele>1659.74</ele>
        <time>2020-08-26T10:07:13Z</time>
      </trkpt>
      <trkpt lat="44.29883" lon="6.16706">
        <ele>1657.83</ele>
        <time>2020-08-26T10:07:24Z</time>
      </trkpt>
      <trkpt lat="44.29905" lon="6.16663">
        <ele>1655.48</ele>
        <time>2020-08-26T10:07:37Z</time>
      </trkpt>
      <trkpt lat="44.2991" lon="6.166">
        <ele>1652.69</ele>
        <time>2020-08-26T10:07:51Z</time>
      </trkpt>
      <trkpt lat="44.29936" lon="6.16559">
        <ele>1651.84</ele>
        <time>2020-08-26T10:08:02Z</time>
      </trkpt>
      <trkpt lat="44.29968" lon="6.16517">
        <ele>1649.21</ele>
        <time>2020-08-26T10:08:14Z</time>
      </trkpt>
      <trkpt lat="44.30009" lon="6.16464">
        <ele>1647.4</ele>
        <time>2020-08-26T10:08:28Z</time>
      </trkpt>
      <trkpt lat="44.30011" lon="6.16459">
        <ele>1647.2</ele>
        <time>2020-08-26T10:08:29Z</time>
      </trkpt>
      <trkpt lat="44.30013" lon="6.16453">
        <ele>1647.09</ele>
        <time>2020-08-26T10:08:30Z</time>
      </trkpt>
      <trkpt lat="44.30015" lon="6.16447">
        <ele>1646.97</ele>
        <time>2020-08-26T10:08:31Z</time>
      </trkpt>
      <trkpt lat="44.30016" lon="6.16441">
        <ele>1646.92</ele>
        <time>2020-08-26T10:08:32Z</time>
      </trkpt>
      <trkpt lat="44.30017" lon="6.16434">
        <ele>1646.88</ele>
        <time>2020-08-26T10:08:33Z</time>
      </trkpt>
      <trkpt lat="44.30017" lon="6.16428">
        <ele>1646.76</ele>
        <time>2020-08-26T10:08:34Z</time>
      </trkpt>
      <trkpt lat="44.30017" lon="6.16423">
        <ele>1646.68</ele>
        <time>2020-08-26T10:08:35Z</time>
      </trkpt>
      <trkpt lat="44.30017" lon="6.16418">
        <ele>1646.4</ele>
        <time>2020-08-26T10:08:36Z</time>
      </trkpt>
      <trkpt lat="44.30015" lon="6.16401">
        <ele>1644.95</ele>
        <time>2020-08-26T10:08:40Z</time>
      </trkpt>
      <trkpt lat="44.30008" lon="6.16383">
        <ele>1644.17</ele>
        <time>2020-08-26T10:08:47Z</time>
      </trkpt>
      <trkpt lat="44.30007" lon="6.1638">
        <ele>1644.06</ele>
        <time>2020-08-26T10:08:48Z</time>
      </trkpt>
      <trkpt lat="44.29993" lon="6.16342">
        <ele>1641.58</ele>
        <time>2020-08-26T10:08:59Z</time>
      </trkpt>
      <trkpt lat="44.29993" lon="6.16327">
        <ele>1640.38</ele>
        <time>2020-08-26T10:09:03Z</time>
      </trkpt>
      <trkpt lat="44.29993" lon="6.16323">
        <ele>1640.26</ele>
        <time>2020-08-26T10:09:04Z</time>
      </trkpt>
      <trkpt lat="44.29994" lon="6.1628">
        <ele>1637.83</ele>
        <time>2020-08-26T10:09:14Z</time>
      </trkpt>
      <trkpt lat="44.3001" lon="6.16255">
        <ele>1635.35</ele>
        <time>2020-08-26T10:09:26Z</time>
      </trkpt>
      <trkpt lat="44.30047" lon="6.16249">
        <ele>1633.48</ele>
        <time>2020-08-26T10:09:40Z</time>
      </trkpt>
      <trkpt lat="44.30084" lon="6.16255">
        <ele>1630.42</ele>
        <time>2020-08-26T10:09:56Z</time>
      </trkpt>
      <trkpt lat="44.3012" lon="6.16234">
        <ele>1628.8</ele>
        <time>2020-08-26T10:10:12Z</time>
      </trkpt>
      <trkpt lat="44.30146" lon="6.16235">
        <ele>1628.27</ele>
        <time>2020-08-26T10:10:24Z</time>
      </trkpt>
      <trkpt lat="44.30146" lon="6.16235">
        <ele>1628.16</ele>
        <time>2020-08-26T10:10:28Z</time>
      </trkpt>
      <trkpt lat="44.30152" lon="6.16238">
        <ele>1628.8</ele>
        <time>2020-08-26T10:11:41Z</time>
      </trkpt>
      <trkpt lat="44.30154" lon="6.16238">
        <ele>1628.79</ele>
        <time>2020-08-26T10:11:42Z</time>
      </trkpt>
      <trkpt lat="44.30156" lon="6.16238">
        <ele>1628.78</ele>
        <time>2020-08-26T10:11:43Z</time>
      </trkpt>
      <trkpt lat="44.30158" lon="6.16238">
        <ele>1628.72</ele>
        <time>2020-08-26T10:11:44Z</time>
      </trkpt>
      <trkpt lat="44.30161" lon="6.16237">
        <ele>1628.68</ele>
        <time>2020-08-26T10:11:45Z</time>
      </trkpt>
      <trkpt lat="44.30163" lon="6.16236">
        <ele>1628.64</ele>
        <time>2020-08-26T10:11:46Z</time>
      </trkpt>
      <trkpt lat="44.30165" lon="6.16234">
        <ele>1628.6</ele>
        <time>2020-08-26T10:11:47Z</time>
      </trkpt>
      <trkpt lat="44.30168" lon="6.16231">
        <ele>1628.56</ele>
        <time>2020-08-26T10:11:48Z</time>
      </trkpt>
      <trkpt lat="44.30171" lon="6.16228">
        <ele>1628.55</ele>
        <time>2020-08-26T10:11:49Z</time>
      </trkpt>
      <trkpt lat="44.30201" lon="6.16181">
        <ele>1626.36</ele>
        <time>2020-08-26T10:12:03Z</time>
      </trkpt>
      <trkpt lat="44.30223" lon="6.16131">
        <ele>1625.37</ele>
        <time>2020-08-26T10:12:20Z</time>
      </trkpt>
      <trkpt lat="44.30227" lon="6.16089">
        <ele>1623.81</ele>
        <time>2020-08-26T10:12:35Z</time>
      </trkpt>
      <trkpt lat="44.30231" lon="6.1608">
        <ele>1623.2</ele>
        <time>2020-08-26T10:12:39Z</time>
      </trkpt>
      <trkpt lat="44.30232" lon="6.16078">
        <ele>1622.98</ele>
        <time>2020-08-26T10:12:40Z</time>
      </trkpt>
      <trkpt lat="44.30233" lon="6.16076">
        <ele>1622.79</ele>
        <time>2020-08-26T10:12:41Z</time>
      </trkpt>
      <trkpt lat="44.30233" lon="6.16073">
        <ele>1622.66</ele>
        <time>2020-08-26T10:12:42Z</time>
      </trkpt>
      <trkpt lat="44.30234" lon="6.16071">
        <ele>1622.5</ele>
        <time>2020-08-26T10:12:43Z</time>
      </trkpt>
      <trkpt lat="44.30234" lon="6.16068">
        <ele>1622.14</ele>
        <time>2020-08-26T10:12:44Z</time>
      </trkpt>
      <trkpt lat="44.30246" lon="6.16024">
        <ele>1619.84</ele>
        <time>2020-08-26T10:12:56Z</time>
      </trkpt>
      <trkpt lat="44.30259" lon="6.15982">
        <ele>1616.72</ele>
        <time>2020-08-26T10:13:07Z</time>
      </trkpt>
      <trkpt lat="44.30287" lon="6.15956">
        <ele>1615.89</ele>
        <time>2020-08-26T10:13:20Z</time>
      </trkpt>
      <trkpt lat="44.30317" lon="6.15944">
        <ele>1615.6</ele>
        <time>2020-08-26T10:13:34Z</time>
      </trkpt>
      <trkpt lat="44.30355" lon="6.15955">
        <ele>1615.43</ele>
        <time>2020-08-26T10:13:49Z</time>
      </trkpt>
      <trkpt lat="44.30385" lon="6.15916">
        <ele>1615.42</ele>
        <time>2020-08-26T10:14:03Z</time>
      </trkpt>
      <trkpt lat="44.30418" lon="6.15862">
        <ele>1615.89</ele>
        <time>2020-08-26T10:14:21Z</time>
      </trkpt>
      <trkpt lat="44.30432" lon="6.15812">
        <ele>1614.24</ele>
        <time>2020-08-26T10:14:37Z</time>
      </trkpt>
      <trkpt lat="44.30435" lon="6.1577">
        <ele>1611.23</ele>
        <time>2020-08-26T10:14:50Z</time>
      </trkpt>
      <trkpt lat="44.30434" lon="6.1577">
        <ele>1610.85</ele>
        <time>2020-08-26T10:14:54Z</time>
      </trkpt>
      <trkpt lat="44.30446" lon="6.15705">
        <ele>1604.87</ele>
        <time>2020-08-26T10:16:44Z</time>
      </trkpt>
      <trkpt lat="44.30446" lon="6.15703">
        <ele>1604.86</ele>
        <time>2020-08-26T10:16:45Z</time>
      </trkpt>
      <trkpt lat="44.30446" lon="6.157">
        <ele>1604.83</ele>
        <time>2020-08-26T10:16:46Z</time>
      </trkpt>
      <trkpt lat="44.30446" lon="6.15698">
        <ele>1604.81</ele>
        <time>2020-08-26T10:16:47Z</time>
      </trkpt>
      <trkpt lat="44.30446" lon="6.15675">
        <ele>1602.91</ele>
        <time>2020-08-26T10:17:01Z</time>
      </trkpt>
      <trkpt lat="44.30446" lon="6.15662">
        <ele>1601.39</ele>
        <time>2020-08-26T10:17:11Z</time>
      </trkpt>
      <trkpt lat="44.30446" lon="6.1566">
        <ele>1601.3</ele>
        <time>2020-08-26T10:17:12Z</time>
      </trkpt>
      <trkpt lat="44.30446" lon="6.15657">
        <ele>1601.17</ele>
        <time>2020-08-26T10:17:13Z</time>
      </trkpt>
      <trkpt lat="44.30446" lon="6.15654">
        <ele>1600.89</ele>
        <time>2020-08-26T10:17:14Z</time>
      </trkpt>
      <trkpt lat="44.30446" lon="6.15652">
        <ele>1600.79</ele>
        <time>2020-08-26T10:17:15Z</time>
      </trkpt>
      <trkpt lat="44.30447" lon="6.1565">
        <ele>1600.74</ele>
        <time>2020-08-26T10:17:16Z</time>
      </trkpt>
      <trkpt lat="44.30446" lon="6.15647">
        <ele>1600.51</ele>
        <time>2020-08-26T10:17:17Z</time>
      </trkpt>
      <trkpt lat="44.30446" lon="6.15645">
        <ele>1600.1</ele>
        <time>2020-08-26T10:17:18Z</time>
      </trkpt>
      <trkpt lat="44.30445" lon="6.15625">
        <ele>1597.15</ele>
        <time>2020-08-26T10:17:28Z</time>
      </trkpt>
      <trkpt lat="44.3045" lon="6.15591">
        <ele>1594.96</ele>
        <time>2020-08-26T10:17:41Z</time>
      </trkpt>
      <trkpt lat="44.30456" lon="6.15549">
        <ele>1591.85</ele>
        <time>2020-08-26T10:17:54Z</time>
      </trkpt>
      <trkpt lat="44.30463" lon="6.15518">
        <ele>1589.44</ele>
        <time>2020-08-26T10:18:06Z</time>
      </trkpt>
      <trkpt lat="44.30464" lon="6.15516">
        <ele>1589.17</ele>
        <time>2020-08-26T10:18:07Z</time>
      </trkpt>
      <trkpt lat="44.30477" lon="6.1548">
        <ele>1587.21</ele>
        <time>2020-08-26T10:18:18Z</time>
      </trkpt>
      <trkpt lat="44.30473" lon="6.15418">
        <ele>1585.55</ele>
        <time>2020-08-26T10:18:34Z</time>
      </trkpt>
      <trkpt lat="44.30474" lon="6.15351">
        <ele>1584.71</ele>
        <time>2020-08-26T10:18:49Z</time>
      </trkpt>
      <trkpt lat="44.30485" lon="6.15326">
        <ele>1582.88</ele>
        <time>2020-08-26T10:19:01Z</time>
      </trkpt>
      <trkpt lat="44.3049" lon="6.15321">
        <ele>1582.7</ele>
        <time>2020-08-26T10:19:37Z</time>
      </trkpt>
      <trkpt lat="44.30507" lon="6.15274">
        <ele>1581.01</ele>
        <time>2020-08-26T10:19:48Z</time>
      </trkpt>
      <trkpt lat="44.30512" lon="6.15246">
        <ele>1577.99</ele>
        <time>2020-08-26T10:19:55Z</time>
      </trkpt>
      <trkpt lat="44.30518" lon="6.15184">
        <ele>1575.39</ele>
        <time>2020-08-26T10:20:10Z</time>
      </trkpt>
      <trkpt lat="44.3051" lon="6.1515">
        <ele>1575.07</ele>
        <time>2020-08-26T10:20:17Z</time>
      </trkpt>
      <trkpt lat="44.30508" lon="6.15145">
        <ele>1575.01</ele>
        <time>2020-08-26T10:20:18Z</time>
      </trkpt>
      <trkpt lat="44.30506" lon="6.15139">
        <ele>1574.89</ele>
        <time>2020-08-26T10:20:19Z</time>
      </trkpt>
      <trkpt lat="44.30503" lon="6.15135">
        <ele>1574.73</ele>
        <time>2020-08-26T10:20:20Z</time>
      </trkpt>
      <trkpt lat="44.305" lon="6.1513">
        <ele>1574.63</ele>
        <time>2020-08-26T10:20:21Z</time>
      </trkpt>
      <trkpt lat="44.30497" lon="6.15127">
        <ele>1574.34</ele>
        <time>2020-08-26T10:20:22Z</time>
      </trkpt>
      <trkpt lat="44.30486" lon="6.15111">
        <ele>1573.05</ele>
        <time>2020-08-26T10:20:26Z</time>
      </trkpt>
      <trkpt lat="44.30483" lon="6.15106">
        <ele>1572.94</ele>
        <time>2020-08-26T10:20:27Z</time>
      </trkpt>
      <trkpt lat="44.30481" lon="6.15101">
        <ele>1572.89</ele>
        <time>2020-08-26T10:20:28Z</time>
      </trkpt>
      <trkpt lat="44.3048" lon="6.15096">
        <ele>1572.82</ele>
        <time>2020-08-26T10:20:29Z</time>
      </trkpt>
      <trkpt lat="44.30479" lon="6.15091">
        <ele>1572.76</ele>
        <time>2020-08-26T10:20:30Z</time>
      </trkpt>
      <trkpt lat="44.30475" lon="6.15064">
        <ele>1572.27</ele>
        <time>2020-08-26T10:20:35Z</time>
      </trkpt>
      <trkpt lat="44.30485" lon="6.15015">
        <ele>1571.49</ele>
        <time>2020-08-26T10:20:46Z</time>
      </trkpt>
      <trkpt lat="44.3051" lon="6.14997">
        <ele>1569.85</ele>
        <time>2020-08-26T10:20:56Z</time>
      </trkpt>
      <trkpt lat="44.30529" lon="6.14976">
        <ele>1568.42</ele>
        <time>2020-08-26T10:21:05Z</time>
      </trkpt>
      <trkpt lat="44.3056" lon="6.14967">
        <ele>1564.71</ele>
        <time>2020-08-26T10:21:14Z</time>
      </trkpt>
      <trkpt lat="44.30585" lon="6.1497">
        <ele>1560.97</ele>
        <time>2020-08-26T10:21:21Z</time>
      </trkpt>
      <trkpt lat="44.30613" lon="6.14948">
        <ele>1557.66</ele>
        <time>2020-08-26T10:21:30Z</time>
      </trkpt>
      <trkpt lat="44.30634" lon="6.14909">
        <ele>1554.22</ele>
        <time>2020-08-26T10:21:39Z</time>
      </trkpt>
      <trkpt lat="44.30642" lon="6.14899">
        <ele>1553.04</ele>
        <time>2020-08-26T10:21:42Z</time>
      </trkpt>
      <trkpt lat="44.30645" lon="6.14894">
        <ele>1552.72</ele>
        <time>2020-08-26T10:21:43Z</time>
      </trkpt>
      <trkpt lat="44.30647" lon="6.14889">
        <ele>1552.44</ele>
        <time>2020-08-26T10:21:44Z</time>
      </trkpt>
      <trkpt lat="44.30648" lon="6.14884">
        <ele>1551.59</ele>
        <time>2020-08-26T10:21:45Z</time>
      </trkpt>
      <trkpt lat="44.30649" lon="6.14878">
        <ele>1551.07</ele>
        <time>2020-08-26T10:21:46Z</time>
      </trkpt>
      <trkpt lat="44.3065" lon="6.14873">
        <ele>1550.59</ele>
        <time>2020-08-26T10:21:47Z</time>
      </trkpt>
      <trkpt lat="44.30651" lon="6.14863">
        <ele>1549.8</ele>
        <time>2020-08-26T10:21:49Z</time>
      </trkpt>
      <trkpt lat="44.30651" lon="6.14852">
        <ele>1549.19</ele>
        <time>2020-08-26T10:21:51Z</time>
      </trkpt>
      <trkpt lat="44.30652" lon="6.14846">
        <ele>1548.98</ele>
        <time>2020-08-26T10:21:52Z</time>
      </trkpt>
      <trkpt lat="44.30654" lon="6.14841">
        <ele>1548.87</ele>
        <time>2020-08-26T10:21:53Z</time>
      </trkpt>
      <trkpt lat="44.30656" lon="6.14835">
        <ele>1548.78</ele>
        <time>2020-08-26T10:21:54Z</time>
      </trkpt>
      <trkpt lat="44.30658" lon="6.14829">
        <ele>1548.68</ele>
        <time>2020-08-26T10:21:55Z</time>
      </trkpt>
      <trkpt lat="44.30675" lon="6.1479">
        <ele>1545.07</ele>
        <time>2020-08-26T10:22:04Z</time>
      </trkpt>
      <trkpt lat="44.3068" lon="6.14784">
        <ele>1544.39</ele>
        <time>2020-08-26T10:22:06Z</time>
      </trkpt>
      <trkpt lat="44.30691" lon="6.14775">
        <ele>1543.82</ele>
        <time>2020-08-26T10:22:10Z</time>
      </trkpt>
      <trkpt lat="44.30719" lon="6.14756">
        <ele>1540.45</ele>
        <time>2020-08-26T10:22:19Z</time>
      </trkpt>
      <trkpt lat="44.30728" lon="6.14752">
        <ele>1538.75</ele>
        <time>2020-08-26T10:22:24Z</time>
      </trkpt>
      <trkpt lat="44.30729" lon="6.14754">
        <ele>1538.64</ele>
        <time>2020-08-26T10:22:25Z</time>
      </trkpt>
      <trkpt lat="44.3073" lon="6.14755">
        <ele>1538.51</ele>
        <time>2020-08-26T10:22:26Z</time>
      </trkpt>
      <trkpt lat="44.30731" lon="6.14757">
        <ele>1538.39</ele>
        <time>2020-08-26T10:22:27Z</time>
      </trkpt>
      <trkpt lat="44.30731" lon="6.1476">
        <ele>1538.33</ele>
        <time>2020-08-26T10:22:28Z</time>
      </trkpt>
      <trkpt lat="44.30731" lon="6.14762">
        <ele>1538.2</ele>
        <time>2020-08-26T10:22:29Z</time>
      </trkpt>
      <trkpt lat="44.3073" lon="6.14764">
        <ele>1538.05</ele>
        <time>2020-08-26T10:22:30Z</time>
      </trkpt>
      <trkpt lat="44.30728" lon="6.14766">
        <ele>1537.81</ele>
        <time>2020-08-26T10:22:31Z</time>
      </trkpt>
      <trkpt lat="44.30726" lon="6.14768">
        <ele>1537.51</ele>
        <time>2020-08-26T10:22:32Z</time>
      </trkpt>
      <trkpt lat="44.30705" lon="6.14815">
        <ele>1535.19</ele>
        <time>2020-08-26T10:22:45Z</time>
      </trkpt>
      <trkpt lat="44.30706" lon="6.14828">
        <ele>1533.77</ele>
        <time>2020-08-26T10:22:49Z</time>
      </trkpt>
      <trkpt lat="44.30707" lon="6.14829">
        <ele>1533.36</ele>
        <time>2020-08-26T10:22:50Z</time>
      </trkpt>
      <trkpt lat="44.30709" lon="6.1483">
        <ele>1532.95</ele>
        <time>2020-08-26T10:22:51Z</time>
      </trkpt>
      <trkpt lat="44.3071" lon="6.14831">
        <ele>1532.68</ele>
        <time>2020-08-26T10:22:52Z</time>
      </trkpt>
      <trkpt lat="44.30712" lon="6.1483">
        <ele>1532.53</ele>
        <time>2020-08-26T10:22:53Z</time>
      </trkpt>
      <trkpt lat="44.30713" lon="6.1483">
        <ele>1532.18</ele>
        <time>2020-08-26T10:22:54Z</time>
      </trkpt>
      <trkpt lat="44.30715" lon="6.14829">
        <ele>1531.85</ele>
        <time>2020-08-26T10:22:55Z</time>
      </trkpt>
      <trkpt lat="44.30743" lon="6.14816">
        <ele>1528.59</ele>
        <time>2020-08-26T10:23:07Z</time>
      </trkpt>
      <trkpt lat="44.30764" lon="6.14818">
        <ele>1526.24</ele>
        <time>2020-08-26T10:23:14Z</time>
      </trkpt>
      <trkpt lat="44.30768" lon="6.14818">
        <ele>1525.71</ele>
        <time>2020-08-26T10:23:15Z</time>
      </trkpt>
      <trkpt lat="44.30772" lon="6.14817">
        <ele>1525.15</ele>
        <time>2020-08-26T10:23:16Z</time>
      </trkpt>
      <trkpt lat="44.3078" lon="6.14815">
        <ele>1524.35</ele>
        <time>2020-08-26T10:23:18Z</time>
      </trkpt>
      <trkpt lat="44.30799" lon="6.14812">
        <ele>1520.82</ele>
        <time>2020-08-26T10:23:24Z</time>
      </trkpt>
      <trkpt lat="44.30813" lon="6.1481">
        <ele>1518.49</ele>
        <time>2020-08-26T10:23:28Z</time>
      </trkpt>
      <trkpt lat="44.30817" lon="6.14808">
        <ele>1518.14</ele>
        <time>2020-08-26T10:23:29Z</time>
      </trkpt>
      <trkpt lat="44.30821" lon="6.14806">
        <ele>1517.49</ele>
        <time>2020-08-26T10:23:30Z</time>
      </trkpt>
      <trkpt lat="44.3084" lon="6.148">
        <ele>1514.35</ele>
        <time>2020-08-26T10:23:37Z</time>
      </trkpt>
      <trkpt lat="44.30853" lon="6.1482">
        <ele>1510.69</ele>
        <time>2020-08-26T10:23:45Z</time>
      </trkpt>
      <trkpt lat="44.30877" lon="6.14852">
        <ele>1507.05</ele>
        <time>2020-08-26T10:23:55Z</time>
      </trkpt>
      <trkpt lat="44.30891" lon="6.14882">
        <ele>1503.57</ele>
        <time>2020-08-26T10:24:02Z</time>
      </trkpt>
      <trkpt lat="44.30892" lon="6.1489">
        <ele>1502.79</ele>
        <time>2020-08-26T10:24:04Z</time>
      </trkpt>
      <trkpt lat="44.3089" lon="6.14934">
        <ele>1500.4</ele>
        <time>2020-08-26T10:24:15Z</time>
      </trkpt>
      <trkpt lat="44.30897" lon="6.14984">
        <ele>1497.25</ele>
        <time>2020-08-26T10:24:27Z</time>
      </trkpt>
      <trkpt lat="44.30887" lon="6.15041">
        <ele>1495.84</ele>
        <time>2020-08-26T10:24:39Z</time>
      </trkpt>
      <trkpt lat="44.30895" lon="6.15085">
        <ele>1492.78</ele>
        <time>2020-08-26T10:24:51Z</time>
      </trkpt>
      <trkpt lat="44.30897" lon="6.15095">
        <ele>1491.41</ele>
        <time>2020-08-26T10:24:54Z</time>
      </trkpt>
      <trkpt lat="44.30901" lon="6.15102">
        <ele>1490.16</ele>
        <time>2020-08-26T10:24:57Z</time>
      </trkpt>
      <trkpt lat="44.30903" lon="6.15103">
        <ele>1489.76</ele>
        <time>2020-08-26T10:24:58Z</time>
      </trkpt>
      <trkpt lat="44.30916" lon="6.15105">
        <ele>1486.69</ele>
        <time>2020-08-26T10:25:08Z</time>
      </trkpt>
      <trkpt lat="44.30916" lon="6.15105">
        <ele>1486.54</ele>
        <time>2020-08-26T10:25:09Z</time>
      </trkpt>
      <trkpt lat="44.3091" lon="6.15109">
        <ele>1485.87</ele>
        <time>2020-08-26T10:26:09Z</time>
      </trkpt>
      <trkpt lat="44.30908" lon="6.15111">
        <ele>1485.9</ele>
        <time>2020-08-26T10:26:10Z</time>
      </trkpt>
      <trkpt lat="44.30906" lon="6.15112">
        <ele>1485.92</ele>
        <time>2020-08-26T10:26:11Z</time>
      </trkpt>
      <trkpt lat="44.30904" lon="6.15114">
        <ele>1485.94</ele>
        <time>2020-08-26T10:26:12Z</time>
      </trkpt>
      <trkpt lat="44.30903" lon="6.15116">
        <ele>1485.94</ele>
        <time>2020-08-26T10:26:13Z</time>
      </trkpt>
      <trkpt lat="44.30901" lon="6.15119">
        <ele>1485.94</ele>
        <time>2020-08-26T10:26:14Z</time>
      </trkpt>
      <trkpt lat="44.30894" lon="6.15134">
        <ele>1485.91</ele>
        <time>2020-08-26T10:26:18Z</time>
      </trkpt>
      <trkpt lat="44.30892" lon="6.15139">
        <ele>1485.89</ele>
        <time>2020-08-26T10:26:19Z</time>
      </trkpt>
      <trkpt lat="44.30889" lon="6.15144">
        <ele>1485.88</ele>
        <time>2020-08-26T10:26:20Z</time>
      </trkpt>
      <trkpt lat="44.30886" lon="6.1515">
        <ele>1485.88</ele>
        <time>2020-08-26T10:26:21Z</time>
      </trkpt>
      <trkpt lat="44.30884" lon="6.15156">
        <ele>1485.81</ele>
        <time>2020-08-26T10:26:22Z</time>
      </trkpt>
      <trkpt lat="44.30881" lon="6.15163">
        <ele>1485.65</ele>
        <time>2020-08-26T10:26:23Z</time>
      </trkpt>
      <trkpt lat="44.30877" lon="6.15174">
        <ele>1485.35</ele>
        <time>2020-08-26T10:26:25Z</time>
      </trkpt>
      <trkpt lat="44.30874" lon="6.15179">
        <ele>1484.88</ele>
        <time>2020-08-26T10:26:26Z</time>
      </trkpt>
      <trkpt lat="44.30861" lon="6.15224">
        <ele>1482.58</ele>
        <time>2020-08-26T10:26:36Z</time>
      </trkpt>
      <trkpt lat="44.30863" lon="6.15269">
        <ele>1481.7</ele>
        <time>2020-08-26T10:26:43Z</time>
      </trkpt>
      <trkpt lat="44.30865" lon="6.15283">
        <ele>1481.44</ele>
        <time>2020-08-26T10:26:45Z</time>
      </trkpt>
      <trkpt lat="44.30873" lon="6.15307">
        <ele>1478.84</ele>
        <time>2020-08-26T10:26:53Z</time>
      </trkpt>
      <trkpt lat="44.30873" lon="6.15307">
        <ele>1478.48</ele>
        <time>2020-08-26T10:26:55Z</time>
      </trkpt>
      <trkpt lat="44.3088" lon="6.15318">
        <ele>1478.02</ele>
        <time>2020-08-26T10:28:54Z</time>
      </trkpt>
      <trkpt lat="44.30907" lon="6.15368">
        <ele>1477.44</ele>
        <time>2020-08-26T10:29:03Z</time>
      </trkpt>
      <trkpt lat="44.30912" lon="6.15376">
        <ele>1477.16</ele>
        <time>2020-08-26T10:29:04Z</time>
      </trkpt>
      <trkpt lat="44.30944" lon="6.15405">
        <ele>1474.29</ele>
        <time>2020-08-26T10:29:09Z</time>
      </trkpt>
      <trkpt lat="44.30951" lon="6.15408">
        <ele>1473.7</ele>
        <time>2020-08-26T10:29:10Z</time>
      </trkpt>
      <trkpt lat="44.30958" lon="6.1541">
        <ele>1473.08</ele>
        <time>2020-08-26T10:29:11Z</time>
      </trkpt>
      <trkpt lat="44.30966" lon="6.15411">
        <ele>1472.43</ele>
        <time>2020-08-26T10:29:12Z</time>
      </trkpt>
      <trkpt lat="44.30975" lon="6.15412">
        <ele>1471.8</ele>
        <time>2020-08-26T10:29:13Z</time>
      </trkpt>
      <trkpt lat="44.31018" lon="6.15414">
        <ele>1468.41</ele>
        <time>2020-08-26T10:29:18Z</time>
      </trkpt>
      <trkpt lat="44.31043" lon="6.15417">
        <ele>1465.17</ele>
        <time>2020-08-26T10:29:22Z</time>
      </trkpt>
      <trkpt lat="44.31048" lon="6.15416">
        <ele>1464.28</ele>
        <time>2020-08-26T10:29:23Z</time>
      </trkpt>
      <trkpt lat="44.31053" lon="6.15415">
        <ele>1463.44</ele>
        <time>2020-08-26T10:29:24Z</time>
      </trkpt>
      <trkpt lat="44.31058" lon="6.15412">
        <ele>1462.65</ele>
        <time>2020-08-26T10:29:25Z</time>
      </trkpt>
      <trkpt lat="44.31062" lon="6.15407">
        <ele>1461.83</ele>
        <time>2020-08-26T10:29:26Z</time>
      </trkpt>
      <trkpt lat="44.31065" lon="6.15402">
        <ele>1461.15</ele>
        <time>2020-08-26T10:29:27Z</time>
      </trkpt>
      <trkpt lat="44.31067" lon="6.15397">
        <ele>1460.61</ele>
        <time>2020-08-26T10:29:28Z</time>
      </trkpt>
      <trkpt lat="44.3107" lon="6.15393">
        <ele>1460.07</ele>
        <time>2020-08-26T10:29:29Z</time>
      </trkpt>
      <trkpt lat="44.31073" lon="6.15391">
        <ele>1459.57</ele>
        <time>2020-08-26T10:29:30Z</time>
      </trkpt>
      <trkpt lat="44.31078" lon="6.15391">
        <ele>1459.04</ele>
        <time>2020-08-26T10:29:31Z</time>
      </trkpt>
      <trkpt lat="44.31082" lon="6.15392">
        <ele>1458.2</ele>
        <time>2020-08-26T10:29:32Z</time>
      </trkpt>
      <trkpt lat="44.31088" lon="6.15395">
        <ele>1457.75</ele>
        <time>2020-08-26T10:29:33Z</time>
      </trkpt>
      <trkpt lat="44.31093" lon="6.15399">
        <ele>1457.13</ele>
        <time>2020-08-26T10:29:34Z</time>
      </trkpt>
      <trkpt lat="44.31112" lon="6.1541">
        <ele>1455.89</ele>
        <time>2020-08-26T10:29:37Z</time>
      </trkpt>
      <trkpt lat="44.31137" lon="6.15426">
        <ele>1452.82</ele>
        <time>2020-08-26T10:29:42Z</time>
      </trkpt>
      <trkpt lat="44.31141" lon="6.15427">
        <ele>1451.9</ele>
        <time>2020-08-26T10:29:43Z</time>
      </trkpt>
      <trkpt lat="44.31145" lon="6.15427">
        <ele>1451</ele>
        <time>2020-08-26T10:29:44Z</time>
      </trkpt>
      <trkpt lat="44.3115" lon="6.15425">
        <ele>1450.22</ele>
        <time>2020-08-26T10:29:45Z</time>
      </trkpt>
      <trkpt lat="44.31155" lon="6.15421">
        <ele>1449.66</ele>
        <time>2020-08-26T10:29:46Z</time>
      </trkpt>
      <trkpt lat="44.31159" lon="6.15416">
        <ele>1449.13</ele>
        <time>2020-08-26T10:29:47Z</time>
      </trkpt>
      <trkpt lat="44.31164" lon="6.1541">
        <ele>1448.59</ele>
        <time>2020-08-26T10:29:48Z</time>
      </trkpt>
      <trkpt lat="44.31206" lon="6.15356">
        <ele>1444.17</ele>
        <time>2020-08-26T10:29:56Z</time>
      </trkpt>
      <trkpt lat="44.31217" lon="6.15333">
        <ele>1440.7</ele>
        <time>2020-08-26T10:30:00Z</time>
      </trkpt>
      <trkpt lat="44.31228" lon="6.15319">
        <ele>1437.72</ele>
        <time>2020-08-26T10:30:05Z</time>
      </trkpt>
      <trkpt lat="44.31231" lon="6.1532">
        <ele>1437.52</ele>
        <time>2020-08-26T10:30:06Z</time>
      </trkpt>
      <trkpt lat="44.31233" lon="6.15322">
        <ele>1437.38</ele>
        <time>2020-08-26T10:30:07Z</time>
      </trkpt>
      <trkpt lat="44.31234" lon="6.15326">
        <ele>1437.3</ele>
        <time>2020-08-26T10:30:08Z</time>
      </trkpt>
      <trkpt lat="44.31234" lon="6.1533">
        <ele>1437.23</ele>
        <time>2020-08-26T10:30:09Z</time>
      </trkpt>
      <trkpt lat="44.31234" lon="6.15335">
        <ele>1437.08</ele>
        <time>2020-08-26T10:30:10Z</time>
      </trkpt>
      <trkpt lat="44.31232" lon="6.1534">
        <ele>1436.81</ele>
        <time>2020-08-26T10:30:11Z</time>
      </trkpt>
      <trkpt lat="44.3123" lon="6.15345">
        <ele>1436.65</ele>
        <time>2020-08-26T10:30:12Z</time>
      </trkpt>
      <trkpt lat="44.31226" lon="6.15351">
        <ele>1436.43</ele>
        <time>2020-08-26T10:30:13Z</time>
      </trkpt>
      <trkpt lat="44.31223" lon="6.15357">
        <ele>1436.28</ele>
        <time>2020-08-26T10:30:14Z</time>
      </trkpt>
      <trkpt lat="44.31215" lon="6.1537">
        <ele>1435.6</ele>
        <time>2020-08-26T10:30:16Z</time>
      </trkpt>
      <trkpt lat="44.31211" lon="6.15378">
        <ele>1435.16</ele>
        <time>2020-08-26T10:30:17Z</time>
      </trkpt>
      <trkpt lat="44.31192" lon="6.15433">
        <ele>1432.07</ele>
        <time>2020-08-26T10:30:24Z</time>
      </trkpt>
      <trkpt lat="44.31185" lon="6.15444">
        <ele>1430.99</ele>
        <time>2020-08-26T10:30:26Z</time>
      </trkpt>
      <trkpt lat="44.31181" lon="6.1545">
        <ele>1430.41</ele>
        <time>2020-08-26T10:30:27Z</time>
      </trkpt>
      <trkpt lat="44.31179" lon="6.15455">
        <ele>1429.87</ele>
        <time>2020-08-26T10:30:28Z</time>
      </trkpt>
      <trkpt lat="44.31177" lon="6.1546">
        <ele>1429.42</ele>
        <time>2020-08-26T10:30:29Z</time>
      </trkpt>
      <trkpt lat="44.31177" lon="6.15464">
        <ele>1428.69</ele>
        <time>2020-08-26T10:30:30Z</time>
      </trkpt>
      <trkpt lat="44.31178" lon="6.15469">
        <ele>1428.03</ele>
        <time>2020-08-26T10:30:31Z</time>
      </trkpt>
      <trkpt lat="44.31179" lon="6.15474">
        <ele>1427.45</ele>
        <time>2020-08-26T10:30:32Z</time>
      </trkpt>
      <trkpt lat="44.31182" lon="6.15478">
        <ele>1427.13</ele>
        <time>2020-08-26T10:30:33Z</time>
      </trkpt>
      <trkpt lat="44.31185" lon="6.15481">
        <ele>1426.94</ele>
        <time>2020-08-26T10:30:34Z</time>
      </trkpt>
      <trkpt lat="44.31189" lon="6.15484">
        <ele>1426.7</ele>
        <time>2020-08-26T10:30:35Z</time>
      </trkpt>
      <trkpt lat="44.31194" lon="6.15485">
        <ele>1426.2</ele>
        <time>2020-08-26T10:30:36Z</time>
      </trkpt>
      <trkpt lat="44.31199" lon="6.15486">
        <ele>1425.8</ele>
        <time>2020-08-26T10:30:37Z</time>
      </trkpt>
      <trkpt lat="44.31204" lon="6.15485">
        <ele>1425.48</ele>
        <time>2020-08-26T10:30:38Z</time>
      </trkpt>
      <trkpt lat="44.31211" lon="6.15483">
        <ele>1425.27</ele>
        <time>2020-08-26T10:30:39Z</time>
      </trkpt>
      <trkpt lat="44.31217" lon="6.15481">
        <ele>1424.98</ele>
        <time>2020-08-26T10:30:40Z</time>
      </trkpt>
      <trkpt lat="44.31254" lon="6.15462">
        <ele>1422.08</ele>
        <time>2020-08-26T10:30:46Z</time>
      </trkpt>
      <trkpt lat="44.31258" lon="6.15457">
        <ele>1421.42</ele>
        <time>2020-08-26T10:30:47Z</time>
      </trkpt>
      <trkpt lat="44.31262" lon="6.15452">
        <ele>1420.72</ele>
        <time>2020-08-26T10:30:48Z</time>
      </trkpt>
      <trkpt lat="44.31265" lon="6.15445">
        <ele>1420.11</ele>
        <time>2020-08-26T10:30:49Z</time>
      </trkpt>
      <trkpt lat="44.31267" lon="6.15437">
        <ele>1419.42</ele>
        <time>2020-08-26T10:30:50Z</time>
      </trkpt>
      <trkpt lat="44.31268" lon="6.15429">
        <ele>1418.71</ele>
        <time>2020-08-26T10:30:51Z</time>
      </trkpt>
      <trkpt lat="44.31268" lon="6.1542">
        <ele>1418.26</ele>
        <time>2020-08-26T10:30:52Z</time>
      </trkpt>
      <trkpt lat="44.31266" lon="6.15412">
        <ele>1418.02</ele>
        <time>2020-08-26T10:30:53Z</time>
      </trkpt>
      <trkpt lat="44.31265" lon="6.15405">
        <ele>1417.82</ele>
        <time>2020-08-26T10:30:54Z</time>
      </trkpt>
      <trkpt lat="44.31263" lon="6.15399">
        <ele>1417.52</ele>
        <time>2020-08-26T10:30:55Z</time>
      </trkpt>
      <trkpt lat="44.31262" lon="6.15389">
        <ele>1416.8</ele>
        <time>2020-08-26T10:30:57Z</time>
      </trkpt>
      <trkpt lat="44.31263" lon="6.15385">
        <ele>1416.38</ele>
        <time>2020-08-26T10:30:58Z</time>
      </trkpt>
      <trkpt lat="44.31265" lon="6.15382">
        <ele>1415.79</ele>
        <time>2020-08-26T10:30:59Z</time>
      </trkpt>
      <trkpt lat="44.31268" lon="6.1538">
        <ele>1415.11</ele>
        <time>2020-08-26T10:31:00Z</time>
      </trkpt>
      <trkpt lat="44.31271" lon="6.1538">
        <ele>1414.47</ele>
        <time>2020-08-26T10:31:01Z</time>
      </trkpt>
      <trkpt lat="44.31274" lon="6.15382">
        <ele>1414.04</ele>
        <time>2020-08-26T10:31:02Z</time>
      </trkpt>
      <trkpt lat="44.31276" lon="6.15386">
        <ele>1413.77</ele>
        <time>2020-08-26T10:31:03Z</time>
      </trkpt>
      <trkpt lat="44.31278" lon="6.15391">
        <ele>1413.62</ele>
        <time>2020-08-26T10:31:04Z</time>
      </trkpt>
      <trkpt lat="44.3128" lon="6.15398">
        <ele>1413.53</ele>
        <time>2020-08-26T10:31:05Z</time>
      </trkpt>
      <trkpt lat="44.31282" lon="6.15405">
        <ele>1413.47</ele>
        <time>2020-08-26T10:31:06Z</time>
      </trkpt>
      <trkpt lat="44.31295" lon="6.15443">
        <ele>1411.85</ele>
        <time>2020-08-26T10:31:11Z</time>
      </trkpt>
      <trkpt lat="44.31298" lon="6.15449">
        <ele>1411.35</ele>
        <time>2020-08-26T10:31:12Z</time>
      </trkpt>
      <trkpt lat="44.31301" lon="6.15453">
        <ele>1410.81</ele>
        <time>2020-08-26T10:31:13Z</time>
      </trkpt>
      <trkpt lat="44.31305" lon="6.15457">
        <ele>1410.4</ele>
        <time>2020-08-26T10:31:14Z</time>
      </trkpt>
      <trkpt lat="44.31309" lon="6.15459">
        <ele>1409.97</ele>
        <time>2020-08-26T10:31:15Z</time>
      </trkpt>
      <trkpt lat="44.31312" lon="6.1546">
        <ele>1409.47</ele>
        <time>2020-08-26T10:31:16Z</time>
      </trkpt>
      <trkpt lat="44.31316" lon="6.15459">
        <ele>1409.02</ele>
        <time>2020-08-26T10:31:17Z</time>
      </trkpt>
      <trkpt lat="44.31318" lon="6.15455">
        <ele>1408.61</ele>
        <time>2020-08-26T10:31:18Z</time>
      </trkpt>
      <trkpt lat="44.31319" lon="6.1545">
        <ele>1408.31</ele>
        <time>2020-08-26T10:31:19Z</time>
      </trkpt>
      <trkpt lat="44.31319" lon="6.15443">
        <ele>1407.99</ele>
        <time>2020-08-26T10:31:20Z</time>
      </trkpt>
      <trkpt lat="44.31318" lon="6.15436">
        <ele>1407.77</ele>
        <time>2020-08-26T10:31:21Z</time>
      </trkpt>
      <trkpt lat="44.31316" lon="6.15428">
        <ele>1407.56</ele>
        <time>2020-08-26T10:31:22Z</time>
      </trkpt>
      <trkpt lat="44.31314" lon="6.1542">
        <ele>1407.44</ele>
        <time>2020-08-26T10:31:23Z</time>
      </trkpt>
      <trkpt lat="44.31306" lon="6.15393">
        <ele>1406.12</ele>
        <time>2020-08-26T10:31:27Z</time>
      </trkpt>
      <trkpt lat="44.31306" lon="6.15387">
        <ele>1405.54</ele>
        <time>2020-08-26T10:31:28Z</time>
      </trkpt>
      <trkpt lat="44.31306" lon="6.15381">
        <ele>1404.9</ele>
        <time>2020-08-26T10:31:29Z</time>
      </trkpt>
      <trkpt lat="44.31308" lon="6.15376">
        <ele>1404.39</ele>
        <time>2020-08-26T10:31:30Z</time>
      </trkpt>
      <trkpt lat="44.3131" lon="6.15371">
        <ele>1403.84</ele>
        <time>2020-08-26T10:31:31Z</time>
      </trkpt>
      <trkpt lat="44.31313" lon="6.15368">
        <ele>1403.24</ele>
        <time>2020-08-26T10:31:32Z</time>
      </trkpt>
      <trkpt lat="44.31317" lon="6.15367">
        <ele>1402.02</ele>
        <time>2020-08-26T10:31:33Z</time>
      </trkpt>
      <trkpt lat="44.31322" lon="6.15367">
        <ele>1402.02</ele>
        <time>2020-08-26T10:31:34Z</time>
      </trkpt>
      <trkpt lat="44.31328" lon="6.15367">
        <ele>1401.41</ele>
        <time>2020-08-26T10:31:35Z</time>
      </trkpt>
      <trkpt lat="44.31333" lon="6.15368">
        <ele>1401.1</ele>
        <time>2020-08-26T10:31:36Z</time>
      </trkpt>
      <trkpt lat="44.31338" lon="6.15369">
        <ele>1400.92</ele>
        <time>2020-08-26T10:31:37Z</time>
      </trkpt>
      <trkpt lat="44.31342" lon="6.15368">
        <ele>1400.66</ele>
        <time>2020-08-26T10:31:38Z</time>
      </trkpt>
      <trkpt lat="44.31346" lon="6.15366">
        <ele>1400.4</ele>
        <time>2020-08-26T10:31:39Z</time>
      </trkpt>
      <trkpt lat="44.3135" lon="6.15363">
        <ele>1400.12</ele>
        <time>2020-08-26T10:31:40Z</time>
      </trkpt>
      <trkpt lat="44.31354" lon="6.15359">
        <ele>1399.82</ele>
        <time>2020-08-26T10:31:41Z</time>
      </trkpt>
      <trkpt lat="44.31358" lon="6.15354">
        <ele>1399.4</ele>
        <time>2020-08-26T10:31:42Z</time>
      </trkpt>
      <trkpt lat="44.31362" lon="6.15348">
        <ele>1398.73</ele>
        <time>2020-08-26T10:31:43Z</time>
      </trkpt>
      <trkpt lat="44.31373" lon="6.15336">
        <ele>1397.28</ele>
        <time>2020-08-26T10:31:45Z</time>
      </trkpt>
      <trkpt lat="44.31406" lon="6.15306">
        <ele>1394.57</ele>
        <time>2020-08-26T10:31:50Z</time>
      </trkpt>
      <trkpt lat="44.31412" lon="6.15302">
        <ele>1393.92</ele>
        <time>2020-08-26T10:31:51Z</time>
      </trkpt>
      <trkpt lat="44.31424" lon="6.15295">
        <ele>1392.11</ele>
        <time>2020-08-26T10:31:53Z</time>
      </trkpt>
      <trkpt lat="44.31434" lon="6.15289">
        <ele>1389.8</ele>
        <time>2020-08-26T10:31:55Z</time>
      </trkpt>
      <trkpt lat="44.3144" lon="6.15287">
        <ele>1388.9</ele>
        <time>2020-08-26T10:31:56Z</time>
      </trkpt>
      <trkpt lat="44.31446" lon="6.15286">
        <ele>1387.96</ele>
        <time>2020-08-26T10:31:57Z</time>
      </trkpt>
      <trkpt lat="44.31452" lon="6.15287">
        <ele>1387.96</ele>
        <time>2020-08-26T10:31:58Z</time>
      </trkpt>
      <trkpt lat="44.31471" lon="6.15285">
        <ele>1385.92</ele>
        <time>2020-08-26T10:32:01Z</time>
      </trkpt>
      <trkpt lat="44.31482" lon="6.15281">
        <ele>1385.01</ele>
        <time>2020-08-26T10:32:03Z</time>
      </trkpt>
      <trkpt lat="44.31488" lon="6.15278">
        <ele>1384.53</ele>
        <time>2020-08-26T10:32:04Z</time>
      </trkpt>
      <trkpt lat="44.31493" lon="6.15273">
        <ele>1383.97</ele>
        <time>2020-08-26T10:32:05Z</time>
      </trkpt>
      <trkpt lat="44.31499" lon="6.15266">
        <ele>1383.19</ele>
        <time>2020-08-26T10:32:06Z</time>
      </trkpt>
      <trkpt lat="44.31504" lon="6.15259">
        <ele>1382.41</ele>
        <time>2020-08-26T10:32:07Z</time>
      </trkpt>
      <trkpt lat="44.31534" lon="6.15222">
        <ele>1378.8</ele>
        <time>2020-08-26T10:32:12Z</time>
      </trkpt>
      <trkpt lat="44.31539" lon="6.15214">
        <ele>1378.22</ele>
        <time>2020-08-26T10:32:13Z</time>
      </trkpt>
      <trkpt lat="44.31543" lon="6.15206">
        <ele>1377.51</ele>
        <time>2020-08-26T10:32:14Z</time>
      </trkpt>
      <trkpt lat="44.31562" lon="6.15171">
        <ele>1374.17</ele>
        <time>2020-08-26T10:32:18Z</time>
      </trkpt>
      <trkpt lat="44.31576" lon="6.15147">
        <ele>1370.61</ele>
        <time>2020-08-26T10:32:21Z</time>
      </trkpt>
      <trkpt lat="44.3158" lon="6.1514">
        <ele>1370.61</ele>
        <time>2020-08-26T10:32:22Z</time>
      </trkpt>
      <trkpt lat="44.31583" lon="6.15132">
        <ele>1368.89</ele>
        <time>2020-08-26T10:32:23Z</time>
      </trkpt>
      <trkpt lat="44.31584" lon="6.15124">
        <ele>1368.03</ele>
        <time>2020-08-26T10:32:24Z</time>
      </trkpt>
      <trkpt lat="44.31584" lon="6.15115">
        <ele>1367.28</ele>
        <time>2020-08-26T10:32:25Z</time>
      </trkpt>
      <trkpt lat="44.31584" lon="6.15106">
        <ele>1366.57</ele>
        <time>2020-08-26T10:32:26Z</time>
      </trkpt>
      <trkpt lat="44.31583" lon="6.15096">
        <ele>1365.9</ele>
        <time>2020-08-26T10:32:27Z</time>
      </trkpt>
      <trkpt lat="44.31582" lon="6.15086">
        <ele>1365.17</ele>
        <time>2020-08-26T10:32:28Z</time>
      </trkpt>
      <trkpt lat="44.31575" lon="6.15031">
        <ele>1361.87</ele>
        <time>2020-08-26T10:32:33Z</time>
      </trkpt>
      <trkpt lat="44.31572" lon="6.14983">
        <ele>1358.4</ele>
        <time>2020-08-26T10:32:38Z</time>
      </trkpt>
      <trkpt lat="44.31571" lon="6.14975">
        <ele>1357.73</ele>
        <time>2020-08-26T10:32:39Z</time>
      </trkpt>
      <trkpt lat="44.31571" lon="6.14967">
        <ele>1357.04</ele>
        <time>2020-08-26T10:32:40Z</time>
      </trkpt>
      <trkpt lat="44.31573" lon="6.14959">
        <ele>1356.37</ele>
        <time>2020-08-26T10:32:41Z</time>
      </trkpt>
      <trkpt lat="44.31575" lon="6.14951">
        <ele>1355.56</ele>
        <time>2020-08-26T10:32:42Z</time>
      </trkpt>
      <trkpt lat="44.31579" lon="6.14944">
        <ele>1354.78</ele>
        <time>2020-08-26T10:32:43Z</time>
      </trkpt>
      <trkpt lat="44.31584" lon="6.14938">
        <ele>1353.73</ele>
        <time>2020-08-26T10:32:44Z</time>
      </trkpt>
      <trkpt lat="44.31588" lon="6.14932">
        <ele>1352.26</ele>
        <time>2020-08-26T10:32:45Z</time>
      </trkpt>
      <trkpt lat="44.31593" lon="6.14928">
        <ele>1352.26</ele>
        <time>2020-08-26T10:32:46Z</time>
      </trkpt>
      <trkpt lat="44.31598" lon="6.14925">
        <ele>1351.22</ele>
        <time>2020-08-26T10:32:47Z</time>
      </trkpt>
      <trkpt lat="44.31604" lon="6.14925">
        <ele>1350.9</ele>
        <time>2020-08-26T10:32:48Z</time>
      </trkpt>
      <trkpt lat="44.31609" lon="6.14926">
        <ele>1350.54</ele>
        <time>2020-08-26T10:32:49Z</time>
      </trkpt>
      <trkpt lat="44.31615" lon="6.14927">
        <ele>1349.88</ele>
        <time>2020-08-26T10:32:50Z</time>
      </trkpt>
      <trkpt lat="44.31621" lon="6.14928">
        <ele>1349.16</ele>
        <time>2020-08-26T10:32:51Z</time>
      </trkpt>
      <trkpt lat="44.31626" lon="6.14927">
        <ele>1348.36</ele>
        <time>2020-08-26T10:32:52Z</time>
      </trkpt>
      <trkpt lat="44.31632" lon="6.14924">
        <ele>1347.73</ele>
        <time>2020-08-26T10:32:53Z</time>
      </trkpt>
      <trkpt lat="44.31637" lon="6.1492">
        <ele>1347.15</ele>
        <time>2020-08-26T10:32:54Z</time>
      </trkpt>
      <trkpt lat="44.31641" lon="6.14916">
        <ele>1346.65</ele>
        <time>2020-08-26T10:32:55Z</time>
      </trkpt>
      <trkpt lat="44.31654" lon="6.14907">
        <ele>1345.07</ele>
        <time>2020-08-26T10:32:58Z</time>
      </trkpt>
      <trkpt lat="44.31659" lon="6.14905">
        <ele>1344.79</ele>
        <time>2020-08-26T10:32:59Z</time>
      </trkpt>
      <trkpt lat="44.31667" lon="6.149">
        <ele>1343.79</ele>
        <time>2020-08-26T10:33:01Z</time>
      </trkpt>
      <trkpt lat="44.3167" lon="6.14897">
        <ele>1343.24</ele>
        <time>2020-08-26T10:33:02Z</time>
      </trkpt>
      <trkpt lat="44.31673" lon="6.14893">
        <ele>1342.74</ele>
        <time>2020-08-26T10:33:03Z</time>
      </trkpt>
      <trkpt lat="44.31686" lon="6.14875">
        <ele>1339.81</ele>
        <time>2020-08-26T10:33:15Z</time>
      </trkpt>
      <trkpt lat="44.31693" lon="6.1487">
        <ele>1339.21</ele>
        <time>2020-08-26T10:33:23Z</time>
      </trkpt>
      <trkpt lat="44.31696" lon="6.14869">
        <ele>1339.18</ele>
        <time>2020-08-26T10:33:24Z</time>
      </trkpt>
      <trkpt lat="44.31708" lon="6.14863">
        <ele>1338.9</ele>
        <time>2020-08-26T10:33:27Z</time>
      </trkpt>
      <trkpt lat="44.31713" lon="6.14859">
        <ele>1338.83</ele>
        <time>2020-08-26T10:33:28Z</time>
      </trkpt>
      <trkpt lat="44.31762" lon="6.14806">
        <ele>1335.37</ele>
        <time>2020-08-26T10:33:37Z</time>
      </trkpt>
      <trkpt lat="44.31783" lon="6.14777">
        <ele>1331.76</ele>
        <time>2020-08-26T10:33:41Z</time>
      </trkpt>
      <trkpt lat="44.31801" lon="6.1474">
        <ele>1328</ele>
        <time>2020-08-26T10:33:46Z</time>
      </trkpt>
      <trkpt lat="44.31805" lon="6.14735">
        <ele>1327.27</ele>
        <time>2020-08-26T10:33:47Z</time>
      </trkpt>
      <trkpt lat="44.3181" lon="6.14731">
        <ele>1326.6</ele>
        <time>2020-08-26T10:33:48Z</time>
      </trkpt>
      <trkpt lat="44.31816" lon="6.14728">
        <ele>1325.94</ele>
        <time>2020-08-26T10:33:49Z</time>
      </trkpt>
      <trkpt lat="44.31822" lon="6.14726">
        <ele>1325.36</ele>
        <time>2020-08-26T10:33:50Z</time>
      </trkpt>
      <trkpt lat="44.31829" lon="6.14726">
        <ele>1324.84</ele>
        <time>2020-08-26T10:33:51Z</time>
      </trkpt>
      <trkpt lat="44.31836" lon="6.14726">
        <ele>1324.32</ele>
        <time>2020-08-26T10:33:52Z</time>
      </trkpt>
      <trkpt lat="44.31843" lon="6.14727">
        <ele>1323.99</ele>
        <time>2020-08-26T10:33:53Z</time>
      </trkpt>
      <trkpt lat="44.3185" lon="6.14729">
        <ele>1323.82</ele>
        <time>2020-08-26T10:33:54Z</time>
      </trkpt>
      <trkpt lat="44.31874" lon="6.14736">
        <ele>1321.99</ele>
        <time>2020-08-26T10:33:58Z</time>
      </trkpt>
      <trkpt lat="44.31879" lon="6.14735">
        <ele>1321.45</ele>
        <time>2020-08-26T10:33:59Z</time>
      </trkpt>
      <trkpt lat="44.31884" lon="6.14734">
        <ele>1320.71</ele>
        <time>2020-08-26T10:34:00Z</time>
      </trkpt>
      <trkpt lat="44.31888" lon="6.14729">
        <ele>1320.01</ele>
        <time>2020-08-26T10:34:01Z</time>
      </trkpt>
      <trkpt lat="44.31892" lon="6.14723">
        <ele>1318.81</ele>
        <time>2020-08-26T10:34:02Z</time>
      </trkpt>
      <trkpt lat="44.31895" lon="6.14715">
        <ele>1317.97</ele>
        <time>2020-08-26T10:34:03Z</time>
      </trkpt>
      <trkpt lat="44.31898" lon="6.14707">
        <ele>1317.05</ele>
        <time>2020-08-26T10:34:04Z</time>
      </trkpt>
      <trkpt lat="44.319" lon="6.14697">
        <ele>1316.45</ele>
        <time>2020-08-26T10:34:05Z</time>
      </trkpt>
      <trkpt lat="44.31901" lon="6.14687">
        <ele>1316.14</ele>
        <time>2020-08-26T10:34:06Z</time>
      </trkpt>
      <trkpt lat="44.31902" lon="6.14676">
        <ele>1315.87</ele>
        <time>2020-08-26T10:34:07Z</time>
      </trkpt>
      <trkpt lat="44.31903" lon="6.14665">
        <ele>1315.58</ele>
        <time>2020-08-26T10:34:08Z</time>
      </trkpt>
      <trkpt lat="44.31908" lon="6.14598">
        <ele>1312.05</ele>
        <time>2020-08-26T10:34:14Z</time>
      </trkpt>
      <trkpt lat="44.31911" lon="6.1457">
        <ele>1309.51</ele>
        <time>2020-08-26T10:34:17Z</time>
      </trkpt>
      <trkpt lat="44.31914" lon="6.14561">
        <ele>1308.68</ele>
        <time>2020-08-26T10:34:18Z</time>
      </trkpt>
      <trkpt lat="44.31917" lon="6.14553">
        <ele>1308.15</ele>
        <time>2020-08-26T10:34:19Z</time>
      </trkpt>
      <trkpt lat="44.31921" lon="6.14545">
        <ele>1307.78</ele>
        <time>2020-08-26T10:34:20Z</time>
      </trkpt>
      <trkpt lat="44.31925" lon="6.14536">
        <ele>1307.54</ele>
        <time>2020-08-26T10:34:21Z</time>
      </trkpt>
      <trkpt lat="44.31966" lon="6.14469">
        <ele>1304.06</ele>
        <time>2020-08-26T10:34:30Z</time>
      </trkpt>
      <trkpt lat="44.3197" lon="6.14464">
        <ele>1303.46</ele>
        <time>2020-08-26T10:34:31Z</time>
      </trkpt>
      <trkpt lat="44.31976" lon="6.14459">
        <ele>1302.93</ele>
        <time>2020-08-26T10:34:32Z</time>
      </trkpt>
      <trkpt lat="44.31992" lon="6.14445">
        <ele>1301.61</ele>
        <time>2020-08-26T10:34:35Z</time>
      </trkpt>
      <trkpt lat="44.31997" lon="6.14439">
        <ele>1301.34</ele>
        <time>2020-08-26T10:34:36Z</time>
      </trkpt>
      <trkpt lat="44.32028" lon="6.144">
        <ele>1298.28</ele>
        <time>2020-08-26T10:34:42Z</time>
      </trkpt>
      <trkpt lat="44.32047" lon="6.1438">
        <ele>1296.2</ele>
        <time>2020-08-26T10:34:46Z</time>
      </trkpt>
      <trkpt lat="44.3205" lon="6.14374">
        <ele>1295.93</ele>
        <time>2020-08-26T10:34:47Z</time>
      </trkpt>
      <trkpt lat="44.32052" lon="6.14368">
        <ele>1295.71</ele>
        <time>2020-08-26T10:34:48Z</time>
      </trkpt>
      <trkpt lat="44.32054" lon="6.14363">
        <ele>1295.56</ele>
        <time>2020-08-26T10:34:49Z</time>
      </trkpt>
      <trkpt lat="44.32055" lon="6.14358">
        <ele>1295.43</ele>
        <time>2020-08-26T10:34:50Z</time>
      </trkpt>
      <trkpt lat="44.32055" lon="6.14355">
        <ele>1294.96</ele>
        <time>2020-08-26T10:34:51Z</time>
      </trkpt>
      <trkpt lat="44.32055" lon="6.14352">
        <ele>1294.67</ele>
        <time>2020-08-26T10:34:52Z</time>
      </trkpt>
      <trkpt lat="44.32054" lon="6.1435">
        <ele>1294.3</ele>
        <time>2020-08-26T10:34:53Z</time>
      </trkpt>
      <trkpt lat="44.32052" lon="6.14349">
        <ele>1293.92</ele>
        <time>2020-08-26T10:34:54Z</time>
      </trkpt>
      <trkpt lat="44.3205" lon="6.14349">
        <ele>1293.52</ele>
        <time>2020-08-26T10:34:55Z</time>
      </trkpt>
      <trkpt lat="44.32047" lon="6.14351">
        <ele>1293.28</ele>
        <time>2020-08-26T10:34:56Z</time>
      </trkpt>
      <trkpt lat="44.32044" lon="6.14354">
        <ele>1293.14</ele>
        <time>2020-08-26T10:34:57Z</time>
      </trkpt>
      <trkpt lat="44.32041" lon="6.14358">
        <ele>1293.06</ele>
        <time>2020-08-26T10:34:58Z</time>
      </trkpt>
      <trkpt lat="44.32038" lon="6.14363">
        <ele>1293.01</ele>
        <time>2020-08-26T10:34:59Z</time>
      </trkpt>
      <trkpt lat="44.32035" lon="6.14369">
        <ele>1292.94</ele>
        <time>2020-08-26T10:35:00Z</time>
      </trkpt>
      <trkpt lat="44.32028" lon="6.1438">
        <ele>1292.75</ele>
        <time>2020-08-26T10:35:02Z</time>
      </trkpt>
      <trkpt lat="44.32023" lon="6.14385">
        <ele>1292.69</ele>
        <time>2020-08-26T10:35:03Z</time>
      </trkpt>
      <trkpt lat="44.31963" lon="6.14439">
        <ele>1289.52</ele>
        <time>2020-08-26T10:35:13Z</time>
      </trkpt>
      <trkpt lat="44.31937" lon="6.1446">
        <ele>1287.69</ele>
        <time>2020-08-26T10:35:17Z</time>
      </trkpt>
      <trkpt lat="44.31908" lon="6.14482">
        <ele>1285.48</ele>
        <time>2020-08-26T10:35:22Z</time>
      </trkpt>
      <trkpt lat="44.31897" lon="6.14494">
        <ele>1284.75</ele>
        <time>2020-08-26T10:35:24Z</time>
      </trkpt>
      <trkpt lat="44.31865" lon="6.14539">
        <ele>1281.72</ele>
        <time>2020-08-26T10:35:30Z</time>
      </trkpt>
      <trkpt lat="44.31849" lon="6.1456">
        <ele>1280.08</ele>
        <time>2020-08-26T10:35:33Z</time>
      </trkpt>
      <trkpt lat="44.31819" lon="6.14584">
        <ele>1276.78</ele>
        <time>2020-08-26T10:35:38Z</time>
      </trkpt>
      <trkpt lat="44.31813" lon="6.14589">
        <ele>1275.38</ele>
        <time>2020-08-26T10:35:39Z</time>
      </trkpt>
      <trkpt lat="44.31808" lon="6.14596">
        <ele>1274.72</ele>
        <time>2020-08-26T10:35:40Z</time>
      </trkpt>
      <trkpt lat="44.31804" lon="6.14603">
        <ele>1274.21</ele>
        <time>2020-08-26T10:35:41Z</time>
      </trkpt>
      <trkpt lat="44.31794" lon="6.14619">
        <ele>1271.96</ele>
        <time>2020-08-26T10:35:44Z</time>
      </trkpt>
      <trkpt lat="44.3179" lon="6.14621">
        <ele>1271.16</ele>
        <time>2020-08-26T10:35:45Z</time>
      </trkpt>
      <trkpt lat="44.31787" lon="6.14622">
        <ele>1270.51</ele>
        <time>2020-08-26T10:35:46Z</time>
      </trkpt>
      <trkpt lat="44.31784" lon="6.1462">
        <ele>1270.16</ele>
        <time>2020-08-26T10:35:47Z</time>
      </trkpt>
      <trkpt lat="44.31782" lon="6.14616">
        <ele>1269.77</ele>
        <time>2020-08-26T10:35:48Z</time>
      </trkpt>
      <trkpt lat="44.31782" lon="6.14611">
        <ele>1269.25</ele>
        <time>2020-08-26T10:35:49Z</time>
      </trkpt>
      <trkpt lat="44.31783" lon="6.14606">
        <ele>1268.7</ele>
        <time>2020-08-26T10:35:50Z</time>
      </trkpt>
      <trkpt lat="44.31785" lon="6.14601">
        <ele>1268.23</ele>
        <time>2020-08-26T10:35:51Z</time>
      </trkpt>
      <trkpt lat="44.31789" lon="6.14596">
        <ele>1267.96</ele>
        <time>2020-08-26T10:35:52Z</time>
      </trkpt>
      <trkpt lat="44.31793" lon="6.1459">
        <ele>1267.73</ele>
        <time>2020-08-26T10:35:53Z</time>
      </trkpt>
      <trkpt lat="44.3184" lon="6.14522">
        <ele>1264.31</ele>
        <time>2020-08-26T10:36:01Z</time>
      </trkpt>
      <trkpt lat="44.31856" lon="6.14493">
        <ele>1260.75</ele>
        <time>2020-08-26T10:36:04Z</time>
      </trkpt>
      <trkpt lat="44.31878" lon="6.14451">
        <ele>1256.93</ele>
        <time>2020-08-26T10:36:08Z</time>
      </trkpt>
      <trkpt lat="44.31898" lon="6.1441">
        <ele>1253.16</ele>
        <time>2020-08-26T10:36:12Z</time>
      </trkpt>
      <trkpt lat="44.31916" lon="6.1438">
        <ele>1249.91</ele>
        <time>2020-08-26T10:36:15Z</time>
      </trkpt>
      <trkpt lat="44.31922" lon="6.14368">
        <ele>1248.67</ele>
        <time>2020-08-26T10:36:16Z</time>
      </trkpt>
      <trkpt lat="44.31943" lon="6.1432">
        <ele>1245.42</ele>
        <time>2020-08-26T10:36:20Z</time>
      </trkpt>
      <trkpt lat="44.31964" lon="6.14281">
        <ele>1241.43</ele>
        <time>2020-08-26T10:36:24Z</time>
      </trkpt>
      <trkpt lat="44.31979" lon="6.14255">
        <ele>1236.29</ele>
        <time>2020-08-26T10:36:27Z</time>
      </trkpt>
      <trkpt lat="44.31983" lon="6.14246">
        <ele>1236.29</ele>
        <time>2020-08-26T10:36:28Z</time>
      </trkpt>
      <trkpt lat="44.31986" lon="6.14236">
        <ele>1234.73</ele>
        <time>2020-08-26T10:36:29Z</time>
      </trkpt>
      <trkpt lat="44.31989" lon="6.14227">
        <ele>1233.76</ele>
        <time>2020-08-26T10:36:30Z</time>
      </trkpt>
      <trkpt lat="44.31991" lon="6.14216">
        <ele>1233.19</ele>
        <time>2020-08-26T10:36:31Z</time>
      </trkpt>
      <trkpt lat="44.31991" lon="6.14207">
        <ele>1232.54</ele>
        <time>2020-08-26T10:36:32Z</time>
      </trkpt>
      <trkpt lat="44.31992" lon="6.14199">
        <ele>1231.56</ele>
        <time>2020-08-26T10:36:33Z</time>
      </trkpt>
      <trkpt lat="44.31994" lon="6.14192">
        <ele>1230.74</ele>
        <time>2020-08-26T10:36:34Z</time>
      </trkpt>
      <trkpt lat="44.31997" lon="6.14187">
        <ele>1230.11</ele>
        <time>2020-08-26T10:36:35Z</time>
      </trkpt>
      <trkpt lat="44.32002" lon="6.14181">
        <ele>1229.62</ele>
        <time>2020-08-26T10:36:36Z</time>
      </trkpt>
      <trkpt lat="44.32008" lon="6.14176">
        <ele>1228.91</ele>
        <time>2020-08-26T10:36:37Z</time>
      </trkpt>
      <trkpt lat="44.32026" lon="6.14156">
        <ele>1226.55</ele>
        <time>2020-08-26T10:36:40Z</time>
      </trkpt>
      <trkpt lat="44.32033" lon="6.1415">
        <ele>1225.82</ele>
        <time>2020-08-26T10:36:41Z</time>
      </trkpt>
      <trkpt lat="44.32041" lon="6.14145">
        <ele>1225.17</ele>
        <time>2020-08-26T10:36:42Z</time>
      </trkpt>
      <trkpt lat="44.32047" lon="6.14139">
        <ele>1224.7</ele>
        <time>2020-08-26T10:36:43Z</time>
      </trkpt>
      <trkpt lat="44.32053" lon="6.14132">
        <ele>1224.21</ele>
        <time>2020-08-26T10:36:44Z</time>
      </trkpt>
      <trkpt lat="44.32059" lon="6.14124">
        <ele>1223.67</ele>
        <time>2020-08-26T10:36:45Z</time>
      </trkpt>
      <trkpt lat="44.32063" lon="6.14115">
        <ele>1223.04</ele>
        <time>2020-08-26T10:36:46Z</time>
      </trkpt>
      <trkpt lat="44.32066" lon="6.14104">
        <ele>1222.37</ele>
        <time>2020-08-26T10:36:47Z</time>
      </trkpt>
      <trkpt lat="44.32069" lon="6.14094">
        <ele>1221.56</ele>
        <time>2020-08-26T10:36:48Z</time>
      </trkpt>
      <trkpt lat="44.32071" lon="6.14082">
        <ele>1220.65</ele>
        <time>2020-08-26T10:36:49Z</time>
      </trkpt>
      <trkpt lat="44.32073" lon="6.1407">
        <ele>1219.77</ele>
        <time>2020-08-26T10:36:50Z</time>
      </trkpt>
      <trkpt lat="44.32077" lon="6.14047">
        <ele>1217.86</ele>
        <time>2020-08-26T10:36:52Z</time>
      </trkpt>
      <trkpt lat="44.32079" lon="6.14036">
        <ele>1216.52</ele>
        <time>2020-08-26T10:36:53Z</time>
      </trkpt>
      <trkpt lat="44.32081" lon="6.14026">
        <ele>1216.13</ele>
        <time>2020-08-26T10:36:54Z</time>
      </trkpt>
      <trkpt lat="44.32089" lon="6.13986">
        <ele>1212.05</ele>
        <time>2020-08-26T10:36:58Z</time>
      </trkpt>
      <trkpt lat="44.32102" lon="6.13948">
        <ele>1208.27</ele>
        <time>2020-08-26T10:37:02Z</time>
      </trkpt>
      <trkpt lat="44.32106" lon="6.1394">
        <ele>1207.55</ele>
        <time>2020-08-26T10:37:03Z</time>
      </trkpt>
      <trkpt lat="44.32111" lon="6.13932">
        <ele>1206.87</ele>
        <time>2020-08-26T10:37:04Z</time>
      </trkpt>
      <trkpt lat="44.32117" lon="6.13924">
        <ele>1206.15</ele>
        <time>2020-08-26T10:37:05Z</time>
      </trkpt>
      <trkpt lat="44.3214" lon="6.13893">
        <ele>1202.85</ele>
        <time>2020-08-26T10:37:09Z</time>
      </trkpt>
      <trkpt lat="44.32159" lon="6.1387">
        <ele>1199.67</ele>
        <time>2020-08-26T10:37:13Z</time>
      </trkpt>
      <trkpt lat="44.3217" lon="6.1386">
        <ele>1197.59</ele>
        <time>2020-08-26T10:37:15Z</time>
      </trkpt>
      <trkpt lat="44.32176" lon="6.13856">
        <ele>1196.55</ele>
        <time>2020-08-26T10:37:16Z</time>
      </trkpt>
      <trkpt lat="44.32205" lon="6.13842">
        <ele>1193.01</ele>
        <time>2020-08-26T10:37:21Z</time>
      </trkpt>
      <trkpt lat="44.32227" lon="6.13837">
        <ele>1190.26</ele>
        <time>2020-08-26T10:37:25Z</time>
      </trkpt>
      <trkpt lat="44.32233" lon="6.13836">
        <ele>1189.49</ele>
        <time>2020-08-26T10:37:26Z</time>
      </trkpt>
      <trkpt lat="44.32252" lon="6.13837">
        <ele>1187.35</ele>
        <time>2020-08-26T10:37:29Z</time>
      </trkpt>
      <trkpt lat="44.32257" lon="6.13836">
        <ele>1186.56</ele>
        <time>2020-08-26T10:37:30Z</time>
      </trkpt>
      <trkpt lat="44.32279" lon="6.1383">
        <ele>1184.01</ele>
        <time>2020-08-26T10:37:34Z</time>
      </trkpt>
      <trkpt lat="44.323" lon="6.13831">
        <ele>1180.43</ele>
        <time>2020-08-26T10:37:39Z</time>
      </trkpt>
      <trkpt lat="44.32306" lon="6.13835">
        <ele>1179.08</ele>
        <time>2020-08-26T10:37:41Z</time>
      </trkpt>
      <trkpt lat="44.32309" lon="6.13838">
        <ele>1178.52</ele>
        <time>2020-08-26T10:37:42Z</time>
      </trkpt>
      <trkpt lat="44.32312" lon="6.13843">
        <ele>1177.71</ele>
        <time>2020-08-26T10:37:43Z</time>
      </trkpt>
      <trkpt lat="44.32327" lon="6.13868">
        <ele>1177.03</ele>
        <time>2020-08-26T10:37:47Z</time>
      </trkpt>
      <trkpt lat="44.32332" lon="6.13873">
        <ele>1177</ele>
        <time>2020-08-26T10:37:48Z</time>
      </trkpt>
      <trkpt lat="44.32338" lon="6.13876">
        <ele>1176.85</ele>
        <time>2020-08-26T10:37:49Z</time>
      </trkpt>
      <trkpt lat="44.32346" lon="6.13879">
        <ele>1176.76</ele>
        <time>2020-08-26T10:37:50Z</time>
      </trkpt>
      <trkpt lat="44.32353" lon="6.1388">
        <ele>1176.66</ele>
        <time>2020-08-26T10:37:51Z</time>
      </trkpt>
      <trkpt lat="44.32361" lon="6.13881">
        <ele>1176.18</ele>
        <time>2020-08-26T10:37:52Z</time>
      </trkpt>
      <trkpt lat="44.32407" lon="6.13895">
        <ele>1172.67</ele>
        <time>2020-08-26T10:37:59Z</time>
      </trkpt>
      <trkpt lat="44.32424" lon="6.13901">
        <ele>1171.35</ele>
        <time>2020-08-26T10:38:02Z</time>
      </trkpt>
      <trkpt lat="44.3244" lon="6.13907">
        <ele>1169.86</ele>
        <time>2020-08-26T10:38:05Z</time>
      </trkpt>
      <trkpt lat="44.32445" lon="6.13907">
        <ele>1169.35</ele>
        <time>2020-08-26T10:38:06Z</time>
      </trkpt>
      <trkpt lat="44.3245" lon="6.13906">
        <ele>1168.44</ele>
        <time>2020-08-26T10:38:07Z</time>
      </trkpt>
      <trkpt lat="44.32455" lon="6.13904">
        <ele>1168.06</ele>
        <time>2020-08-26T10:38:08Z</time>
      </trkpt>
      <trkpt lat="44.3246" lon="6.139">
        <ele>1167.74</ele>
        <time>2020-08-26T10:38:09Z</time>
      </trkpt>
      <trkpt lat="44.32463" lon="6.13897">
        <ele>1167.42</ele>
        <time>2020-08-26T10:38:10Z</time>
      </trkpt>
      <trkpt lat="44.32466" lon="6.13893">
        <ele>1167.16</ele>
        <time>2020-08-26T10:38:11Z</time>
      </trkpt>
      <trkpt lat="44.32477" lon="6.13887">
        <ele>1166.22</ele>
        <time>2020-08-26T10:38:14Z</time>
      </trkpt>
      <trkpt lat="44.32481" lon="6.13887">
        <ele>1165.85</ele>
        <time>2020-08-26T10:38:15Z</time>
      </trkpt>
      <trkpt lat="44.32486" lon="6.13888">
        <ele>1165.38</ele>
        <time>2020-08-26T10:38:16Z</time>
      </trkpt>
      <trkpt lat="44.3249" lon="6.1389">
        <ele>1164.99</ele>
        <time>2020-08-26T10:38:17Z</time>
      </trkpt>
      <trkpt lat="44.32495" lon="6.13893">
        <ele>1164.72</ele>
        <time>2020-08-26T10:38:18Z</time>
      </trkpt>
      <trkpt lat="44.32499" lon="6.13898">
        <ele>1164.47</ele>
        <time>2020-08-26T10:38:19Z</time>
      </trkpt>
      <trkpt lat="44.32503" lon="6.13903">
        <ele>1164.27</ele>
        <time>2020-08-26T10:38:20Z</time>
      </trkpt>
      <trkpt lat="44.32512" lon="6.13915">
        <ele>1163.63</ele>
        <time>2020-08-26T10:38:22Z</time>
      </trkpt>
      <trkpt lat="44.32515" lon="6.13921">
        <ele>1163.09</ele>
        <time>2020-08-26T10:38:23Z</time>
      </trkpt>
      <trkpt lat="44.32519" lon="6.13927">
        <ele>1162.5</ele>
        <time>2020-08-26T10:38:24Z</time>
      </trkpt>
      <trkpt lat="44.32523" lon="6.13932">
        <ele>1161.81</ele>
        <time>2020-08-26T10:38:25Z</time>
      </trkpt>
      <trkpt lat="44.32527" lon="6.13936">
        <ele>1161.32</ele>
        <time>2020-08-26T10:38:26Z</time>
      </trkpt>
      <trkpt lat="44.32532" lon="6.13938">
        <ele>1161.02</ele>
        <time>2020-08-26T10:38:27Z</time>
      </trkpt>
      <trkpt lat="44.32536" lon="6.13938">
        <ele>1160.81</ele>
        <time>2020-08-26T10:38:28Z</time>
      </trkpt>
      <trkpt lat="44.32541" lon="6.13936">
        <ele>1160.59</ele>
        <time>2020-08-26T10:38:29Z</time>
      </trkpt>
      <trkpt lat="44.32545" lon="6.13933">
        <ele>1160.11</ele>
        <time>2020-08-26T10:38:30Z</time>
      </trkpt>
      <trkpt lat="44.3255" lon="6.1393">
        <ele>1159.41</ele>
        <time>2020-08-26T10:38:31Z</time>
      </trkpt>
      <trkpt lat="44.32559" lon="6.13924">
        <ele>1157.68</ele>
        <time>2020-08-26T10:38:33Z</time>
      </trkpt>
      <trkpt lat="44.32564" lon="6.13921">
        <ele>1157.25</ele>
        <time>2020-08-26T10:38:34Z</time>
      </trkpt>
      <trkpt lat="44.3257" lon="6.13921">
        <ele>1156.8</ele>
        <time>2020-08-26T10:38:35Z</time>
      </trkpt>
      <trkpt lat="44.32575" lon="6.13922">
        <ele>1156.4</ele>
        <time>2020-08-26T10:38:36Z</time>
      </trkpt>
      <trkpt lat="44.32581" lon="6.13926">
        <ele>1156.1</ele>
        <time>2020-08-26T10:38:37Z</time>
      </trkpt>
      <trkpt lat="44.32587" lon="6.13929">
        <ele>1155.9</ele>
        <time>2020-08-26T10:38:38Z</time>
      </trkpt>
      <trkpt lat="44.32635" lon="6.13965">
        <ele>1152.66</ele>
        <time>2020-08-26T10:38:45Z</time>
      </trkpt>
      <trkpt lat="44.32668" lon="6.13988">
        <ele>1149.22</ele>
        <time>2020-08-26T10:38:51Z</time>
      </trkpt>
      <trkpt lat="44.32672" lon="6.13989">
        <ele>1148.46</ele>
        <time>2020-08-26T10:38:52Z</time>
      </trkpt>
      <trkpt lat="44.32677" lon="6.13988">
        <ele>1147.62</ele>
        <time>2020-08-26T10:38:53Z</time>
      </trkpt>
      <trkpt lat="44.32681" lon="6.13985">
        <ele>1146.93</ele>
        <time>2020-08-26T10:38:54Z</time>
      </trkpt>
      <trkpt lat="44.32686" lon="6.1398">
        <ele>1146.26</ele>
        <time>2020-08-26T10:38:55Z</time>
      </trkpt>
      <trkpt lat="44.32689" lon="6.13973">
        <ele>1145.47</ele>
        <time>2020-08-26T10:38:56Z</time>
      </trkpt>
      <trkpt lat="44.32691" lon="6.13965">
        <ele>1145.21</ele>
        <time>2020-08-26T10:38:57Z</time>
      </trkpt>
      <trkpt lat="44.32694" lon="6.13957">
        <ele>1144.95</ele>
        <time>2020-08-26T10:38:58Z</time>
      </trkpt>
      <trkpt lat="44.32698" lon="6.1394">
        <ele>1144.53</ele>
        <time>2020-08-26T10:39:00Z</time>
      </trkpt>
      <trkpt lat="44.32699" lon="6.13931">
        <ele>1144.15</ele>
        <time>2020-08-26T10:39:01Z</time>
      </trkpt>
      <trkpt lat="44.32699" lon="6.13923">
        <ele>1143.55</ele>
        <time>2020-08-26T10:39:02Z</time>
      </trkpt>
      <trkpt lat="44.32698" lon="6.13913">
        <ele>1142.97</ele>
        <time>2020-08-26T10:39:03Z</time>
      </trkpt>
      <trkpt lat="44.32696" lon="6.13905">
        <ele>1142.56</ele>
        <time>2020-08-26T10:39:04Z</time>
      </trkpt>
      <trkpt lat="44.32693" lon="6.13897">
        <ele>1141.91</ele>
        <time>2020-08-26T10:39:05Z</time>
      </trkpt>
      <trkpt lat="44.3269" lon="6.1389">
        <ele>1141.28</ele>
        <time>2020-08-26T10:39:06Z</time>
      </trkpt>
      <trkpt lat="44.32688" lon="6.13883">
        <ele>1140.51</ele>
        <time>2020-08-26T10:39:07Z</time>
      </trkpt>
      <trkpt lat="44.32686" lon="6.13876">
        <ele>1139.83</ele>
        <time>2020-08-26T10:39:08Z</time>
      </trkpt>
      <trkpt lat="44.32685" lon="6.13867">
        <ele>1139.13</ele>
        <time>2020-08-26T10:39:09Z</time>
      </trkpt>
      <trkpt lat="44.32686" lon="6.13858">
        <ele>1138.67</ele>
        <time>2020-08-26T10:39:10Z</time>
      </trkpt>
      <trkpt lat="44.32687" lon="6.13848">
        <ele>1137.95</ele>
        <time>2020-08-26T10:39:11Z</time>
      </trkpt>
      <trkpt lat="44.32689" lon="6.13838">
        <ele>1137.22</ele>
        <time>2020-08-26T10:39:12Z</time>
      </trkpt>
      <trkpt lat="44.32692" lon="6.13809">
        <ele>1135.97</ele>
        <time>2020-08-26T10:39:15Z</time>
      </trkpt>
      <trkpt lat="44.32692" lon="6.138">
        <ele>1135.8</ele>
        <time>2020-08-26T10:39:16Z</time>
      </trkpt>
      <trkpt lat="44.3269" lon="6.13776">
        <ele>1134.08</ele>
        <time>2020-08-26T10:39:19Z</time>
      </trkpt>
      <trkpt lat="44.3269" lon="6.13769">
        <ele>1133.21</ele>
        <time>2020-08-26T10:39:20Z</time>
      </trkpt>
      <trkpt lat="44.32691" lon="6.13762">
        <ele>1131.89</ele>
        <time>2020-08-26T10:39:21Z</time>
      </trkpt>
      <trkpt lat="44.32694" lon="6.13756">
        <ele>1131.17</ele>
        <time>2020-08-26T10:39:22Z</time>
      </trkpt>
      <trkpt lat="44.32697" lon="6.1375">
        <ele>1130.73</ele>
        <time>2020-08-26T10:39:23Z</time>
      </trkpt>
      <trkpt lat="44.32702" lon="6.13744">
        <ele>1130.39</ele>
        <time>2020-08-26T10:39:24Z</time>
      </trkpt>
      <trkpt lat="44.32707" lon="6.13739">
        <ele>1129.89</ele>
        <time>2020-08-26T10:39:25Z</time>
      </trkpt>
      <trkpt lat="44.32757" lon="6.13708">
        <ele>1126.35</ele>
        <time>2020-08-26T10:39:32Z</time>
      </trkpt>
      <trkpt lat="44.32772" lon="6.137">
        <ele>1124.73</ele>
        <time>2020-08-26T10:39:34Z</time>
      </trkpt>
      <trkpt lat="44.32786" lon="6.13689">
        <ele>1122.64</ele>
        <time>2020-08-26T10:39:36Z</time>
      </trkpt>
      <trkpt lat="44.32793" lon="6.13682">
        <ele>1121.52</ele>
        <time>2020-08-26T10:39:37Z</time>
      </trkpt>
      <trkpt lat="44.328" lon="6.13675">
        <ele>1120.39</ele>
        <time>2020-08-26T10:39:38Z</time>
      </trkpt>
      <trkpt lat="44.32805" lon="6.13668">
        <ele>1119.72</ele>
        <time>2020-08-26T10:39:39Z</time>
      </trkpt>
      <trkpt lat="44.3281" lon="6.13659">
        <ele>1119.13</ele>
        <time>2020-08-26T10:39:40Z</time>
      </trkpt>
      <trkpt lat="44.32834" lon="6.13616">
        <ele>1115.02</ele>
        <time>2020-08-26T10:39:45Z</time>
      </trkpt>
      <trkpt lat="44.32858" lon="6.13572">
        <ele>1111.11</ele>
        <time>2020-08-26T10:39:50Z</time>
      </trkpt>
      <trkpt lat="44.32879" lon="6.13541">
        <ele>1107.8</ele>
        <time>2020-08-26T10:39:54Z</time>
      </trkpt>
      <trkpt lat="44.32898" lon="6.13517">
        <ele>1104.17</ele>
        <time>2020-08-26T10:39:58Z</time>
      </trkpt>
      <trkpt lat="44.32916" lon="6.13496">
        <ele>1100.95</ele>
        <time>2020-08-26T10:40:02Z</time>
      </trkpt>
      <trkpt lat="44.32938" lon="6.13488">
        <ele>1098.17</ele>
        <time>2020-08-26T10:40:09Z</time>
      </trkpt>
      <trkpt lat="44.3294" lon="6.13491">
        <ele>1098.13</ele>
        <time>2020-08-26T10:40:10Z</time>
      </trkpt>
      <trkpt lat="44.3294" lon="6.13495">
        <ele>1098.11</ele>
        <time>2020-08-26T10:40:11Z</time>
      </trkpt>
      <trkpt lat="44.32941" lon="6.13499">
        <ele>1098.11</ele>
        <time>2020-08-26T10:40:12Z</time>
      </trkpt>
      <trkpt lat="44.3294" lon="6.13503">
        <ele>1098.1</ele>
        <time>2020-08-26T10:40:13Z</time>
      </trkpt>
      <trkpt lat="44.3294" lon="6.13507">
        <ele>1098.1</ele>
        <time>2020-08-26T10:40:14Z</time>
      </trkpt>
      <trkpt lat="44.32939" lon="6.1351">
        <ele>1098.1</ele>
        <time>2020-08-26T10:40:15Z</time>
      </trkpt>
      <trkpt lat="44.32938" lon="6.13513">
        <ele>1098.1</ele>
        <time>2020-08-26T10:40:16Z</time>
      </trkpt>
      <trkpt lat="44.32934" lon="6.1353">
        <ele>1098.8</ele>
        <time>2020-08-26T10:40:26Z</time>
      </trkpt>
      <trkpt lat="44.32936" lon="6.13541">
        <ele>1098.72</ele>
        <time>2020-08-26T10:41:14Z</time>
      </trkpt>
      <trkpt lat="44.32951" lon="6.13633">
        <ele>1098.2</ele>
        <time>2020-08-26T10:41:37Z</time>
      </trkpt>
      <trkpt lat="44.32965" lon="6.13713">
        <ele>1099.99</ele>
        <time>2020-08-26T10:42:00Z</time>
      </trkpt>
      <trkpt lat="44.32979" lon="6.13784">
        <ele>1101.21</ele>
        <time>2020-08-26T10:42:21Z</time>
      </trkpt>
      <trkpt lat="44.32991" lon="6.13853">
        <ele>1102.67</ele>
        <time>2020-08-26T10:42:42Z</time>
      </trkpt>
      <trkpt lat="44.33001" lon="6.13908">
        <ele>1103.43</ele>
        <time>2020-08-26T10:42:58Z</time>
      </trkpt>
      <trkpt lat="44.33013" lon="6.13995">
        <ele>1104.85</ele>
        <time>2020-08-26T10:43:24Z</time>
      </trkpt>
      <trkpt lat="44.33021" lon="6.14035">
        <ele>1105.79</ele>
        <time>2020-08-26T10:43:36Z</time>
      </trkpt>
      <trkpt lat="44.33021" lon="6.14039">
        <ele>1105.81</ele>
        <time>2020-08-26T10:43:37Z</time>
      </trkpt>
      <trkpt lat="44.33019" lon="6.14107">
        <ele>1107.03</ele>
        <time>2020-08-26T10:43:54Z</time>
      </trkpt>
      <trkpt lat="44.33016" lon="6.14163">
        <ele>1107.48</ele>
        <time>2020-08-26T10:44:08Z</time>
      </trkpt>
      <trkpt lat="44.33011" lon="6.14219">
        <ele>1107.48</ele>
        <time>2020-08-26T10:44:22Z</time>
      </trkpt>
      <trkpt lat="44.33002" lon="6.14291">
        <ele>1109.02</ele>
        <time>2020-08-26T10:44:41Z</time>
      </trkpt>
      <trkpt lat="44.33009" lon="6.1437">
        <ele>1110.87</ele>
        <time>2020-08-26T10:45:01Z</time>
      </trkpt>
      <trkpt lat="44.33039" lon="6.14417">
        <ele>1111.69</ele>
        <time>2020-08-26T10:45:17Z</time>
      </trkpt>
      <trkpt lat="44.33054" lon="6.14461">
        <ele>1112.72</ele>
        <time>2020-08-26T10:45:32Z</time>
      </trkpt>
      <trkpt lat="44.33061" lon="6.14495">
        <ele>1115.79</ele>
        <time>2020-08-26T10:45:44Z</time>
      </trkpt>
      <trkpt lat="44.33059" lon="6.14547">
        <ele>1116.58</ele>
        <time>2020-08-26T10:45:58Z</time>
      </trkpt>
      <trkpt lat="44.33058" lon="6.14596">
        <ele>1116.21</ele>
        <time>2020-08-26T10:46:11Z</time>
      </trkpt>
      <trkpt lat="44.33049" lon="6.14652">
        <ele>1116.48</ele>
        <time>2020-08-26T10:46:26Z</time>
      </trkpt>
      <trkpt lat="44.3305" lon="6.1471">
        <ele>1117.47</ele>
        <time>2020-08-26T10:46:41Z</time>
      </trkpt>
      <trkpt lat="44.33052" lon="6.14762">
        <ele>1118.19</ele>
        <time>2020-08-26T10:46:55Z</time>
      </trkpt>
      <trkpt lat="44.33041" lon="6.14814">
        <ele>1121.25</ele>
        <time>2020-08-26T10:47:12Z</time>
      </trkpt>
      <trkpt lat="44.33045" lon="6.14864">
        <ele>1123.41</ele>
        <time>2020-08-26T10:47:28Z</time>
      </trkpt>
      <trkpt lat="44.33063" lon="6.14895">
        <ele>1126.53</ele>
        <time>2020-08-26T10:47:42Z</time>
      </trkpt>
      <trkpt lat="44.33087" lon="6.1492">
        <ele>1129.62</ele>
        <time>2020-08-26T10:47:56Z</time>
      </trkpt>
      <trkpt lat="44.33107" lon="6.14959">
        <ele>1131.73</ele>
        <time>2020-08-26T10:48:12Z</time>
      </trkpt>
      <trkpt lat="44.33107" lon="6.15021">
        <ele>1132.71</ele>
        <time>2020-08-26T10:48:32Z</time>
      </trkpt>
      <trkpt lat="44.33117" lon="6.15059">
        <ele>1134.04</ele>
        <time>2020-08-26T10:48:47Z</time>
      </trkpt>
      <trkpt lat="44.33122" lon="6.15094">
        <ele>1136.73</ele>
        <time>2020-08-26T10:49:01Z</time>
      </trkpt>
      <trkpt lat="44.33131" lon="6.1513">
        <ele>1138.62</ele>
        <time>2020-08-26T10:49:16Z</time>
      </trkpt>
      <trkpt lat="44.33158" lon="6.1515">
        <ele>1141.66</ele>
        <time>2020-08-26T10:49:33Z</time>
      </trkpt>
      <trkpt lat="44.33168" lon="6.15185">
        <ele>1144.68</ele>
        <time>2020-08-26T10:49:47Z</time>
      </trkpt>
      <trkpt lat="44.33168" lon="6.15216">
        <ele>1147.99</ele>
        <time>2020-08-26T10:49:59Z</time>
      </trkpt>
      <trkpt lat="44.33175" lon="6.15251">
        <ele>1150.23</ele>
        <time>2020-08-26T10:50:14Z</time>
      </trkpt>
      <trkpt lat="44.33192" lon="6.15267">
        <ele>1152.33</ele>
        <time>2020-08-26T10:50:25Z</time>
      </trkpt>
      <trkpt lat="44.33221" lon="6.15293">
        <ele>1155.11</ele>
        <time>2020-08-26T10:50:43Z</time>
      </trkpt>
      <trkpt lat="44.33231" lon="6.15311">
        <ele>1156.93</ele>
        <time>2020-08-26T10:50:52Z</time>
      </trkpt>
      <trkpt lat="44.33233" lon="6.15312">
        <ele>1157</ele>
        <time>2020-08-26T10:50:53Z</time>
      </trkpt>
      <trkpt lat="44.33235" lon="6.15312">
        <ele>1157.08</ele>
        <time>2020-08-26T10:50:54Z</time>
      </trkpt>
      <trkpt lat="44.33236" lon="6.15313">
        <ele>1157.18</ele>
        <time>2020-08-26T10:50:55Z</time>
      </trkpt>
      <trkpt lat="44.33238" lon="6.15314">
        <ele>1157.26</ele>
        <time>2020-08-26T10:50:56Z</time>
      </trkpt>
      <trkpt lat="44.3324" lon="6.15314">
        <ele>1157.32</ele>
        <time>2020-08-26T10:50:57Z</time>
      </trkpt>
      <trkpt lat="44.33243" lon="6.15315">
        <ele>1157.47</ele>
        <time>2020-08-26T10:50:58Z</time>
      </trkpt>
      <trkpt lat="44.33282" lon="6.15306">
        <ele>1157.2</ele>
        <time>2020-08-26T10:51:13Z</time>
      </trkpt>
      <trkpt lat="44.33313" lon="6.15273">
        <ele>1155.27</ele>
        <time>2020-08-26T10:51:29Z</time>
      </trkpt>
      <trkpt lat="44.33332" lon="6.15285">
        <ele>1152.9</ele>
        <time>2020-08-26T10:51:40Z</time>
      </trkpt>
      <trkpt lat="44.33329" lon="6.15334">
        <ele>1150.15</ele>
        <time>2020-08-26T10:51:54Z</time>
      </trkpt>
      <trkpt lat="44.33339" lon="6.15374">
        <ele>1147.33</ele>
        <time>2020-08-26T10:52:05Z</time>
      </trkpt>
      <trkpt lat="44.33373" lon="6.15382">
        <ele>1144.95</ele>
        <time>2020-08-26T10:52:18Z</time>
      </trkpt>
      <trkpt lat="44.3341" lon="6.15398">
        <ele>1142.24</ele>
        <time>2020-08-26T10:52:33Z</time>
      </trkpt>
      <trkpt lat="44.33442" lon="6.15432">
        <ele>1139.53</ele>
        <time>2020-08-26T10:52:49Z</time>
      </trkpt>
      <trkpt lat="44.3345" lon="6.15446">
        <ele>1137.97</ele>
        <time>2020-08-26T10:52:59Z</time>
      </trkpt>
      <trkpt lat="44.3345" lon="6.15455">
        <ele>1137.8</ele>
        <time>2020-08-26T10:53:04Z</time>
      </trkpt>
      <trkpt lat="44.3345" lon="6.15457">
        <ele>1137.77</ele>
        <time>2020-08-26T10:53:05Z</time>
      </trkpt>
      <trkpt lat="44.3345" lon="6.15459">
        <ele>1137.73</ele>
        <time>2020-08-26T10:53:06Z</time>
      </trkpt>
      <trkpt lat="44.3345" lon="6.15462">
        <ele>1137.71</ele>
        <time>2020-08-26T10:53:07Z</time>
      </trkpt>
      <trkpt lat="44.3345" lon="6.15464">
        <ele>1137.69</ele>
        <time>2020-08-26T10:53:08Z</time>
      </trkpt>
      <trkpt lat="44.3345" lon="6.15466">
        <ele>1137.65</ele>
        <time>2020-08-26T10:53:09Z</time>
      </trkpt>
      <trkpt lat="44.33451" lon="6.15469">
        <ele>1137.6</ele>
        <time>2020-08-26T10:53:10Z</time>
      </trkpt>
      <trkpt lat="44.33451" lon="6.15471">
        <ele>1137.46</ele>
        <time>2020-08-26T10:53:11Z</time>
      </trkpt>
      <trkpt lat="44.33454" lon="6.15502">
        <ele>1135.71</ele>
        <time>2020-08-26T10:53:24Z</time>
      </trkpt>
      <trkpt lat="44.33454" lon="6.15538">
        <ele>1134.61</ele>
        <time>2020-08-26T10:53:36Z</time>
      </trkpt>
      <trkpt lat="44.33475" lon="6.15575">
        <ele>1134.51</ele>
        <time>2020-08-26T10:53:51Z</time>
      </trkpt>
      <trkpt lat="44.33477" lon="6.15577">
        <ele>1134.33</ele>
        <time>2020-08-26T10:53:56Z</time>
      </trkpt>
      <trkpt lat="44.33505" lon="6.15606">
        <ele>1136.39</ele>
        <time>2020-08-26T10:57:13Z</time>
      </trkpt>
      <trkpt lat="44.33507" lon="6.15609">
        <ele>1136.39</ele>
        <time>2020-08-26T10:57:14Z</time>
      </trkpt>
      <trkpt lat="44.3353" lon="6.15637">
        <ele>1136.42</ele>
        <time>2020-08-26T10:57:28Z</time>
      </trkpt>
      <trkpt lat="44.33545" lon="6.15679">
        <ele>1138</ele>
        <time>2020-08-26T10:57:43Z</time>
      </trkpt>
      <trkpt lat="44.33571" lon="6.15731">
        <ele>1140.94</ele>
        <time>2020-08-26T10:58:04Z</time>
      </trkpt>
      <trkpt lat="44.33594" lon="6.15769">
        <ele>1143.92</ele>
        <time>2020-08-26T10:58:21Z</time>
      </trkpt>
      <trkpt lat="44.33623" lon="6.15815">
        <ele>1146.63</ele>
        <time>2020-08-26T10:58:41Z</time>
      </trkpt>
      <trkpt lat="44.3363" lon="6.1588">
        <ele>1146.7</ele>
        <time>2020-08-26T10:58:56Z</time>
      </trkpt>
      <trkpt lat="44.33643" lon="6.15954">
        <ele>1148.22</ele>
        <time>2020-08-26T10:59:15Z</time>
      </trkpt>
      <trkpt lat="44.3365" lon="6.16021">
        <ele>1150.44</ele>
        <time>2020-08-26T10:59:33Z</time>
      </trkpt>
      <trkpt lat="44.33665" lon="6.16071">
        <ele>1153.52</ele>
        <time>2020-08-26T10:59:48Z</time>
      </trkpt>
      <trkpt lat="44.33676" lon="6.16104">
        <ele>1156.52</ele>
        <time>2020-08-26T10:59:59Z</time>
      </trkpt>
      <trkpt lat="44.33694" lon="6.16145">
        <ele>1160.18</ele>
        <time>2020-08-26T11:00:14Z</time>
      </trkpt>
      <trkpt lat="44.33708" lon="6.16177">
        <ele>1163.35</ele>
        <time>2020-08-26T11:00:27Z</time>
      </trkpt>
      <trkpt lat="44.3373" lon="6.16191">
        <ele>1166.57</ele>
        <time>2020-08-26T11:00:39Z</time>
      </trkpt>
      <trkpt lat="44.33757" lon="6.16252">
        <ele>1168.08</ele>
        <time>2020-08-26T11:00:58Z</time>
      </trkpt>
      <trkpt lat="44.33789" lon="6.16321">
        <ele>1167.46</ele>
        <time>2020-08-26T11:01:11Z</time>
      </trkpt>
      <trkpt lat="44.33823" lon="6.16415">
        <ele>1164.21</ele>
        <time>2020-08-26T11:01:20Z</time>
      </trkpt>
      <trkpt lat="44.33842" lon="6.16472">
        <ele>1161.07</ele>
        <time>2020-08-26T11:01:25Z</time>
      </trkpt>
      <trkpt lat="44.33853" lon="6.16516">
        <ele>1158.84</ele>
        <time>2020-08-26T11:01:29Z</time>
      </trkpt>
      <trkpt lat="44.33854" lon="6.16527">
        <ele>1158.5</ele>
        <time>2020-08-26T11:01:30Z</time>
      </trkpt>
      <trkpt lat="44.33855" lon="6.16538">
        <ele>1158.06</ele>
        <time>2020-08-26T11:01:31Z</time>
      </trkpt>
      <trkpt lat="44.33854" lon="6.16549">
        <ele>1157.81</ele>
        <time>2020-08-26T11:01:32Z</time>
      </trkpt>
      <trkpt lat="44.33853" lon="6.1656">
        <ele>1157.62</ele>
        <time>2020-08-26T11:01:33Z</time>
      </trkpt>
      <trkpt lat="44.33851" lon="6.1657">
        <ele>1157.48</ele>
        <time>2020-08-26T11:01:34Z</time>
      </trkpt>
      <trkpt lat="44.33849" lon="6.1658">
        <ele>1157.3</ele>
        <time>2020-08-26T11:01:35Z</time>
      </trkpt>
      <trkpt lat="44.33828" lon="6.16679">
        <ele>1156.84</ele>
        <time>2020-08-26T11:01:48Z</time>
      </trkpt>
      <trkpt lat="44.33816" lon="6.16738">
        <ele>1159.21</ele>
        <time>2020-08-26T11:02:02Z</time>
      </trkpt>
      <trkpt lat="44.33804" lon="6.16795">
        <ele>1159.93</ele>
        <time>2020-08-26T11:02:18Z</time>
      </trkpt>
      <trkpt lat="44.33805" lon="6.16858">
        <ele>1161.13</ele>
        <time>2020-08-26T11:02:34Z</time>
      </trkpt>
      <trkpt lat="44.33832" lon="6.16911">
        <ele>1162.99</ele>
        <time>2020-08-26T11:02:52Z</time>
      </trkpt>
      <trkpt lat="44.33831" lon="6.16951">
        <ele>1163.9</ele>
        <time>2020-08-26T11:03:03Z</time>
      </trkpt>
      <trkpt lat="44.33826" lon="6.16973">
        <ele>1164.47</ele>
        <time>2020-08-26T11:03:14Z</time>
      </trkpt>
    </trkseg>
  </trk>
</gpx>